Provisional Data: Sing Sing Creek near Big Flats, NY


Please select a monitoring station.
Please select start date.
Please select start date.

Toggle Unit: C/F Toggle Unit: C/F
Sample Time Temperature (C) Temperature (F) Specific Conductivity (mS/cm) pH   Turbidity (NTU+) DO (mg/L)
4/7/2021 12:00:00 AM 11.26 52.268 0.429 7.92 2.68 9.99
4/7/2021 12:15:00 AM 11.21 52.178 0.43 7.89 2.36 9.92
4/7/2021 12:30:00 AM 11.16 52.088 0.43 7.87 2.44 9.84
4/7/2021 12:45:00 AM 11.11 51.998 0.43 7.85 2.45 9.77
4/7/2021 1:00:00 AM 11.06 51.908 0.43 7.83 2.25 9.69
4/7/2021 1:15:00 AM 11.01 51.818 0.43 7.8 2.26 9.62
4/7/2021 1:30:00 AM 10.97 51.746 0.431 7.79 2.42 9.55
4/7/2021 1:45:00 AM 10.92 51.656 0.431 7.77 2.64 9.53
4/7/2021 2:00:00 AM 10.87 51.566 0.431 7.75 2.48 9.46
4/7/2021 2:15:00 AM 10.82 51.476 0.431 7.74 2.36 9.45
4/7/2021 2:30:00 AM 10.78 51.404 0.431 7.73 2.39 9.41
4/7/2021 2:45:00 AM 10.74 51.332 0.431 7.71 2.5 9.38
4/7/2021 3:00:00 AM 10.69 51.242 0.431 7.71 2.29 9.36
4/7/2021 3:15:00 AM 10.65 51.17 0.431 7.69 2.38 9.32
4/7/2021 3:30:00 AM 10.61 51.098 0.431 7.69 2.29 9.34
4/7/2021 3:45:00 AM 10.57 51.026 0.432 7.68 2.44 9.32
4/7/2021 4:00:00 AM 10.53 50.954 0.431 7.68 2.48 9.32
4/7/2021 4:15:00 AM 10.48 50.864 0.431 7.68 2.31 9.33
4/7/2021 4:30:00 AM 10.44 50.792 0.432 7.67 2.45 9.3
4/7/2021 4:45:00 AM 10.4 50.72 0.432 7.67 2.31 9.31
4/7/2021 5:00:00 AM 10.35 50.63 0.433 7.66 2.51 9.3
4/7/2021 5:15:00 AM 10.32 50.576 0.433 7.66 2.35 9.31
4/7/2021 5:30:00 AM 10.28 50.504 0.434 7.66 2.35 9.31
4/7/2021 5:45:00 AM 10.24 50.432 0.434 7.65 2.44 9.31
4/7/2021 6:00:00 AM 10.2 50.36 0.434 7.65 2.32 9.32
4/7/2021 6:15:00 AM 10.16 50.288 0.434 7.65 2.32 9.33
4/7/2021 6:30:00 AM 10.12 50.216 0.435 7.64 2.31 9.32
4/7/2021 6:45:00 AM 10.08 50.144 0.435 7.64 2.43 9.32
4/7/2021 7:00:00 AM 10.04 50.072 0.435 7.64 2.42 9.35
4/7/2021 7:15:00 AM 10.01 50.018 0.436 7.64 2.32 9.32
4/7/2021 7:30:00 AM 9.98 49.964 0.436 7.63 2.8 9.34
4/7/2021 7:45:00 AM 9.95 49.91 0.437 7.64 2.58 9.37
4/7/2021 8:00:00 AM 9.93 49.874 0.437 7.65 2.62 9.43
4/7/2021 8:15:00 AM 9.9 49.82 0.439 7.64 2.68 9.46
4/7/2021 8:30:00 AM 9.89 49.802 0.44 7.65 2.48 9.54
4/7/2021 8:45:00 AM 9.87 49.766 0.439 7.66 2.4 9.65
4/7/2021 9:00:00 AM 9.85 49.73 0.438 7.67 2.01 9.81
4/7/2021 9:15:00 AM 9.83 49.694 0.439 7.67 2.09 9.82
4/7/2021 9:30:00 AM 9.82 49.676 0.443 7.68 2.07 9.93
4/7/2021 9:45:00 AM 9.83 49.694 0.441 7.71 1.94 10.09
4/7/2021 10:00:00 AM 9.87 49.766 0.507 7.7 2.19 10.15
4/7/2021 10:15:00 AM 9.94 49.892 0.569 7.71 2.2 10.32
4/7/2021 10:30:00 AM 10 50 0.766 7.74 2.11 10.49
4/7/2021 10:45:00 AM 10.02 50.036 0.905 7.74 1.95 10.59
4/7/2021 11:00:00 AM 10.06 50.108 1.096 7.75 2.07 10.69
4/7/2021 11:15:00 AM 10.16 50.288 0.983 7.8 2.13 11.01
4/7/2021 11:30:00 AM 10.27 50.486 0.922 7.83 2.08 11.13
4/7/2021 11:45:00 AM 10.44 50.792 0.864 7.85 2.2 11.34
4/7/2021 12:00:00 PM 10.63 51.134 1.085 7.89 2.09 11.52
4/7/2021 12:15:00 PM 10.77 51.386 1.013 7.92 2.09 11.72
4/7/2021 12:30:00 PM 10.95 51.71 4.373 7.94 2.19 11.77
4/7/2021 12:45:00 PM 11.19 52.142 0.445 7.96 2 12.07
4/7/2021 1:00:00 PM 11.42 52.556 1.299 8 1.94 12.26
4/7/2021 1:15:00 PM 11.55 52.79 4.027 8.02 2.03 12.3
4/7/2021 1:30:00 PM 11.72 53.096 1.003 8.07 1.84 12.56
4/7/2021 1:45:00 PM 12.01 53.618 7.357 8.09 2.2 12.37
4/7/2021 2:00:00 PM 12.26 54.068 0.437 8.13 1.78 12.83
4/7/2021 2:15:00 PM 12.53 54.554 0.199 8.16 1.93 12.89
4/7/2021 2:30:00 PM 12.77 54.986 4.461 8.22 1.78 12.88
4/7/2021 2:45:00 PM 12.94 55.292 0.435 8.26 1.68 13.17
4/7/2021 3:00:00 PM 13.14 55.652 0.435 8.29 1.85 13.23
4/7/2021 3:15:00 PM 13.33 55.994 0.435 8.33 2 13.3
4/7/2021 3:30:00 PM 13.5 56.3 2.526 8.3 1.9 13.19
4/7/2021 3:45:00 PM 13.64 56.552 6.388 8.35 1.92 13
4/7/2021 4:00:00 PM 13.84 56.912 0.487 8.39 1.82 13.35
4/7/2021 4:15:00 PM 13.99 57.182 5.196 8.4 1.89 13.12
4/7/2021 4:30:00 PM 14.13 57.434 0.439 8.45 2.11 13.38
4/7/2021 4:45:00 PM 14.23 57.614 0.439 8.46 1.94 13.09
4/7/2021 5:00:00 PM 14.32 57.776 0.438 8.47 2.28 13.2
4/7/2021 5:15:00 PM 14.39 57.902 0.439 8.5 2.28 13.2
4/7/2021 5:30:00 PM 14.43 57.974 0.439 8.5 2.02 13.05
4/7/2021 5:45:00 PM 14.45 58.01 0.438 8.49 2.79 13
4/7/2021 6:00:00 PM 14.45 58.01 0.437 8.5 1.87 12.76
4/7/2021 6:15:00 PM 14.44 57.992 0.437 8.5 1.98 12.78
4/7/2021 6:30:00 PM 14.37 57.866 0.437 8.49 2.04 12.59
4/7/2021 6:45:00 PM 14.33 57.794 0.436 8.5 2.05 12.39
4/7/2021 7:00:00 PM 14.27 57.686 0.437 8.5 1.81 12.31
4/7/2021 7:15:00 PM 14.2 57.56 0.437 8.47 1.94 12.14
4/7/2021 7:30:00 PM 14.15 57.47 0.436 8.46 1.83 12.05
4/7/2021 7:45:00 PM 14.08 57.344 0.437 8.43 1.8 11.84
4/7/2021 8:00:00 PM 14.02 57.236 0.436 8.43 1.86 11.68
4/7/2021 8:15:00 PM 13.97 57.146 0.436 8.4 2.03 11.52
4/7/2021 8:30:00 PM 13.9 57.02 0.436 8.38 1.93 11.32
4/7/2021 8:45:00 PM 13.84 56.912 0.435 8.34 2.06 11.12
4/7/2021 9:00:00 PM 13.79 56.822 0.435 8.31 2.19 10.93
4/7/2021 9:15:00 PM 13.72 56.696 0.435 8.28 2.15 10.77
4/7/2021 9:30:00 PM 13.64 56.552 0.434 8.25 2.23 10.59
4/7/2021 9:45:00 PM 13.57 56.426 0.434 8.22 2.24 10.43
4/7/2021 10:00:00 PM 13.49 56.282 0.434 8.17 2.18 10.29
4/7/2021 10:15:00 PM 13.4 56.12 0.434 8.14 2.36 10.17
4/7/2021 10:30:00 PM 13.31 55.958 18.162 8.08 2.8 9.38
4/7/2021 10:45:00 PM 13.22 55.796 12.273 8.05 2.37 9.47
4/7/2021 11:00:00 PM 13.13 55.634 0.436 8.04 2.5 9.78
4/7/2021 11:15:00 PM 13.03 55.454 0.438 8.01 2.95 9.69
4/7/2021 11:30:00 PM 12.94 55.292 0.44 7.98 2.59 9.58
4/7/2021 11:45:00 PM 12.85 55.13 0.443 7.94 2.25 9.5
4/8/2021 12:00:00 AM 12.75 54.95 0.446 7.92 2.75 9.36
4/8/2021 12:15:00 AM 12.66 54.788 0.448 7.89 2.35 9.34
4/8/2021 12:30:00 AM 12.56 54.608 0.451 7.86 2.25 9.22
4/8/2021 12:45:00 AM 12.47 54.446 0.454 7.83 2.63 9.13
4/8/2021 1:00:00 AM 12.39 54.302 0.457 7.8 2.47 9.09
4/8/2021 1:15:00 AM 12.3 54.14 0.459 7.77 2.33 8.95
4/8/2021 1:30:00 AM 12.21 53.978 0.461 7.76 2.29 8.97
4/8/2021 1:45:00 AM 12.11 53.798 0.461 7.75 2.29 8.95
4/8/2021 2:00:00 AM 12.03 53.654 0.462 7.72 2.24 8.86
4/8/2021 2:15:00 AM 11.94 53.492 0.461 7.71 2.17 8.86
4/8/2021 2:30:00 AM 11.85 53.33 0.461 7.7 2.28 8.88
4/8/2021 2:45:00 AM 11.76 53.168 0.46 7.68 2.09 8.76
4/8/2021 3:00:00 AM 11.66 52.988 0.459 7.67 2.24 8.83
4/8/2021 3:15:00 AM 11.57 52.826 0.457 7.67 2.27 8.86
4/8/2021 3:30:00 AM 11.49 52.682 0.456 7.66 2.28 8.78
4/8/2021 3:45:00 AM 11.39 52.502 0.454 7.65 2.47 8.84
4/8/2021 4:00:00 AM 11.3 52.34 0.453 7.64 2.31 8.81
4/8/2021 4:15:00 AM 11.19 52.142 0.452 7.64 2.36 8.85
4/8/2021 4:30:00 AM 11.1 51.98 0.451 7.64 2.23 8.89
4/8/2021 4:45:00 AM 11.02 51.836 0.45 7.63 2.28 8.9
4/8/2021 5:00:00 AM 10.92 51.656 0.449 7.63 2.15 8.92
4/8/2021 5:15:00 AM 10.81 51.458 0.448 7.63 2.29 8.94
4/8/2021 5:30:00 AM 10.72 51.296 1.175 7.61 2.04 8.92
4/8/2021 5:45:00 AM 10.64 51.152 15.461 7.58 2.28 8.48
4/8/2021 6:00:00 AM 10.54 50.972 0.947 7.61 2.11 9
4/8/2021 6:15:00 AM 10.45 50.81 0.452 7.61 3.65 9.01
4/8/2021 6:30:00 AM 10.37 50.666 0.448 7.6 2.04 9.01
4/8/2021 6:45:00 AM 10.27 50.486 0.941 7.59 2.37 9
4/8/2021 7:00:00 AM 10.2 50.36 1.014 7.6 2.18 9.04
4/8/2021 7:15:00 AM 10.11 50.198 1.006 7.61 2.75 9.12
4/8/2021 7:30:00 AM 10.02 50.036 1.153 7.62 2.27 9.2
4/8/2021 7:45:00 AM 9.97 49.946 1.071 7.61 3.35 9.19
4/8/2021 8:00:00 AM 9.91 49.838 1.067 7.6 3.29 9.24
4/8/2021 8:15:00 AM 9.84 49.712 1.096 7.61 3.53 9.32
4/8/2021 8:30:00 AM 9.79 49.622 1.082 7.62 2.15 9.38
4/8/2021 8:45:00 AM 9.75 49.55 0.455 7.61 1.99 9.43
4/8/2021 9:00:00 AM 9.69 49.442 14.562 7.6 2.08 9.14
4/8/2021 9:15:00 AM 9.65 49.37 1.062 7.63 2.07 9.73
4/8/2021 9:30:00 AM 9.64 49.352 0.432 7.64 2.12 9.88
4/8/2021 9:45:00 AM 9.63 49.334 1.097 7.67 2.17 10.04
4/8/2021 10:00:00 AM 9.67 49.406 0.037 7.66 2.34 10.16
4/8/2021 10:15:00 AM 9.72 49.496 0.45 7.7 2.65 10.3
4/8/2021 10:30:00 AM 9.78 49.604 14.296 7.7 2.09 9.99
4/8/2021 10:45:00 AM 9.84 49.712 14.189 7.69 2.23 10.1
4/8/2021 11:00:00 AM 9.93 49.874 14.41 7.72 2.16 10.3
4/8/2021 11:15:00 AM 10.06 50.108 0.77 7.74 2.26 10.89
4/8/2021 11:30:00 AM 10.22 50.396 1.084 7.81 2.47 11.15
4/8/2021 11:45:00 AM 10.4 50.72 1.314 7.85 2.46 11.36
4/8/2021 12:00:00 PM 10.59 51.062 1.297 7.88 2.11 11.55
4/8/2021 12:15:00 PM 10.81 51.458 1.261 7.91 2.45 11.55
4/8/2021 12:30:00 PM 11.05 51.89 1.294 7.94 2.17 11.87
4/8/2021 12:45:00 PM 11.32 52.376 1.373 7.97 2.29 12.13
4/8/2021 1:00:00 PM 11.56 52.808 1.422 7.98 2.02 12.25
4/8/2021 1:15:00 PM 11.8 53.24 0.888 8 2.21 12.34
4/8/2021 1:30:00 PM 12.11 53.798 1.118 8.05 2.03 12.55
4/8/2021 1:45:00 PM 12.43 54.374 5.066 8.11 1.94 12.58
4/8/2021 2:00:00 PM 12.71 54.878 1.805 8.13 1.94 12.53
4/8/2021 2:15:00 PM 13 55.4 9.394 8.17 1.98 12.6
4/8/2021 2:30:00 PM 13.27 55.886 0.44 8.2 2.2 13.15
4/8/2021 2:45:00 PM 13.55 56.39 7.824 8.23 2.09 12.89
4/8/2021 3:00:00 PM 13.81 56.858 11.805 8.27 1.92 12.81
4/8/2021 3:15:00 PM 13.99 57.182 9.464 8.28 1.98 12.89
4/8/2021 3:30:00 PM 14.29 57.722 10.287 8.34 4.33 12.92
4/8/2021 3:45:00 PM 14.49 58.082 0.446 8.38 1.82 13.41
4/8/2021 4:00:00 PM 14.7 58.46 10.892 8.4 1.84 12.99
4/8/2021 4:15:00 PM 14.86 58.748 10.899 8.4 1.89 12.93
4/8/2021 4:30:00 PM 14.99 58.982 11.557 8.44 1.73 12.83
4/8/2021 4:45:00 PM 15.12 59.216 0.443 8.48 1.84 13.35
4/8/2021 5:00:00 PM 15.23 59.414 0.366 8.5 1.96 13.34
4/8/2021 5:15:00 PM 15.31 59.558 0.439 8.51 1.73 13.28
4/8/2021 5:30:00 PM 15.38 59.684 13.566 8.49 1.78 12.57
4/8/2021 5:45:00 PM 15.39 59.702 11.237 8.49 1.75 12.55
4/8/2021 6:00:00 PM 15.41 59.738 0.522 8.52 1.79 12.88
4/8/2021 6:15:00 PM 15.4 59.72 0.444 8.52 1.7 12.8
4/8/2021 6:30:00 PM 15.41 59.738 0.442 8.53 1.78 12.69
4/8/2021 6:45:00 PM 15.38 59.684 0.441 8.51 1.84 12.52
4/8/2021 7:00:00 PM 15.34 59.612 0.444 8.5 1.81 12.36
4/8/2021 7:15:00 PM 15.32 59.576 0.444 8.51 2.02 12.21
4/8/2021 7:30:00 PM 15.26 59.468 0.444 8.48 1.89 12
4/8/2021 7:45:00 PM 15.2 59.36 0.443 8.47 2.11 11.83
4/8/2021 8:00:00 PM 15.14 59.252 0.445 8.44 2.24 11.61
4/8/2021 8:15:00 PM 15.07 59.126 0.445 8.41 1.92 11.42
4/8/2021 8:30:00 PM 15.02 59.036 0.443 8.39 2.09 11.24
4/8/2021 8:45:00 PM 14.94 58.892 0.443 8.37 2.24 11.05
4/8/2021 9:00:00 PM 14.87 58.766 0.443 8.33 2.1 10.83
4/8/2021 9:15:00 PM 14.8 58.64 0.443 8.3 2.99 10.67
4/8/2021 9:30:00 PM 14.73 58.514 0.444 8.27 2.87 10.45
4/8/2021 9:45:00 PM 14.66 58.388 0.443 8.24 2.49 10.34
4/8/2021 10:00:00 PM 14.58 58.244 19.071 8.19 2.16 9.51
4/8/2021 10:15:00 PM 14.5 58.1 12.879 8.16 2.31 9.58
4/8/2021 10:30:00 PM 14.42 57.956 13.916 8.12 2.14 9.39
4/8/2021 10:45:00 PM 14.33 57.794 13.903 8.09 2.37 9.26
4/8/2021 11:00:00 PM 14.24 57.632 13.294 8.06 2.31 9.18
4/8/2021 11:15:00 PM 14.15 57.47 1.704 8.04 2.3 9.46
4/8/2021 11:30:00 PM 14.06 57.308 0.447 8.02 2.29 9.37
4/8/2021 11:45:00 PM 13.97 57.146 0.445 7.99 2.28 9.29
4/9/2021 12:00:00 AM 13.89 57.002 0.445 7.96 2.2 9.19
4/9/2021 12:15:00 AM 13.81 56.858 0.445 7.94 2.27 9.08
4/9/2021 12:30:00 AM 13.72 56.696 0.445 7.9 2.37 9
4/9/2021 12:45:00 AM 13.64 56.552 0.446 7.87 2.54 8.9
4/9/2021 1:00:00 AM 13.57 56.426 0.446 7.85 2.24 8.81
4/9/2021 1:15:00 AM 13.51 56.318 0.446 7.83 2.31 8.77
4/9/2021 1:30:00 AM 13.44 56.192 0.447 7.81 2.3 8.7
4/9/2021 1:45:00 AM 13.37 56.066 0.446 7.78 2.53 8.65
4/9/2021 2:00:00 AM 13.3 55.94 0.447 7.77 2.26 8.6
4/9/2021 2:15:00 AM 13.22 55.796 0.446 7.75 2.51 8.58
4/9/2021 2:30:00 AM 13.15 55.67 2.943 7.73 2.14 8.46
4/9/2021 2:45:00 AM 13.08 55.544 12.041 7.71 2.44 8.13
4/9/2021 3:00:00 AM 13.02 55.436 13.147 7.69 2.53 8.09
4/9/2021 3:15:00 AM 12.95 55.31 0.45 7.69 2.39 8.42
4/9/2021 3:30:00 AM 12.89 55.202 0.472 7.67 2.41 8.42
4/9/2021 3:45:00 AM 12.83 55.094 11.671 7.65 2.38 8.08
4/9/2021 4:00:00 AM 12.75 54.95 13.47 7.66 2.21 8.05
4/9/2021 4:15:00 AM 12.7 54.86 10.499 7.65 2.34 8.12
4/9/2021 4:30:00 AM 12.64 54.752 11.196 7.64 2.42 8.13
4/9/2021 4:45:00 AM 12.58 54.644 0.395 7.64 2.46 8.42
4/9/2021 5:00:00 AM 12.52 54.536 12.698 7.63 2.42 8.41
4/9/2021 5:15:00 AM 12.46 54.428 12.358 7.63 2.45 8.04
4/9/2021 5:30:00 AM 12.4 54.32 0.451 7.65 2.4 8.4
4/9/2021 5:45:00 AM 12.34 54.212 0.452 7.64 2.36 8.4
4/9/2021 6:00:00 AM 12.27 54.086 0.452 7.64 2.58 8.45
4/9/2021 6:15:00 AM 12.21 53.978 0.452 7.63 2.33 8.44
4/9/2021 6:30:00 AM 12.14 53.852 0.453 7.64 2.4 8.49
4/9/2021 6:45:00 AM 12.07 53.726 0.454 7.63 2.44 8.48
4/9/2021 7:00:00 AM 12.01 53.618 0.454 7.64 2.33 8.54
4/9/2021 7:15:00 AM 11.95 53.51 0.455 7.63 2.36 8.57
4/9/2021 7:30:00 AM 11.92 53.456 0.456 7.64 3.05 8.63
4/9/2021 7:45:00 AM 11.89 53.402 0.456 7.65 2.25 8.75
4/9/2021 8:00:00 AM 11.88 53.384 0.456 7.65 2.52 8.86
4/9/2021 8:15:00 AM 11.86 53.348 0.457 7.66 2.22 8.96
4/9/2021 8:30:00 AM 11.84 53.312 0.457 7.67 3.51 9
4/9/2021 8:45:00 AM 11.82 53.276 0.458 7.66 2.19 9.14
4/9/2021 9:00:00 AM 11.8 53.24 0.457 7.68 8 9.29
4/9/2021 9:15:00 AM 11.81 53.258 0.458 7.7 2.37 9.43
4/9/2021 9:30:00 AM 11.83 53.294 0.457 7.72 2.5 9.68
4/9/2021 9:45:00 AM 11.83 53.294 0.458 7.74 3.52 9.76
4/9/2021 10:00:00 AM 11.81 53.258 0.457 7.76 2.62 9.93
4/9/2021 10:15:00 AM 11.82 53.276 0.456 7.79 2.57 10.11
4/9/2021 10:30:00 AM 11.85 53.33 0.456 7.81 2.42 10.29
4/9/2021 10:45:00 AM 11.88 53.384 0.457 7.82 2.45 10.42
4/9/2021 11:00:00 AM 11.89 53.402 0.457 7.85 2.38 10.65
4/9/2021 11:15:00 AM 11.91 53.438 0.457 7.88 2.37 10.8
4/9/2021 11:30:00 AM 11.91 53.438 0.457 7.9 2.25 10.92
4/9/2021 11:45:00 AM 11.95 53.51 0.458 7.92 2.05 11.09
4/9/2021 12:00:00 PM 12.01 53.618 0.46 7.95 1.89 11.3
4/9/2021 12:15:00 PM 12.09 53.762 0.458 7.97 2.02 11.43
4/9/2021 12:30:00 PM 12.17 53.906 0.457 8.02 2.05 11.66
4/9/2021 12:45:00 PM 12.35 54.23 0.457 8.05 2.2 11.86
4/9/2021 1:00:00 PM 12.53 54.554 0.457 8.08 2.03 11.98
4/9/2021 1:15:00 PM 12.65 54.77 0.457 8.11 1.96 12.16
4/9/2021 1:30:00 PM 12.68 54.824 0.457 8.14 1.99 12.3
4/9/2021 1:45:00 PM 12.73 54.914 0.458 8.16 1.97 12.4
4/9/2021 2:00:00 PM 12.75 54.95 0.457 8.2 1.89 12.55
4/9/2021 2:15:00 PM 12.77 54.986 0.457 8.23 1.95 12.7
4/9/2021 2:30:00 PM 12.87 55.166 0.456 8.28 1.91 12.85
4/9/2021 2:45:00 PM 13.03 55.454 0.456 8.31 1.95 12.96
4/9/2021 3:00:00 PM 13.14 55.652 0.455 8.34 2.21 13.04
4/9/2021 3:15:00 PM 13.2 55.76 0.455 8.37 2.21 13.11
4/9/2021 3:30:00 PM 13.28 55.904 0.456 8.4 2.04 13.24
4/9/2021 3:45:00 PM 13.35 56.03 0.455 8.43 2.65 13.29
4/9/2021 4:00:00 PM 13.38 56.084 0.454 8.46 2.49 13.3
4/9/2021 4:15:00 PM 13.42 56.156 0.454 8.47 2.31 13.31
4/9/2021 4:30:00 PM 13.45 56.21 0.454 8.49 3.98 13.33
4/9/2021 4:45:00 PM 13.46 56.228 0.454 8.5 2.26 13.32
4/9/2021 5:00:00 PM 13.47 56.246 0.455 8.51 2 13.26
4/9/2021 5:15:00 PM 13.5 56.3 0.455 8.52 2.34 13.22
4/9/2021 5:30:00 PM 13.56 56.408 0.456 8.54 2.31 13.33
4/9/2021 5:45:00 PM 13.61 56.498 0.455 8.56 2.09 13.3
4/9/2021 6:00:00 PM 13.63 56.534 0.454 8.55 1.97 13.23
4/9/2021 6:15:00 PM 13.64 56.552 0.456 8.56 1.93 13.09
4/9/2021 6:30:00 PM 13.64 56.552 0.454 8.56 1.99 13.02
4/9/2021 6:45:00 PM 13.65 56.57 0.455 8.56 2.06 12.93
4/9/2021 7:00:00 PM 13.65 56.57 0.455 8.56 1.98 12.76
4/9/2021 7:15:00 PM 13.65 56.57 0.455 8.55 1.83 12.6
4/9/2021 7:30:00 PM 13.65 56.57 0.455 8.53 1.88 12.4
4/9/2021 7:45:00 PM 13.64 56.552 0.455 8.51 1.95 12.07
4/9/2021 8:00:00 PM 13.64 56.552 0.455 8.49 1.99 12.01
4/9/2021 8:15:00 PM 13.63 56.534 0.455 8.48 1.93 11.81
4/9/2021 8:30:00 PM 13.62 56.516 0.456 8.46 1.92 11.64
4/9/2021 8:45:00 PM 13.59 56.462 0.458 8.42 1.98 11.45
4/9/2021 9:00:00 PM 13.57 56.426 0.456 8.41 1.98 11.29
4/9/2021 9:15:00 PM 13.52 56.336 0.457 8.37 2.14 11.07
4/9/2021 9:30:00 PM 13.47 56.246 0.458 8.32 2.57 10.88
4/9/2021 9:45:00 PM 13.41 56.138 0.459 8.29 2.13 10.72
4/9/2021 10:00:00 PM 13.36 56.048 0.457 8.27 2.17 10.57
4/9/2021 10:15:00 PM 13.31 55.958 0.459 8.23 2.02 10.39
4/9/2021 10:30:00 PM 13.26 55.868 0.459 8.18 2.35 10.27
4/9/2021 10:45:00 PM 13.2 55.76 0.46 8.16 2.2 10.11
4/9/2021 11:00:00 PM 13.15 55.67 1.333 8.12 2.19 9.97
4/9/2021 11:15:00 PM 13.09 55.562 2.044 8.09 2.35 9.87
4/9/2021 11:30:00 PM 13.04 55.472 13.045 8.05 2.16 9.36
4/9/2021 11:45:00 PM 12.99 55.382 9.579 8.01 2.32 9.35
4/10/2021 12:00:00 AM 12.93 55.274 8.21 7.98 2.56 9.33
4/10/2021 12:15:00 AM 12.87 55.166 10.279 7.96 2.31 9.2
4/10/2021 12:30:00 AM 12.83 55.094 9.206 7.93 2.7 9.17
4/10/2021 12:45:00 AM 12.78 55.004 9.99 7.91 2.36 9.26
4/10/2021 1:00:00 AM 12.73 54.914 9.768 7.87 2.67 8.96
4/10/2021 1:15:00 AM 12.69 54.842 8.763 7.85 2.52 8.83
4/10/2021 1:30:00 AM 12.65 54.77 0.465 7.84 2.41 9.09
4/10/2021 1:45:00 AM 12.6 54.68 0.462 7.82 2.27 9.02
4/10/2021 2:00:00 AM 12.56 54.608 0.463 7.8 2.46 8.97
4/10/2021 2:15:00 AM 12.52 54.536 0.466 7.78 2.42 8.88
4/10/2021 2:30:00 AM 12.48 54.464 0.465 7.77 2.33 8.85
4/10/2021 2:45:00 AM 12.44 54.392 0.466 7.75 2.23 8.82
4/10/2021 3:00:00 AM 12.41 54.338 7.483 7.72 2.21 8.56
4/10/2021 3:15:00 AM 12.37 54.266 13.662 7.72 2.38 8.33
4/10/2021 3:30:00 AM 12.34 54.212 3.811 7.71 2.39 8.63
4/10/2021 3:45:00 AM 12.3 54.14 4.61 7.7 2.2 8.59
4/10/2021 4:00:00 AM 12.27 54.086 4.749 7.69 4.26 8.56
4/10/2021 4:15:00 AM 12.24 54.032 4.613 7.69 2.43 8.57
4/10/2021 4:30:00 AM 12.2 53.96 4.431 7.68 2.83 8.56
4/10/2021 4:45:00 AM 12.17 53.906 4.073 7.68 2.31 8.56
4/10/2021 5:00:00 AM 12.14 53.852 10.455 7.66 2.22 8.36
4/10/2021 5:15:00 AM 12.11 53.798 0.467 7.67 2.19 8.66
4/10/2021 5:30:00 AM 12.08 53.744 4.472 7.66 2.27 8.55
4/10/2021 5:45:00 AM 12.05 53.69 5.659 7.65 2.42 8.49
4/10/2021 6:00:00 AM 12.02 53.636 0.47 7.65 2.41 8.65
4/10/2021 6:15:00 AM 11.99 53.582 5.037 7.65 2.56 8.43
4/10/2021 6:30:00 AM 11.97 53.546 6.23 7.65 2.4 8.46
4/10/2021 6:45:00 AM 11.94 53.492 3.413 7.64 2.22 8.55
4/10/2021 7:00:00 AM 11.92 53.456 10.075 7.63 2.25 8.4
4/10/2021 7:15:00 AM 11.9 53.42 8.491 7.64 2.3 8.44
4/10/2021 7:30:00 AM 11.88 53.384 0.47 7.65 3.25 8.73
4/10/2021 7:45:00 AM 11.87 53.366 0.469 7.67 2.36 8.81
4/10/2021 8:00:00 AM 11.87 53.366 7.075 7.65 2.25 8.56
4/10/2021 8:15:00 AM 11.86 53.348 8.692 7.65 2.34 8.57
4/10/2021 8:30:00 AM 11.86 53.348 5.94 7.67 2.21 8.86
4/10/2021 8:45:00 AM 11.86 53.348 11.803 7.67 2.35 8.75
4/10/2021 9:00:00 AM 11.88 53.384 10.704 7.68 1.96 8.93
4/10/2021 9:15:00 AM 11.89 53.402 2.644 7.7 2.01 9.34
4/10/2021 9:30:00 AM 11.91 53.438 6.827 7.71 2.14 9.3
4/10/2021 9:45:00 AM 11.95 53.51 6.394 7.72 2.98 9.49
4/10/2021 10:00:00 AM 11.99 53.582 8.393 7.73 2.46 9.51
4/10/2021 10:15:00 AM 12.06 53.708 10.377 7.76 2.36 9.74
4/10/2021 10:30:00 AM 12.16 53.888 10.946 7.77 2.22 9.81
4/10/2021 10:45:00 AM 12.3 54.14 0.467 7.81 2.26 10.53
4/10/2021 11:00:00 AM 12.45 54.41 7.326 7.84 2.41 10.46
4/10/2021 11:15:00 AM 12.58 54.644 7.042 7.86 2.76 10.5
4/10/2021 11:30:00 AM 12.79 55.022 10.935 7.9 2.2 10.73
4/10/2021 11:45:00 AM 12.96 55.328 10.231 7.92 2.29 10.94
4/10/2021 12:00:00 PM 13.13 55.634 0.47 7.95 2.07 11.51
4/10/2021 12:15:00 PM 13.3 55.94 9.676 7.99 6.86 11.32
4/10/2021 12:30:00 PM 13.46 56.228 10.353 8.01 2.38 11.46
4/10/2021 12:45:00 PM 13.6 56.48 0.472 8.07 2.01 12.05
4/10/2021 1:00:00 PM 13.74 56.732 11.497 8.1 2.02 11.75
4/10/2021 1:15:00 PM 13.91 57.038 11.365 8.11 2.22 11.92
4/10/2021 1:30:00 PM 14.06 57.308 9.573 8.15 2.02 12.13
4/10/2021 1:45:00 PM 14.25 57.65 7.873 8.18 1.99 12.41
4/10/2021 2:00:00 PM 14.46 58.028 9.01 8.21 1.92 12.43
4/10/2021 2:15:00 PM 14.69 58.442 9.847 8.24 1.91 12.54
4/10/2021 2:30:00 PM 14.91 58.838 10.359 8.27 1.99 12.63
4/10/2021 2:45:00 PM 15.09 59.162 9.978 8.3 1.92 12.76
4/10/2021 3:00:00 PM 15.24 59.432 7.942 8.34 1.92 12.95
4/10/2021 3:15:00 PM 15.38 59.684 9.671 8.37 1.85 12.97
4/10/2021 3:30:00 PM 15.55 59.99 9.875 8.41 1.87 13.08
4/10/2021 3:45:00 PM 15.68 60.224 10.012 8.44 1.81 13.13
4/10/2021 4:00:00 PM 15.8 60.44 9.445 8.46 1.86 13.21
4/10/2021 4:15:00 PM 15.9 60.62 10.056 8.49 1.92 13.19
4/10/2021 4:30:00 PM 16.01 60.818 10.122 8.51 1.88 13.2
4/10/2021 4:45:00 PM 16.11 60.998 11.098 8.53 2.06 13.17
4/10/2021 5:00:00 PM 16.2 61.16 10.723 8.55 2.14 13.17
4/10/2021 5:15:00 PM 16.27 61.286 0.467 8.58 2.19 13.6
4/10/2021 5:30:00 PM 16.32 61.376 0.466 8.6 2.04 13.54
4/10/2021 5:45:00 PM 16.35 61.43 0.468 8.61 2.11 13.45
4/10/2021 6:00:00 PM 16.36 61.448 0.466 8.61 1.94 13.34
4/10/2021 6:15:00 PM 16.35 61.43 0.466 8.62 1.99 13.2
4/10/2021 6:30:00 PM 16.34 61.412 0.465 8.61 1.95 13.07
4/10/2021 6:45:00 PM 16.31 61.358 8.001 8.59 2.05 12.59
4/10/2021 7:00:00 PM 16.27 61.286 8.041 8.58 1.91 12.41
4/10/2021 7:15:00 PM 16.23 61.214 8.32 8.57 1.94 12.15
4/10/2021 7:30:00 PM 16.19 61.142 8.859 8.56 1.98 11.97
4/10/2021 7:45:00 PM 16.13 61.034 8.484 8.54 1.98 11.76
4/10/2021 8:00:00 PM 16.07 60.926 9.289 8.52 2.09 11.5
4/10/2021 8:15:00 PM 16.01 60.818 10.789 8.5 2.03 11.21
4/10/2021 8:30:00 PM 15.95 60.71 11.299 8.47 2.06 10.97
4/10/2021 8:45:00 PM 15.88 60.584 8.545 8.47 2.21 10.86
4/10/2021 9:00:00 PM 15.81 60.458 11.77 8.42 2.42 10.54
4/10/2021 9:15:00 PM 15.75 60.35 9.576 8.4 2.42 10.41
4/10/2021 9:30:00 PM 15.68 60.224 11.515 8.37 2.62 10.15
4/10/2021 9:45:00 PM 15.6 60.08 0.343 8.36 2.48 10.33
4/10/2021 10:00:00 PM 15.53 59.954 10.344 8.32 2.73 9.8
4/10/2021 10:15:00 PM 15.46 59.828 0.472 8.3 2.77 10
4/10/2021 10:30:00 PM 15.39 59.702 8.74 8.25 2.75 9.54
4/10/2021 10:45:00 PM 15.32 59.576 9.542 8.2 2.72 9.36
4/10/2021 11:00:00 PM 15.24 59.432 10.032 8.18 2.69 9.2
4/10/2021 11:15:00 PM 15.17 59.306 9.271 8.14 2.51 9.03
4/10/2021 11:30:00 PM 15.1 59.18 11.381 8.11 2.85 8.88
4/10/2021 11:45:00 PM 15.02 59.036 0.473 8.11 2.52 9.12
4/11/2021 12:00:00 AM 14.95 58.91 0.473 8.06 2.43 9
4/11/2021 12:15:00 AM 14.88 58.784 11.005 8.01 2.61 8.55
4/11/2021 12:30:00 AM 14.81 58.658 11.163 7.97 3.45 8.42
4/11/2021 12:45:00 AM 14.73 58.514 0.484 7.98 2.69 8.7
4/11/2021 1:00:00 AM 14.66 58.388 11.432 7.93 2.58 8.27
4/11/2021 1:15:00 AM 14.59 58.262 11.564 7.87 2.85 8.15
4/11/2021 1:30:00 AM 14.52 58.136 0.465 7.87 2.59 8.4
4/11/2021 1:45:00 AM 14.45 58.01 0.486 7.84 2.53 8.28
4/11/2021 2:00:00 AM 14.39 57.902 10.029 7.82 2.6 7.97
4/11/2021 2:15:00 AM 14.33 57.794 9.79 7.8 2.88 7.92
4/11/2021 2:30:00 AM 14.27 57.686 9.753 7.77 2.57 7.86
4/11/2021 2:45:00 AM 14.21 57.578 9.929 7.75 2.85 7.8
4/11/2021 3:00:00 AM 14.17 57.506 9.839 7.74 2.66 7.75
4/11/2021 3:15:00 AM 14.12 57.416 9.979 7.72 2.69 7.72
4/11/2021 3:30:00 AM 14.07 57.326 10.315 7.7 2.64 7.67
4/11/2021 3:45:00 AM 14.02 57.236 9.105 7.69 2.61 7.66
4/11/2021 4:00:00 AM 13.97 57.146 11.785 7.69 2.57 7.58
4/11/2021 4:15:00 AM 13.92 57.056 0.479 7.69 2.42 7.88
4/11/2021 4:30:00 AM 13.88 56.984 12.253 7.67 2.54 7.55
4/11/2021 4:45:00 AM 13.84 56.912 11.921 7.65 2.63 7.55
4/11/2021 5:00:00 AM 13.79 56.822 10.411 7.65 2.68 7.59
4/11/2021 5:15:00 AM 13.75 56.75 10.566 7.64 2.73 7.59
4/11/2021 5:30:00 AM 13.71 56.678 10.41 7.64 2.59 7.59
4/11/2021 5:45:00 AM 13.66 56.588 11.355 7.64 2.98 7.53
4/11/2021 6:00:00 AM 13.62 56.516 11.494 7.64 2.64 7.54
4/11/2021 6:15:00 AM 13.58 56.444 10.892 7.62 2.48 7.58
4/11/2021 6:30:00 AM 13.54 56.372 10.975 7.62 2.58 7.58
4/11/2021 6:45:00 AM 13.49 56.282 10.708 7.62 2.48 7.59
4/11/2021 7:00:00 AM 13.45 56.21 10.71 7.63 2.51 7.61
4/11/2021 7:15:00 AM 13.41 56.138 9.678 7.62 2.46 7.65
4/11/2021 7:30:00 AM 13.37 56.066 0.481 7.64 2.43 7.93
4/11/2021 7:45:00 AM 13.33 55.994 0.473 7.64 2.45 7.98
4/11/2021 8:00:00 AM 13.32 55.976 11.078 7.62 2.93 7.75
4/11/2021 8:15:00 AM 13.29 55.922 11.295 7.62 2.41 7.79
4/11/2021 8:30:00 AM 13.26 55.868 0.486 7.63 2.71 8.17
4/11/2021 8:45:00 AM 13.23 55.814 0.48 7.65 2.71 8.24
4/11/2021 9:00:00 AM 13.21 55.778 11.738 7.64 2.84 7.98
4/11/2021 9:15:00 AM 13.19 55.742 11.041 7.64 2.53 8.08
4/11/2021 9:30:00 AM 13.17 55.706 0.48 7.67 2.59 8.47
4/11/2021 9:45:00 AM 13.16 55.688 11.879 7.67 3.29 8.24
4/11/2021 10:00:00 AM 13.15 55.67 0.476 7.67 2.89 8.69
4/11/2021 10:15:00 AM 13.14 55.652 10.968 7.68 2.77 8.49
4/11/2021 10:30:00 AM 13.14 55.652 7.324 7.7 2.77 8.74
4/11/2021 10:45:00 AM 13.14 55.652 0.479 7.73 2.99 9.12
4/11/2021 11:00:00 AM 13.15 55.67 0.477 7.74 4.07 9.25
4/11/2021 11:15:00 AM 13.17 55.706 0.474 7.77 2.95 9.46
4/11/2021 11:30:00 AM 13.19 55.742 0.476 7.79 2.75 9.61
4/11/2021 11:45:00 AM 13.22 55.796 0.475 7.81 4.07 9.82
4/11/2021 12:00:00 PM 13.26 55.868 0.475 7.84 2.91 10.04
4/11/2021 12:15:00 PM 13.33 55.994 0.474 7.87 3.05 10.24
4/11/2021 12:30:00 PM 13.43 56.174 0.472 7.9 3.07 10.47
4/11/2021 12:45:00 PM 13.49 56.282 0.474 7.93 2.88 10.68
4/11/2021 1:00:00 PM 13.52 56.336 0.472 7.94 3.91 10.79
4/11/2021 1:15:00 PM 13.55 56.39 13.605 7.95 2.83 10.47
4/11/2021 1:30:00 PM 13.56 56.408 12.424 7.98 2.8 10.64
4/11/2021 1:45:00 PM 13.56 56.408 11.771 8 2.95 10.73
4/11/2021 2:00:00 PM 13.57 56.426 11.759 8.02 2.97 10.82
4/11/2021 2:15:00 PM 13.63 56.534 11.905 8.06 3.17 10.99
4/11/2021 2:30:00 PM 13.71 56.678 0.47 8.13 3.17 11.63
4/11/2021 2:45:00 PM 13.85 56.93 0.469 8.16 2.82 11.83
4/11/2021 3:00:00 PM 13.95 57.11 0.466 8.2 2.74 11.98
4/11/2021 3:15:00 PM 13.99 57.182 0.133 8.24 2.75 12.08
4/11/2021 3:30:00 PM 14.04 57.272 0.467 8.26 2.68 12.16
4/11/2021 3:45:00 PM 14.05 57.29 0.465 8.29 2.5 12.21
4/11/2021 4:00:00 PM 14.04 57.272 0.464 8.3 2.6 12.19
4/11/2021 4:15:00 PM 14.05 57.29 0.462 8.31 8.55 12.17
4/11/2021 4:30:00 PM 14.06 57.308 0.462 8.31 5.07 12.16
4/11/2021 4:45:00 PM 14.1 57.38 13.236 8.3 7.87 11.63
4/11/2021 5:00:00 PM 14.12 57.416 11.89 8.32 6.78 11.63
4/11/2021 5:15:00 PM 14.15 57.47 11.861 8.33 4.38 11.58
4/11/2021 5:30:00 PM 14.17 57.506 0.466 8.36 4.53 11.96
4/11/2021 5:45:00 PM 14.18 57.524 11.67 8.35 5.52 11.43
4/11/2021 6:00:00 PM 14.17 57.506 0.461 8.38 5.1 11.78
4/11/2021 6:15:00 PM 14.14 57.452 11.96 8.31 6.19 11.11
4/11/2021 6:30:00 PM 14.12 57.416 0.401 8.33 6.33 11.43
4/11/2021 6:45:00 PM 14.1 57.38 11.044 8.27 4.73 10.85
4/11/2021 7:00:00 PM 14.08 57.344 11.071 8.26 5.07 10.71
4/11/2021 7:15:00 PM 14.04 57.272 10.982 8.21 6.37 10.52
4/11/2021 7:30:00 PM 14.02 57.236 0.475 8.22 6.52 10.8
4/11/2021 7:45:00 PM 13.99 57.182 3.765 8.2 7.33 10.54
4/11/2021 8:00:00 PM 13.96 57.128 0.478 8.16 8.74 10.48
4/11/2021 8:15:00 PM 13.93 57.074 12.82 8.13 9.54 9.9
4/11/2021 8:30:00 PM 13.88 56.984 0.463 8.08 7.82 10.14
4/11/2021 8:45:00 PM 13.82 56.876 12.057 8 12.44 9.53
4/11/2021 9:00:00 PM 13.74 56.732 11.676 7.94 15.57 9.37
4/11/2021 9:15:00 PM 13.64 56.552 10.516 7.87 14.34 9.27
4/11/2021 9:30:00 PM 13.52 56.336 0.441 7.83 16.09 9.49
4/11/2021 9:45:00 PM 13.43 56.174 10.814 7.74 27.77 9.03
4/11/2021 10:00:00 PM 13.33 55.994 10.987 7.67 35.99 8.93
4/11/2021 10:15:00 PM 13.23 55.814 10.375 7.62 94.81 8.89
4/11/2021 10:30:00 PM 13.16 55.688 10.257 7.58 92.39 8.92
4/11/2021 10:45:00 PM 13.01 55.418 9.53 7.53 137.46 8.97
4/11/2021 11:00:00 PM 12.73 54.914 8.901 7.47 213.37 9.03
4/11/2021 11:15:00 PM 12.39 54.302 7.905 7.42 305.91 9.22
4/11/2021 11:30:00 PM 12.1 53.78 7.203 7.35 349.71 9.34
4/11/2021 11:45:00 PM 11.88 53.384 6.802 7.33 291.68 9.48
4/12/2021 12:00:00 AM 11.66 52.988 4.583 7.29 388 9.65
4/12/2021 12:15:00 AM 11.45 52.61 4.388 7.27 501.23 9.74
4/12/2021 12:30:00 AM 11.32 52.376 4.426 7.23 351.88 9.8
4/12/2021 12:45:00 AM 11.26 52.268 0.221 7.22 368.3 9.94
4/12/2021 1:00:00 AM 11.24 52.232 6.62 7.22 378.36 9.71
4/12/2021 1:15:00 AM 11.21 52.178 6.496 7.19 334.56 9.72
4/12/2021 1:30:00 AM 11.16 52.088 6.43 7.21 330.59 9.75
4/12/2021 1:45:00 AM 11.1 51.98 0.116 7.21 362.62 9.99
4/12/2021 2:00:00 AM 11.05 51.89 6.248 7.2 269.75 9.81
4/12/2021 2:15:00 AM 11.01 51.818 0.203 7.22 441.53 10.04
4/12/2021 2:30:00 AM 10.98 51.764 3.749 7.2 268.43 9.93
4/12/2021 2:45:00 AM 10.95 51.71 6.112 7.19 179.67 9.85
4/12/2021 3:00:00 AM 10.92 51.656 6.1 7.17 197.76 9.85
4/12/2021 3:15:00 AM 10.89 51.602 4.605 7.19 182.89 9.91
4/12/2021 3:30:00 AM 10.85 51.53 5.891 7.19 140.72 10.06
4/12/2021 3:45:00 AM 10.82 51.476 0.11 7.21 152.42 10.06
4/12/2021 4:00:00 AM 10.79 51.422 0.109 7.2 187.99 10.07
4/12/2021 4:15:00 AM 10.75 51.35 0.114 7.19 153.35 10.08
4/12/2021 4:30:00 AM 10.72 51.296 0.345 7.21 139.81 10.07
4/12/2021 4:45:00 AM 10.69 51.242 6.324 7.16 93.02 9.87
4/12/2021 5:00:00 AM 10.65 51.17 6.158 7.18 84.07 9.89
4/12/2021 5:15:00 AM 10.62 51.116 6.391 7.19 86.89 9.89
4/12/2021 5:30:00 AM 10.6 51.08 6.379 7.19 79.12 9.91
4/12/2021 5:45:00 AM 10.57 51.026 6.373 7.21 88.67 10.13
4/12/2021 6:00:00 AM 10.55 50.99 6.324 7.21 84.85 9.93
4/12/2021 6:15:00 AM 10.53 50.954 0.211 7.23 87.33 10.15
4/12/2021 6:30:00 AM 10.5 50.9 6.272 7.22 85.64 9.95
4/12/2021 6:45:00 AM 10.48 50.864 6.336 7.22 61.86 9.95
4/12/2021 7:00:00 AM 10.45 50.81 6.475 7.22 63.16 9.96
4/12/2021 7:15:00 AM 10.42 50.756 6.391 7.23 73.44 9.97
4/12/2021 7:30:00 AM 10.4 50.72 6.428 7.23 56.96 9.98
4/12/2021 7:45:00 AM 10.38 50.684 6.471 7.23 76.02 9.99
4/12/2021 8:00:00 AM 10.36 50.648 6.387 7.24 60.12 10
4/12/2021 8:15:00 AM 10.34 50.612 6.213 7.24 54.69 10.01
4/12/2021 8:30:00 AM 10.32 50.576 6.591 7.25 59.76 10.01
4/12/2021 8:45:00 AM 10.3 50.54 6.513 7.25 44.91 10.02
4/12/2021 9:00:00 AM 10.28 50.504 6.511 7.26 38.97 10.03
4/12/2021 9:15:00 AM 10.26 50.468 6.56 7.26 45.89 10.04
4/12/2021 9:30:00 AM 10.25 50.45 6.513 7.27 55.1 10.06
4/12/2021 9:45:00 AM 10.24 50.432 6.565 7.27 35.68 10.07
4/12/2021 10:00:00 AM 10.23 50.414 6.644 7.28 32.94 10.08
4/12/2021 10:15:00 AM 10.22 50.396 6.632 7.28 45.57 10.09
4/12/2021 10:30:00 AM 10.21 50.378 6.638 7.28 31.33 10.1
4/12/2021 10:45:00 AM 10.2 50.36 6.562 7.29 31.97 10.12
4/12/2021 11:00:00 AM 10.19 50.342 6.381 7.3 30.93 10.14
4/12/2021 11:15:00 AM 10.19 50.342 6.592 7.31 27.33 10.15
4/12/2021 11:30:00 AM 10.19 50.342 6.542 7.31 27.75 10.17
4/12/2021 11:45:00 AM 10.21 50.378 6.641 7.32 28.78 10.2
4/12/2021 12:00:00 PM 10.25 50.45 6.624 7.33 28.32 10.24
4/12/2021 12:15:00 PM 10.31 50.558 6.623 7.34 19.68 10.27
4/12/2021 12:30:00 PM 10.39 50.702 6.582 7.36 24.66 10.31
4/12/2021 12:45:00 PM 10.44 50.792 6.737 7.36 22.61 10.33
4/12/2021 1:00:00 PM 10.48 50.864 6.726 7.38 24.94 10.36
4/12/2021 1:15:00 PM 10.51 50.918 6.768 7.39 22.17 10.39
4/12/2021 1:30:00 PM 10.53 50.954 0.225 7.41 17.25 10.65
4/12/2021 1:45:00 PM 10.53 50.954 0.223 7.42 21.43 10.66
4/12/2021 2:00:00 PM 10.54 50.972 0.223 7.43 21.16 10.68
4/12/2021 2:15:00 PM 10.53 50.954 6.164 7.42 21.53 10.47
4/12/2021 2:30:00 PM 10.51 50.918 6.534 7.43 22.93 10.46
4/12/2021 2:45:00 PM 10.49 50.882 6.391 7.43 21.76 10.47
4/12/2021 3:00:00 PM 10.47 50.846 6.478 7.43 22.93 10.47
4/12/2021 3:15:00 PM 10.43 50.774 6.423 7.44 19.92 10.5
4/12/2021 3:30:00 PM 10.4 50.72 6.589 7.44 22.7 10.49
4/12/2021 3:45:00 PM 10.35 50.63 6.468 7.45 17.49 10.49
4/12/2021 4:00:00 PM 10.31 50.558 6.568 7.45 20.13 10.49
4/12/2021 4:15:00 PM 10.28 50.504 6.576 7.45 19.97 10.5
4/12/2021 4:30:00 PM 10.25 50.45 6.558 7.45 21.33 10.51
4/12/2021 4:45:00 PM 10.22 50.396 6.669 7.45 18.82 10.51
4/12/2021 5:00:00 PM 10.19 50.342 6.618 7.45 15.49 10.5
4/12/2021 5:15:00 PM 10.16 50.288 6.624 7.46 19.23 10.5
4/12/2021 5:30:00 PM 10.14 50.252 6.667 7.46 18.72 10.49
4/12/2021 5:45:00 PM 10.11 50.198 6.792 7.46 17.81 10.49
4/12/2021 6:00:00 PM 10.09 50.162 6.868 7.46 19.23 10.47
4/12/2021 6:15:00 PM 10.06 50.108 6.778 7.45 15.49 10.46
4/12/2021 6:30:00 PM 10.04 50.072 6.819 7.45 16.81 10.45
4/12/2021 6:45:00 PM 10.02 50.036 6.785 7.45 17.33 10.44
4/12/2021 7:00:00 PM 9.99 49.982 6.512 7.45 18.07 10.44
4/12/2021 7:15:00 PM 9.97 49.946 6.834 7.44 16.89 10.41
4/12/2021 7:30:00 PM 9.94 49.892 6.833 7.44 16.88 10.4
4/12/2021 7:45:00 PM 9.91 49.838 7.374 7.44 17.33 10.37
4/12/2021 8:00:00 PM 9.88 49.784 0.166 7.44 16.65 10.62
4/12/2021 8:15:00 PM 9.84 49.712 0.241 7.45 16.29 10.61
4/12/2021 8:30:00 PM 9.82 49.676 0.241 7.45 13.35 10.6
4/12/2021 8:45:00 PM 9.8 49.64 7.29 7.43 17.17 10.33
4/12/2021 9:00:00 PM 9.78 49.604 0.259 7.43 16.65 10.57
4/12/2021 9:15:00 PM 9.77 49.586 7.365 7.42 16.33 10.29
4/12/2021 9:30:00 PM 9.75 49.55 0.234 7.44 16.81 10.54
4/12/2021 9:45:00 PM 9.73 49.514 7.293 7.42 16.31 10.27
4/12/2021 10:00:00 PM 9.71 49.478 0.241 7.43 16.38 10.53
4/12/2021 10:15:00 PM 9.68 49.424 0.237 7.43 14.37 10.53
4/12/2021 10:30:00 PM 9.65 49.37 6.51 7.42 16.71 10.29
4/12/2021 10:45:00 PM 9.62 49.316 6.478 7.41 13.25 10.3
4/12/2021 11:00:00 PM 9.58 49.244 6.473 7.42 15.28 10.3
4/12/2021 11:15:00 PM 9.55 49.19 6.514 7.41 15.1 10.3
4/12/2021 11:30:00 PM 9.52 49.136 6.602 7.41 15.46 10.3
4/12/2021 11:45:00 PM 9.49 49.082 6.487 7.41 14.71 10.3
4/13/2021 12:00:00 AM 9.46 49.028 6.469 7.41 14.2 10.31
4/13/2021 12:15:00 AM 9.43 48.974 6.564 7.41 13.98 10.31
4/13/2021 12:30:00 AM 9.4 48.92 6.52 7.41 14.74 10.31
4/13/2021 12:45:00 AM 9.37 48.866 7.44 7.41 14.29 10.28
4/13/2021 1:00:00 AM 9.34 48.812 7.393 7.41 14.25 10.29
4/13/2021 1:15:00 AM 9.31 48.758 6.722 7.41 13.97 10.32
4/13/2021 1:30:00 AM 9.27 48.686 6.893 7.41 13.92 10.32
4/13/2021 1:45:00 AM 9.24 48.632 7.02 7.41 13.29 10.32
4/13/2021 2:00:00 AM 9.21 48.578 7.107 7.41 13.47 10.32
4/13/2021 2:15:00 AM 9.18 48.524 6.971 7.42 13.41 10.33
4/13/2021 2:30:00 AM 9.16 48.488 6.923 7.42 12.84 10.34
4/13/2021 2:45:00 AM 9.13 48.434 6.9 7.42 12.83 10.35
4/13/2021 3:00:00 AM 9.1 48.38 0.247 7.43 12.48 10.61
4/13/2021 3:15:00 AM 9.07 48.326 7.421 7.42 12.85 10.36
4/13/2021 3:30:00 AM 9.04 48.272 7.032 7.42 12.78 10.38
4/13/2021 3:45:00 AM 9.01 48.218 7.074 7.41 12.64 10.39
4/13/2021 4:00:00 AM 8.98 48.164 6.807 7.42 12.01 10.41
4/13/2021 4:15:00 AM 8.96 48.128 7.052 7.42 12.62 10.4
4/13/2021 4:30:00 AM 8.93 48.074 6.979 7.42 12.01 10.42
4/13/2021 4:45:00 AM 8.9 48.02 7.076 7.42 12.26 10.42
4/13/2021 5:00:00 AM 8.88 47.984 7.48 7.42 11.91 10.42
4/13/2021 5:15:00 AM 8.85 47.93 7.512 7.42 12.02 10.41
4/13/2021 5:30:00 AM 8.83 47.894 7.476 7.42 12.38 10.42
4/13/2021 5:45:00 AM 8.8 47.84 7.464 7.42 12.47 10.43
4/13/2021 6:00:00 AM 8.77 47.786 0.248 7.43 11.92 10.71
4/13/2021 6:15:00 AM 8.75 47.75 0.248 7.43 11.74 10.72
4/13/2021 6:30:00 AM 8.73 47.714 0.247 7.43 11.91 10.72
4/13/2021 6:45:00 AM 8.71 47.678 0.246 7.43 12.11 10.74
4/13/2021 7:00:00 AM 8.69 47.642 0.246 7.43 11.96 10.74
4/13/2021 7:15:00 AM 8.68 47.624 0.245 7.43 11.59 10.75
4/13/2021 7:30:00 AM 8.67 47.606 0.245 7.43 11.12 10.77
4/13/2021 7:45:00 AM 8.66 47.588 0.244 7.43 11.29 10.78
4/13/2021 8:00:00 AM 8.65 47.57 0.244 7.44 10.86 10.81
4/13/2021 8:15:00 AM 8.65 47.57 7.835 7.43 10.43 10.53
4/13/2021 8:30:00 AM 8.64 47.552 7.635 7.43 10.25 10.57
4/13/2021 8:45:00 AM 8.65 47.57 7.664 7.44 10.61 10.6
4/13/2021 9:00:00 AM 8.67 47.606 7.675 7.44 10.71 10.63
4/13/2021 9:15:00 AM 8.7 47.66 7.587 7.45 9.84 10.69
4/13/2021 9:30:00 AM 8.75 47.75 7.747 7.47 9.59 10.74
4/13/2021 9:45:00 AM 8.82 47.876 7.531 7.48 9.24 10.81
4/13/2021 10:00:00 AM 8.87 47.966 8.514 7.5 8.89 10.83
4/13/2021 10:15:00 AM 8.9 48.02 7.788 7.51 8.89 10.91
4/13/2021 10:30:00 AM 8.93 48.074 7.631 7.52 8.88 10.96
4/13/2021 10:45:00 AM 8.95 48.11 7.624 7.53 8.74 10.98
4/13/2021 11:00:00 AM 8.99 48.182 7.663 7.54 8.6 11.02
4/13/2021 11:15:00 AM 9.02 48.236 8.616 7.56 8.74 11.03
4/13/2021 11:30:00 AM 9.09 48.362 7.627 7.57 8.76 11.12
4/13/2021 11:45:00 AM 9.16 48.488 7.641 7.58 8.28 11.15
4/13/2021 12:00:00 PM 9.26 48.668 7.642 7.6 8.08 11.19
4/13/2021 12:15:00 PM 9.41 48.938 0.249 7.63 8.4 11.55
4/13/2021 12:30:00 PM 9.51 49.118 0.248 7.64 8.28 11.59
4/13/2021 12:45:00 PM 9.6 49.28 0.248 7.66 8.14 11.62
4/13/2021 1:00:00 PM 9.77 49.586 0.249 7.67 8.33 11.64
4/13/2021 1:15:00 PM 9.92 49.856 0.249 7.69 8.21 11.67
4/13/2021 1:30:00 PM 10.12 50.216 0.416 7.7 8.24 11.7
4/13/2021 1:45:00 PM 10.32 50.576 7.812 7.7 7.74 11.41
4/13/2021 2:00:00 PM 10.5 50.9 0.249 7.73 7.92 11.74
4/13/2021 2:15:00 PM 10.64 51.152 7.83 7.74 7.88 11.44
4/13/2021 2:30:00 PM 10.78 51.404 7.922 7.75 7.67 11.44
4/13/2021 2:45:00 PM 10.9 51.62 0.251 7.78 7.61 11.76
4/13/2021 3:00:00 PM 11.05 51.89 0.251 7.79 8.04 11.75
4/13/2021 3:15:00 PM 11.29 52.322 0.252 7.8 7.91 11.75
4/13/2021 3:30:00 PM 11.38 52.484 0.252 7.82 7.87 11.72
4/13/2021 3:45:00 PM 11.4 52.52 0.251 7.82 7.6 11.68
4/13/2021 4:00:00 PM 11.43 52.574 0.256 7.82 7.38 11.66
4/13/2021 4:15:00 PM 11.54 52.772 7.872 7.82 7.53 11.35
4/13/2021 4:30:00 PM 11.61 52.898 7.713 7.83 7.42 11.34
4/13/2021 4:45:00 PM 11.67 53.006 7.762 7.84 7.41 11.29
4/13/2021 5:00:00 PM 11.72 53.096 7.626 7.84 7.51 11.26
4/13/2021 5:15:00 PM 11.79 53.222 0.24 7.84 7.64 11.51
4/13/2021 5:30:00 PM 11.85 53.33 7.552 7.83 7.52 11.16
4/13/2021 5:45:00 PM 11.9 53.42 0.254 7.84 7.27 11.4
4/13/2021 6:00:00 PM 11.95 53.51 7.756 7.82 7.7 11.04
4/13/2021 6:15:00 PM 12 53.6 8.15 7.82 7.45 10.97
4/13/2021 6:30:00 PM 12.03 53.654 7.795 7.81 7.55 10.9
4/13/2021 6:45:00 PM 12.03 53.654 7.808 7.79 7.49 10.81
4/13/2021 7:00:00 PM 12.03 53.654 7.628 7.77 7.63 10.75
4/13/2021 7:15:00 PM 12.02 53.636 7.582 7.76 8.27 10.69
4/13/2021 7:30:00 PM 12.02 53.636 0.385 7.74 7.02 10.89
4/13/2021 7:45:00 PM 12.03 53.654 0.071 7.74 7.39 10.8
4/13/2021 8:00:00 PM 12.05 53.69 7.047 7.7 7.21 10.46
4/13/2021 8:15:00 PM 12.05 53.69 7.397 7.69 7.2 10.38
4/13/2021 8:30:00 PM 12.03 53.654 7.477 7.67 7.84 10.31
4/13/2021 8:45:00 PM 12 53.6 7.741 7.66 7.69 10.23
4/13/2021 9:00:00 PM 11.98 53.564 7.099 7.64 7.69 10.17
4/13/2021 9:15:00 PM 11.95 53.51 9.77 7.63 7.62 10.01
4/13/2021 9:30:00 PM 11.92 53.456 0.26 7.62 7.78 10.29
4/13/2021 9:45:00 PM 11.89 53.402 0.272 7.59 7.93 10.23
4/13/2021 10:00:00 PM 11.85 53.33 8.104 7.58 7.83 9.91
4/13/2021 10:15:00 PM 11.79 53.222 8.056 7.56 7.9 9.87
4/13/2021 10:30:00 PM 11.73 53.114 0.262 7.56 8.08 10.11
4/13/2021 10:45:00 PM 11.67 53.006 7.85 7.54 8.21 9.81
4/13/2021 11:00:00 PM 11.6 52.88 0.263 7.53 8.18 10.05
4/13/2021 11:15:00 PM 11.53 52.754 0.262 7.53 8.26 10.04
4/13/2021 11:30:00 PM 11.46 52.628 0.262 7.52 8.22 10.02
4/13/2021 11:45:00 PM 11.38 52.484 0.263 7.51 8.39 10.01
4/14/2021 12:00:00 AM 11.3 52.34 0.263 7.5 8.2 10.01
4/14/2021 12:15:00 AM 11.22 52.196 0.263 7.5 8.15 10.01
4/14/2021 12:30:00 AM 11.14 52.052 0.263 7.49 8.17 10.01
4/14/2021 12:45:00 AM 11.05 51.89 0.263 7.49 8.21 10.02
4/14/2021 1:00:00 AM 10.97 51.746 0.263 7.48 7.97 10.03
4/14/2021 1:15:00 AM 10.88 51.584 0.264 7.48 8.16 10.05
4/14/2021 1:30:00 AM 10.79 51.422 0.264 7.48 7.98 10.06
4/14/2021 1:45:00 AM 10.7 51.26 0.265 7.48 8.01 10.08
4/14/2021 2:00:00 AM 10.6 51.08 0.265 7.48 8.06 10.09
4/14/2021 2:15:00 AM 10.5 50.9 0.265 7.48 8.11 10.12
4/14/2021 2:30:00 AM 10.4 50.72 0.266 7.47 8.19 10.14
4/14/2021 2:45:00 AM 10.31 50.558 0.266 7.47 8.18 10.16
4/14/2021 3:00:00 AM 10.22 50.396 0.266 7.47 8.25 10.19
4/14/2021 3:15:00 AM 10.13 50.234 0.266 7.47 8.16 10.21
4/14/2021 3:30:00 AM 10.05 50.09 0.267 7.47 8.02 10.23
4/14/2021 3:45:00 AM 9.96 49.928 0.267 7.47 8.04 10.26
4/14/2021 4:00:00 AM 9.87 49.766 0.268 7.47 7.68 10.28
4/14/2021 4:15:00 AM 9.78 49.604 0.268 7.47 7.61 10.3
4/14/2021 4:30:00 AM 9.71 49.478 0.268 7.47 7.64 10.33
4/14/2021 4:45:00 AM 9.63 49.334 0.269 7.47 7.5 10.35
4/14/2021 5:00:00 AM 9.56 49.208 0.269 7.47 7.9 10.38
4/14/2021 5:15:00 AM 9.49 49.082 0.269 7.47 7.67 10.4
4/14/2021 5:30:00 AM 9.43 48.974 0.269 7.47 7.61 10.42
4/14/2021 5:45:00 AM 9.37 48.866 0.27 7.47 7.36 10.44
4/14/2021 6:00:00 AM 9.3 48.74 0.27 7.47 7.22 10.45
4/14/2021 6:15:00 AM 9.25 48.65 0.27 7.47 7.62 10.47
4/14/2021 6:30:00 AM 9.19 48.542 0.271 7.47 7.45 10.49
4/14/2021 6:45:00 AM 9.13 48.434 0.271 7.47 7.51 10.5
4/14/2021 7:00:00 AM 9.08 48.344 0.271 7.47 7.61 10.53
4/14/2021 7:15:00 AM 9.03 48.254 0.271 7.48 7.58 10.56
4/14/2021 7:30:00 AM 8.99 48.182 0.272 7.48 6.88 10.6
4/14/2021 7:45:00 AM 8.96 48.128 0.272 7.49 6.73 10.64
4/14/2021 8:00:00 AM 8.93 48.074 0.272 7.49 7 10.67
4/14/2021 8:15:00 AM 8.91 48.038 0.273 7.5 6.69 10.72
4/14/2021 8:30:00 AM 8.89 48.002 0.273 7.5 6.52 10.77
4/14/2021 8:45:00 AM 8.89 48.002 0.273 7.51 6.33 10.85
4/14/2021 9:00:00 AM 8.9 48.02 0.273 7.53 6.4 10.94
4/14/2021 9:15:00 AM 8.91 48.038 0.273 7.54 6.47 11.01
4/14/2021 9:30:00 AM 8.94 48.092 0.273 7.55 6.09 11.09
4/14/2021 9:45:00 AM 8.97 48.146 0.274 7.57 5.86 11.19
4/14/2021 10:00:00 AM 9 48.2 0.274 7.59 5.71 11.27
4/14/2021 10:15:00 AM 9.04 48.272 0.274 7.6 5.67 11.36
4/14/2021 10:30:00 AM 9.1 48.38 0.274 7.62 5.65 11.45
4/14/2021 10:45:00 AM 9.19 48.542 0.274 7.64 5.47 11.54
4/14/2021 11:00:00 AM 9.28 48.704 0.274 7.67 5.42 11.63
4/14/2021 11:15:00 AM 9.39 48.902 0.275 7.69 5.43 11.72
4/14/2021 11:30:00 AM 9.56 49.208 0.275 7.72 5.37 11.81
4/14/2021 11:45:00 AM 9.73 49.514 0.275 7.74 5.29 11.86
4/14/2021 12:00:00 PM 9.92 49.856 0.275 7.76 5.32 11.94
4/14/2021 12:15:00 PM 10.12 50.216 0.275 7.79 4.89 12
4/14/2021 12:30:00 PM 10.33 50.594 0.275 7.82 5.12 12.05
4/14/2021 12:45:00 PM 10.46 50.828 0.275 7.84 5.37 12.06
4/14/2021 1:00:00 PM 10.55 50.99 0.276 7.85 5.13 12.06
4/14/2021 1:15:00 PM 10.83 51.494 0.276 7.88 5.3 12.12
4/14/2021 1:30:00 PM 10.99 51.782 0.276 7.9 5.15 12.13
4/14/2021 1:45:00 PM 11.07 51.926 0.276 7.92 5.05 12.12
4/14/2021 2:00:00 PM 11.19 52.142 0.277 7.93 5.39 12.1
4/14/2021 2:15:00 PM 11.51 52.718 0.277 7.96 5.29 12.13
4/14/2021 2:30:00 PM 11.75 53.15 0.277 7.98 5.23 12.13
4/14/2021 2:45:00 PM 11.8 53.24 0.277 8 5.39 12.11
4/14/2021 3:00:00 PM 11.83 53.294 0.277 8.01 5.42 12.06
4/14/2021 3:15:00 PM 11.92 53.456 0.277 8.02 5.48 12.03
4/14/2021 3:30:00 PM 12.04 53.672 0.277 8.03 5.34 12
4/14/2021 3:45:00 PM 12.12 53.816 0.277 8.04 5.31 11.97
4/14/2021 4:00:00 PM 12.13 53.834 0.278 8.05 5.03 11.92
4/14/2021 4:15:00 PM 12.14 53.852 0.277 8.05 5.07 11.86
4/14/2021 4:30:00 PM 12.18 53.924 0.277 8.05 5.03 11.8
4/14/2021 4:45:00 PM 12.2 53.96 0.275 8.04 5.05 11.74
4/14/2021 5:00:00 PM 12.22 53.996 0.274 8.04 4.99 11.68
4/14/2021 5:15:00 PM 12.24 54.032 0.274 8.03 4.91 11.61
4/14/2021 5:30:00 PM 12.27 54.086 0.274 8.02 5.45 11.52
4/14/2021 5:45:00 PM 12.32 54.176 0.274 7.99 7.14 11.39
4/14/2021 6:00:00 PM 12.38 54.284 0.274 7.96 8.04 11.28
4/14/2021 6:15:00 PM 12.42 54.356 0.274 7.94 7.69 11.17
4/14/2021 6:30:00 PM 12.48 54.464 0.275 7.92 7.42 11.07
4/14/2021 6:45:00 PM 12.52 54.536 0.275 7.9 7.77 10.98
4/14/2021 7:00:00 PM 12.54 54.572 0.276 7.88 6.99 10.87
4/14/2021 7:15:00 PM 12.55 54.59 0.277 7.86 6.69 10.77
4/14/2021 7:30:00 PM 12.55 54.59 0.277 7.84 6.5 10.68
4/14/2021 7:45:00 PM 12.55 54.59 0.277 7.82 6.06 10.58
4/14/2021 8:00:00 PM 12.56 54.608 0.278 7.8 5.74 10.48
4/14/2021 8:15:00 PM 12.56 54.608 0.278 7.78 5.64 10.39
4/14/2021 8:30:00 PM 12.57 54.626 0.278 7.76 5.91 10.3
4/14/2021 8:45:00 PM 12.58 54.644 0.279 7.74 6.14 10.2
4/14/2021 9:00:00 PM 12.59 54.662 0.279 7.71 6.37 10.11
4/14/2021 9:15:00 PM 12.6 54.68 0.28 7.69 6.57 10.03
4/14/2021 9:30:00 PM 12.61 54.698 0.28 7.67 6.28 9.95
4/14/2021 9:45:00 PM 12.62 54.716 0.281 7.66 6.1 9.87
4/14/2021 10:00:00 PM 12.62 54.716 0.281 7.64 6.27 9.81
4/14/2021 10:15:00 PM 12.61 54.698 0.282 7.63 6.3 9.75
4/14/2021 10:30:00 PM 12.58 54.644 0.282 7.62 6.21 9.7
4/14/2021 10:45:00 PM 12.56 54.608 0.282 7.61 6.18 9.66
4/14/2021 11:00:00 PM 12.52 54.536 0.283 7.6 6.01 9.63
4/14/2021 11:15:00 PM 12.49 54.482 0.283 7.59 6.07 9.6
4/14/2021 11:30:00 PM 12.45 54.41 0.284 7.58 5.91 9.58
4/14/2021 11:45:00 PM 12.41 54.338 0.284 7.58 5.96 9.57
4/15/2021 12:00:00 AM 12.37 54.266 0.285 7.57 6.07 9.55
4/15/2021 12:15:00 AM 12.33 54.194 0.285 7.57 6.18 9.54
4/15/2021 12:30:00 AM 12.28 54.104 0.286 7.56 6.1 9.54
4/15/2021 12:45:00 AM 12.22 53.996 0.286 7.56 6.34 9.54
4/15/2021 1:00:00 AM 12.16 53.888 0.286 7.55 6.45 9.54
4/15/2021 1:15:00 AM 12.09 53.762 0.287 7.55 6.42 9.54
4/15/2021 1:30:00 AM 12.03 53.654 0.287 7.55 6.36 9.56
4/15/2021 1:45:00 AM 11.96 53.528 0.288 7.54 6 9.57
4/15/2021 2:00:00 AM 11.88 53.384 0.276 7.53 6.05 9.58
4/15/2021 2:15:00 AM 11.8 53.24 0.29 7.54 6.12 9.59
4/15/2021 2:30:00 AM 11.71 53.078 0.29 7.53 6.28 9.61
4/15/2021 2:45:00 AM 11.62 52.916 0.291 7.53 6.01 9.63
4/15/2021 3:00:00 AM 11.53 52.754 0.292 7.52 5.89 9.65
4/15/2021 3:15:00 AM 11.43 52.574 0.292 7.53 6.09 9.67
4/15/2021 3:30:00 AM 11.34 52.412 0.138 7.52 5.93 9.7
4/15/2021 3:45:00 AM 11.23 52.214 0.17 7.52 6.25 9.72
4/15/2021 4:00:00 AM 11.12 52.016 9.279 7.51 5.7 9.43
4/15/2021 4:15:00 AM 11.01 51.818 0.293 7.52 6.05 9.77
4/15/2021 4:30:00 AM 10.91 51.638 0.293 7.52 5.91 9.8
4/15/2021 4:45:00 AM 10.81 51.458 0.293 7.52 5.99 9.82
4/15/2021 5:00:00 AM 10.7 51.26 0.294 7.52 5.81 9.85
4/15/2021 5:15:00 AM 10.61 51.098 0.126 7.52 6.2 9.87
4/15/2021 5:30:00 AM 10.51 50.918 0.296 7.52 5.86 9.89
4/15/2021 5:45:00 AM 10.42 50.756 0.298 7.52 5.7 9.9
4/15/2021 6:00:00 AM 10.34 50.612 9.423 7.51 5.83 9.6
4/15/2021 6:15:00 AM 10.26 50.468 0.299 7.52 5.4 9.95
4/15/2021 6:30:00 AM 10.18 50.324 0.297 7.51 5.39 9.98
4/15/2021 6:45:00 AM 10.11 50.198 9.472 7.51 5.63 9.67
4/15/2021 7:00:00 AM 10.03 50.054 0.298 7.53 5.59 10.03
4/15/2021 7:15:00 AM 9.96 49.928 9.455 7.51 5.38 9.73
4/15/2021 7:30:00 AM 9.9 49.82 9.626 7.51 5.27 9.75
4/15/2021 7:45:00 AM 9.83 49.694 0.299 7.53 5.43 10.12
4/15/2021 8:00:00 AM 9.78 49.604 0.299 7.54 5.16 10.2
4/15/2021 8:15:00 AM 9.74 49.532 0.299 7.55 5.06 10.28
4/15/2021 8:30:00 AM 9.68 49.424 9.418 7.54 5.4 10.01
4/15/2021 8:45:00 AM 9.64 49.352 0.3 7.56 4.89 10.42
4/15/2021 9:00:00 AM 9.58 49.244 0.3 7.57 5.04 10.44
4/15/2021 9:15:00 AM 9.53 49.154 9.485 7.56 5.16 10.15
4/15/2021 9:30:00 AM 9.49 49.082 0.293 7.58 4.98 10.56
4/15/2021 9:45:00 AM 9.45 49.01 0.299 7.59 4.69 10.63
4/15/2021 10:00:00 AM 9.41 48.938 0.299 7.6 4.45 10.7
4/15/2021 10:15:00 AM 9.37 48.866 0.299 7.61 4.49 10.75
4/15/2021 10:30:00 AM 9.34 48.812 0.299 7.62 4.28 10.82
4/15/2021 10:45:00 AM 9.31 48.758 0.299 7.63 4.24 10.88
4/15/2021 11:00:00 AM 9.28 48.704 0.3 7.65 4.33 10.95
4/15/2021 11:15:00 AM 9.25 48.65 0.301 7.67 4.38 11.04
4/15/2021 11:30:00 AM 9.21 48.578 0.299 7.68 4.15 11.12
4/15/2021 11:45:00 AM 9.19 48.542 0.299 7.7 4.42 11.21
4/15/2021 12:00:00 PM 9.16 48.488 0.3 7.72 4.24 11.3
4/15/2021 12:15:00 PM 9.15 48.47 0.299 7.73 4.27 11.39
4/15/2021 12:30:00 PM 9.16 48.488 0.299 7.76 4.16 11.48
4/15/2021 12:45:00 PM 9.2 48.56 0.3 7.78 4.29 11.58
4/15/2021 1:00:00 PM 9.25 48.65 0.3 7.8 4.39 11.68
4/15/2021 1:15:00 PM 9.24 48.632 0.304 7.82 4.3 11.76
4/15/2021 1:30:00 PM 9.22 48.596 0.302 7.84 4.25 11.79
4/15/2021 1:45:00 PM 9.22 48.596 0.299 7.85 4.37 11.84
4/15/2021 2:00:00 PM 9.19 48.542 0.3 7.86 4.09 11.8
4/15/2021 2:15:00 PM 9.16 48.488 0.301 7.86 4.05 11.79
4/15/2021 2:30:00 PM 9.13 48.434 0.299 7.86 4.03 11.79
4/15/2021 2:45:00 PM 9.1 48.38 0.3 7.87 3.94 11.83
4/15/2021 3:00:00 PM 9.11 48.398 0.299 7.89 4.06 11.89
4/15/2021 3:15:00 PM 9.13 48.434 0.3 7.9 3.88 11.94
4/15/2021 3:30:00 PM 9.13 48.434 0.301 7.91 3.91 11.95
4/15/2021 3:45:00 PM 9.13 48.434 0.301 7.93 3.6 11.97
4/15/2021 4:00:00 PM 9.13 48.434 0.3 7.94 3.85 12.01
4/15/2021 4:15:00 PM 9.12 48.416 0.3 7.95 3.9 12.02
4/15/2021 4:30:00 PM 9.11 48.398 0.301 7.96 4 12.03
4/15/2021 4:45:00 PM 9.08 48.344 6.495 7.94 3.96 11.7
4/15/2021 5:00:00 PM 9.04 48.272 0.306 7.94 3.93 11.9
4/15/2021 5:15:00 PM 9.01 48.218 10.156 7.91 3.97 11.43
4/15/2021 5:30:00 PM 8.99 48.182 0.313 7.91 3.94 11.81
4/15/2021 5:45:00 PM 8.97 48.146 0.315 7.91 3.84 11.76
4/15/2021 6:00:00 PM 8.95 48.11 0.314 7.89 3.94 11.71
4/15/2021 6:15:00 PM 8.93 48.074 11.743 7.87 4.13 11.17
4/15/2021 6:30:00 PM 8.92 48.056 10.605 7.87 4.73 11.18
4/15/2021 6:45:00 PM 8.92 48.056 9.751 7.86 4.98 11.23
4/15/2021 7:00:00 PM 8.88 47.984 0.301 7.85 5.04 11.57
4/15/2021 7:15:00 PM 8.86 47.948 9.7 7.83 5.25 11.11
4/15/2021 7:30:00 PM 8.83 47.894 0.184 7.82 4.86 11.43
4/15/2021 7:45:00 PM 8.79 47.822 7.486 7.8 4.81 11.09
4/15/2021 8:00:00 PM 8.75 47.75 0.295 7.79 4.99 11.31
4/15/2021 8:15:00 PM 8.7 47.66 0.297 7.77 5.08 11.25
4/15/2021 8:30:00 PM 8.66 47.588 0.299 7.75 5.05 11.19
4/15/2021 8:45:00 PM 8.61 47.498 0.304 7.74 5.07 11.13
4/15/2021 9:00:00 PM 8.58 47.444 0.309 7.72 4.88 11.08
4/15/2021 9:15:00 PM 8.55 47.39 0.313 7.7 4.95 11.03
4/15/2021 9:30:00 PM 8.51 47.318 0.32 7.7 4.83 10.99
4/15/2021 9:45:00 PM 8.48 47.264 0.316 7.69 4.9 10.95
4/15/2021 10:00:00 PM 8.44 47.192 0.314 7.67 4.91 10.92
4/15/2021 10:15:00 PM 8.41 47.138 0.312 7.66 4.96 10.89
4/15/2021 10:30:00 PM 8.37 47.066 0.312 7.65 4.89 10.86
4/15/2021 10:45:00 PM 8.32 46.976 0.304 7.64 5.03 10.83
4/15/2021 11:00:00 PM 8.28 46.904 0.302 7.63 4.91 10.8
4/15/2021 11:15:00 PM 8.25 46.85 0.299 7.61 4.95 10.78
4/15/2021 11:30:00 PM 8.21 46.778 9.65 7.59 4.83 10.39
4/15/2021 11:45:00 PM 8.17 46.706 8.647 7.58 4.88 10.41
4/16/2021 12:00:00 AM 8.14 46.652 9.354 7.57 4.91 10.37
4/16/2021 12:15:00 AM 8.1 46.58 0.269 7.56 5.41 10.37
4/16/2021 12:30:00 AM 8.06 46.508 9.34 7.56 5.11 10.36
4/16/2021 12:45:00 AM 8.02 46.436 0.205 7.56 4.88 10.37
4/16/2021 1:00:00 AM 7.99 46.382 0.289 7.56 4.91 10.71
4/16/2021 1:15:00 AM 7.95 46.31 0.289 7.56 4.91 10.7
4/16/2021 1:30:00 AM 7.92 46.256 0.29 7.56 4.92 10.7
4/16/2021 1:45:00 AM 7.89 46.202 9.094 7.54 4.91 10.36
4/16/2021 2:00:00 AM 7.86 46.148 0.292 7.55 4.65 10.71
4/16/2021 2:15:00 AM 7.83 46.094 10.179 7.54 4.84 10.32
4/16/2021 2:30:00 AM 7.8 46.04 9.298 7.54 4.68 10.36
4/16/2021 2:45:00 AM 7.77 45.986 0.293 7.55 4.59 10.72
4/16/2021 3:00:00 AM 7.73 45.914 9.751 7.54 4.48 10.36
4/16/2021 3:15:00 AM 7.7 45.86 9.179 7.54 4.63 10.39
4/16/2021 3:30:00 AM 7.66 45.788 10.239 7.55 4.74 10.35
4/16/2021 3:45:00 AM 7.62 45.716 0.294 7.55 4.74 10.75
4/16/2021 4:00:00 AM 7.59 45.662 0.303 7.56 4.36 10.75
4/16/2021 4:15:00 AM 7.56 45.608 9.126 7.54 4.34 10.42
4/16/2021 4:30:00 AM 7.53 45.554 10.055 7.55 4.53 10.38
4/16/2021 4:45:00 AM 7.49 45.482 0.313 7.56 4.31 10.77
4/16/2021 5:00:00 AM 7.46 45.428 0.262 7.56 4.35 10.78
4/16/2021 5:15:00 AM 7.43 45.374 0.314 7.56 4.58 10.79
4/16/2021 5:30:00 AM 7.4 45.32 0.31 7.56 4.24 10.79
4/16/2021 5:45:00 AM 7.36 45.248 9.432 7.55 9.13 10.44
4/16/2021 6:00:00 AM 7.33 45.194 0.308 7.56 4.29 10.81
4/16/2021 6:15:00 AM 7.29 45.122 9.744 7.55 4.57 10.45
4/16/2021 6:30:00 AM 7.26 45.068 9.442 7.55 4.22 10.47
4/16/2021 6:45:00 AM 7.22 44.996 0.3 7.57 4.14 10.84
4/16/2021 7:00:00 AM 7.18 44.924 10.239 7.55 4.29 10.46
4/16/2021 7:15:00 AM 7.16 44.888 0.306 7.57 4.4 10.87
4/16/2021 7:30:00 AM 7.13 44.834 0.3 7.57 4.27 10.9
4/16/2021 7:45:00 AM 7.1 44.78 0.291 7.57 4.11 10.92
4/16/2021 8:00:00 AM 7.08 44.744 9.139 7.56 4.17 10.61
4/16/2021 8:15:00 AM 7.05 44.69 0.301 7.58 4.2 11
4/16/2021 8:30:00 AM 7.04 44.672 9.14 7.57 4.3 10.71
4/16/2021 8:45:00 AM 7.02 44.636 9.135 7.58 4.09 10.77
4/16/2021 9:00:00 AM 7.01 44.618 9.052 7.59 3.86 10.84
4/16/2021 9:15:00 AM 6.99 44.582 9.047 7.6 3.96 10.92
4/16/2021 9:30:00 AM 6.99 44.582 10.837 7.63 3.95 10.92
4/16/2021 9:45:00 AM 6.99 44.582 0.304 7.65 3.92 11.48
4/16/2021 10:00:00 AM 6.99 44.582 0.302 7.66 3.73 11.57
4/16/2021 10:15:00 AM 7 44.6 0.303 7.68 3.73 11.66
4/16/2021 10:30:00 AM 7.01 44.618 0.307 7.69 3.84 11.75
4/16/2021 10:45:00 AM 7.01 44.618 0.31 7.71 3.5 11.84
4/16/2021 11:00:00 AM 7.02 44.636 9.204 7.72 3.57 11.54
4/16/2021 11:15:00 AM 7.04 44.672 9.278 7.74 3.42 11.63
4/16/2021 11:30:00 AM 7.06 44.708 9.257 7.76 3.57 11.73
4/16/2021 11:45:00 AM 7.07 44.726 9.067 7.79 3.43 11.83
4/16/2021 12:00:00 PM 7.1 44.78 9.107 7.81 3.41 11.92
4/16/2021 12:15:00 PM 7.13 44.834 9.02 7.83 3.43 12.01
4/16/2021 12:30:00 PM 7.17 44.906 9.037 7.86 3.38 12.09
4/16/2021 12:45:00 PM 7.22 44.996 9.236 7.89 4.21 12.16
4/16/2021 1:00:00 PM 7.26 45.068 9.221 7.92 3.28 12.23
4/16/2021 1:15:00 PM 7.29 45.122 9.237 7.94 3.35 12.28
4/16/2021 1:30:00 PM 7.35 45.23 9.204 7.97 3.29 12.35
4/16/2021 1:45:00 PM 7.39 45.302 9.155 7.99 4.15 12.4
4/16/2021 2:00:00 PM 7.44 45.392 9.126 8.01 3.32 12.44
4/16/2021 2:15:00 PM 7.49 45.482 0.305 8.05 3.41 12.9
4/16/2021 2:30:00 PM 7.56 45.608 9.085 8.06 3.45 12.53
4/16/2021 2:45:00 PM 7.61 45.698 9.061 8.09 3.56 12.57
4/16/2021 3:00:00 PM 7.65 45.77 9.074 8.11 3.93 12.58
4/16/2021 3:15:00 PM 7.69 45.842 9.082 8.12 3.46 12.59
4/16/2021 3:30:00 PM 7.74 45.932 9.129 8.14 3.37 12.6
4/16/2021 3:45:00 PM 7.81 46.058 9.194 8.17 3.91 12.61
4/16/2021 4:00:00 PM 7.86 46.148 9.209 8.19 3.32 12.61
4/16/2021 4:15:00 PM 7.89 46.202 9.171 8.19 3.39 12.58
4/16/2021 4:30:00 PM 7.91 46.238 9.258 8.19 3.26 12.52
4/16/2021 4:45:00 PM 7.93 46.274 9.288 8.18 3.71 12.46
4/16/2021 5:00:00 PM 7.95 46.31 9.216 8.18 3.39 12.41
4/16/2021 5:15:00 PM 7.95 46.31 0.303 8.17 3.58 12.74
4/16/2021 5:30:00 PM 7.96 46.328 0.3 8.15 3.53 12.64
4/16/2021 5:45:00 PM 7.97 46.346 0.298 8.12 3.53 12.53
4/16/2021 6:00:00 PM 7.98 46.364 0.296 8.09 3.86 12.42
4/16/2021 6:15:00 PM 7.98 46.364 0.293 8.06 3.68 12.31
4/16/2021 6:30:00 PM 7.98 46.364 0.292 8.02 3.87 12.21
4/16/2021 6:45:00 PM 7.98 46.364 0.29 7.99 4.04 12.11
4/16/2021 7:00:00 PM 7.98 46.364 0.288 7.96 4.34 12.01
4/16/2021 7:15:00 PM 7.98 46.364 16.54 7.92 4.55 11.16
4/16/2021 7:30:00 PM 7.99 46.382 9.184 7.87 5.11 11.43
4/16/2021 7:45:00 PM 7.99 46.382 8.799 7.84 5.39 11.35
4/16/2021 8:00:00 PM 7.98 46.364 8.662 7.8 5.61 11.27
4/16/2021 8:15:00 PM 7.97 46.346 8.628 7.77 5.78 11.19
4/16/2021 8:30:00 PM 7.96 46.328 8.248 7.74 6.05 11.13
4/16/2021 8:45:00 PM 7.95 46.31 8.14 7.71 5.98 11.07
4/16/2021 9:00:00 PM 7.94 46.292 8.239 7.68 6.51 11.01
4/16/2021 9:15:00 PM 7.93 46.274 7.937 7.66 6.36 10.98
4/16/2021 9:30:00 PM 7.92 46.256 8.074 7.64 6.51 10.93
4/16/2021 9:45:00 PM 7.9 46.22 8.102 7.62 6.95 10.88
4/16/2021 10:00:00 PM 7.88 46.184 8.048 7.6 7.05 10.84
4/16/2021 10:15:00 PM 7.86 46.148 8.018 7.58 7.01 10.81
4/16/2021 10:30:00 PM 7.84 46.112 7.923 7.56 7.11 10.78
4/16/2021 10:45:00 PM 7.81 46.058 7.923 7.55 7.15 10.76
4/16/2021 11:00:00 PM 7.78 46.004 8.442 7.55 7.62 10.72
4/16/2021 11:15:00 PM 7.76 45.968 0.247 7.53 7.61 11.03
4/16/2021 11:30:00 PM 7.74 45.932 0.247 7.52 6.87 11.02
4/16/2021 11:45:00 PM 7.71 45.878 7.803 7.5 7.09 10.71
4/17/2021 12:00:00 AM 7.68 45.824 0.253 7.51 7.3 11
4/17/2021 12:15:00 AM 7.65 45.77 7.777 7.49 7.37 10.7
4/17/2021 12:30:00 AM 7.62 45.716 7.892 7.48 7.06 10.7
4/17/2021 12:45:00 AM 7.6 45.68 7.739 7.47 6.87 10.7
4/17/2021 1:00:00 AM 7.57 45.626 7.769 7.47 7.06 10.69
4/17/2021 1:15:00 AM 7.54 45.572 7.741 7.47 7.2 10.7
4/17/2021 1:30:00 AM 7.51 45.518 7.808 7.47 6.68 10.7
4/17/2021 1:45:00 AM 7.48 45.464 7.818 7.47 6.97 10.69
4/17/2021 2:00:00 AM 7.44 45.392 7.826 7.47 6.81 10.7
4/17/2021 2:15:00 AM 7.41 45.338 7.828 7.47 8.07 10.7
4/17/2021 2:30:00 AM 7.38 45.284 7.917 7.47 7.73 10.71
4/17/2021 2:45:00 AM 7.35 45.23 7.961 7.48 7.71 10.71
4/17/2021 3:00:00 AM 7.32 45.176 7.985 7.48 7.76 10.72
4/17/2021 3:15:00 AM 7.29 45.122 8.079 7.48 7.57 10.72
4/17/2021 3:30:00 AM 7.25 45.05 0.258 7.49 7.47 11.03
4/17/2021 3:45:00 AM 7.21 44.978 8.099 7.48 7.1 10.73
4/17/2021 4:00:00 AM 7.18 44.924 8.038 7.48 6.63 10.74
4/17/2021 4:15:00 AM 7.14 44.852 8.025 7.48 6.53 10.75
4/17/2021 4:30:00 AM 7.11 44.798 8.167 7.48 6.23 10.75
4/17/2021 4:45:00 AM 7.08 44.744 8.507 7.49 6.16 10.74
4/17/2021 5:00:00 AM 7.05 44.69 8.092 7.48 6.02 10.77
4/17/2021 5:15:00 AM 7.02 44.636 8.056 7.48 6.2 10.77
4/17/2021 5:30:00 AM 7 44.6 8.288 7.48 6.04 10.77
4/17/2021 5:45:00 AM 6.97 44.546 8.287 7.48 6 10.77
4/17/2021 6:00:00 AM 6.94 44.492 8.219 7.49 5.8 10.78
4/17/2021 6:15:00 AM 6.91 44.438 8.153 7.48 5.78 10.79
4/17/2021 6:30:00 AM 6.88 44.384 8.189 7.48 5.97 10.8
4/17/2021 6:45:00 AM 6.85 44.33 8.077 7.49 5.5 10.81
4/17/2021 7:00:00 AM 6.83 44.294 8.117 7.49 5.46 10.82
4/17/2021 7:15:00 AM 6.81 44.258 8.119 7.49 6.12 10.83
4/17/2021 7:30:00 AM 6.79 44.222 8.228 7.49 6.06 10.86
4/17/2021 7:45:00 AM 6.78 44.204 8.255 7.5 5.49 10.89
4/17/2021 8:00:00 AM 6.77 44.186 8.282 7.51 5.39 10.93
4/17/2021 8:15:00 AM 6.77 44.186 8.232 7.51 5.14 10.98
4/17/2021 8:30:00 AM 6.77 44.186 8.312 7.52 5.05 11.04
4/17/2021 8:45:00 AM 6.78 44.204 8.286 7.54 5.31 11.11
4/17/2021 9:00:00 AM 6.78 44.204 8.293 7.55 4.91 11.17
4/17/2021 9:15:00 AM 6.79 44.222 8.375 7.56 4.71 11.23
4/17/2021 9:30:00 AM 6.81 44.258 8.296 7.58 4.58 11.31
4/17/2021 9:45:00 AM 6.82 44.276 8.291 7.59 4.55 11.37
4/17/2021 10:00:00 AM 6.83 44.294 8.305 7.61 4.48 11.46
4/17/2021 10:15:00 AM 6.85 44.33 8.123 7.62 4.51 11.53
4/17/2021 10:30:00 AM 6.86 44.348 8.128 7.64 4.27 11.6
4/17/2021 10:45:00 AM 6.87 44.366 8.461 7.66 4.25 11.65
4/17/2021 11:00:00 AM 6.88 44.384 8.438 7.67 3.99 11.71
4/17/2021 11:15:00 AM 6.91 44.438 8.447 7.7 4.11 11.8
4/17/2021 11:30:00 AM 6.93 44.474 8.089 7.72 4.08 11.87
4/17/2021 11:45:00 AM 6.94 44.492 8.343 7.73 3.92 11.89
4/17/2021 12:00:00 PM 6.95 44.51 8.166 7.75 4 11.94
4/17/2021 12:15:00 PM 6.98 44.564 8.44 7.77 3.87 11.99
4/17/2021 12:30:00 PM 7.01 44.618 8.33 7.79 3.91 12.06
4/17/2021 12:45:00 PM 7.05 44.69 8.153 7.81 3.83 12.12
4/17/2021 1:00:00 PM 7.06 44.708 8.288 7.82 3.72 12.13
4/17/2021 1:15:00 PM 7.09 44.762 8.337 7.84 3.64 12.16
4/17/2021 1:30:00 PM 7.12 44.816 8.463 7.86 3.62 12.21
4/17/2021 1:45:00 PM 7.16 44.888 8.492 7.88 3.66 12.24
4/17/2021 2:00:00 PM 7.2 44.96 8.364 7.9 3.5 12.3
4/17/2021 2:15:00 PM 7.27 45.086 8.33 7.93 3.62 12.36
4/17/2021 2:30:00 PM 7.3 45.14 8.332 7.95 3.54 12.38
4/17/2021 2:45:00 PM 7.33 45.194 8.439 7.97 3.48 12.38
4/17/2021 3:00:00 PM 7.38 45.284 8.192 7.98 3.75 12.4
4/17/2021 3:15:00 PM 7.43 45.374 8.409 8 3.69 12.44
4/17/2021 3:30:00 PM 7.46 45.428 8.39 8.01 3.67 12.44
4/17/2021 3:45:00 PM 7.5 45.5 8.392 8.03 3.56 12.45
4/17/2021 4:00:00 PM 7.52 45.536 8.399 8.02 3.69 12.39
4/17/2021 4:15:00 PM 7.56 45.608 8.536 8.03 3.67 12.38
4/17/2021 4:30:00 PM 7.6 45.68 8.182 8.04 3.6 12.39
4/17/2021 4:45:00 PM 7.63 45.734 8.194 8.03 3.7 12.35
4/17/2021 5:00:00 PM 7.66 45.788 8.556 8.03 3.53 12.3
4/17/2021 5:15:00 PM 7.7 45.86 8.165 8.03 3.48 12.3
4/17/2021 5:30:00 PM 7.73 45.914 8.457 8.03 3.63 12.25
4/17/2021 5:45:00 PM 7.76 45.968 8.122 8.03 3.49 12.22
4/17/2021 6:00:00 PM 7.79 46.022 8.681 8.02 3.38 12.15
4/17/2021 6:15:00 PM 7.82 46.076 8.607 8.01 3.45 12.1
4/17/2021 6:30:00 PM 7.84 46.112 8.689 7.99 3.4 12.01
4/17/2021 6:45:00 PM 7.85 46.13 8.741 7.97 3.39 11.93
4/17/2021 7:00:00 PM 7.87 46.166 8.351 7.95 3.38 11.87
4/17/2021 7:15:00 PM 7.88 46.184 8.348 7.92 3.34 11.78
4/17/2021 7:30:00 PM 7.89 46.202 10.193 7.9 3.4 11.61
4/17/2021 7:45:00 PM 7.91 46.238 8.366 7.87 3.3 11.6
4/17/2021 8:00:00 PM 7.91 46.238 8.546 7.85 3.36 11.49
4/17/2021 8:15:00 PM 7.92 46.256 8.555 7.82 3.37 11.4
4/17/2021 8:30:00 PM 7.93 46.274 8.867 7.79 3.38 11.31
4/17/2021 8:45:00 PM 7.94 46.292 8.785 7.77 3.6 11.24
4/17/2021 9:00:00 PM 7.94 46.292 9.034 7.76 3.49 11.16
4/17/2021 9:15:00 PM 7.95 46.31 8.7 7.74 3.52 11.11
4/17/2021 9:30:00 PM 7.95 46.31 8.678 7.72 3.47 11.05
4/17/2021 9:45:00 PM 7.96 46.328 8.682 7.7 3.47 10.98
4/17/2021 10:00:00 PM 7.96 46.328 8.714 7.68 3.59 10.92
4/17/2021 10:15:00 PM 7.96 46.328 8.727 7.66 3.65 10.86
4/17/2021 10:30:00 PM 7.96 46.328 9.275 7.65 3.57 10.78
4/17/2021 10:45:00 PM 7.96 46.328 8.761 7.63 3.71 10.75
4/17/2021 11:00:00 PM 7.95 46.31 8.774 7.62 3.64 10.71
4/17/2021 11:15:00 PM 7.94 46.292 0.294 7.63 3.72 11
4/17/2021 11:30:00 PM 7.93 46.274 8.81 7.6 3.32 10.64
4/17/2021 11:45:00 PM 7.92 46.256 8.927 7.59 3.74 10.6
4/18/2021 12:00:00 AM 7.91 46.238 8.638 7.58 3.76 10.59
4/18/2021 12:15:00 AM 7.9 46.22 8.752 7.57 3.52 10.57
4/18/2021 12:30:00 AM 7.88 46.184 8.71 7.57 3.6 10.55
4/18/2021 12:45:00 AM 7.87 46.166 0.298 7.57 3.79 10.87
4/18/2021 1:00:00 AM 7.85 46.13 9.008 7.56 3.43 10.51
4/18/2021 1:15:00 AM 7.84 46.112 0.299 7.57 3.57 10.85
4/18/2021 1:30:00 AM 7.82 46.076 8.94 7.55 3.65 10.5
4/18/2021 1:45:00 AM 7.81 46.058 8.821 7.54 3.42 10.5
4/18/2021 2:00:00 AM 7.79 46.022 8.858 7.54 3.53 10.49
4/18/2021 2:15:00 AM 7.77 45.986 8.875 7.54 3.52 10.48
4/18/2021 2:30:00 AM 7.76 45.968 8.911 7.53 3.55 10.48
4/18/2021 2:45:00 AM 7.74 45.932 8.916 7.53 3.63 10.48
4/18/2021 3:00:00 AM 7.72 45.896 9.092 7.53 3.62 10.47
4/18/2021 3:15:00 AM 7.7 45.86 8.856 7.53 3.6 10.47
4/18/2021 3:30:00 AM 7.67 45.806 0.301 7.54 3.65 10.81
4/18/2021 3:45:00 AM 7.64 45.752 8.885 7.53 3.72 10.47
4/18/2021 4:00:00 AM 7.62 45.716 8.861 7.53 3.44 10.48
4/18/2021 4:15:00 AM 7.58 45.644 8.839 7.53 3.58 10.48
4/18/2021 4:30:00 AM 7.54 45.572 8.806 7.52 3.81 10.49
4/18/2021 4:45:00 AM 7.5 45.5 8.866 7.52 4.13 10.49
4/18/2021 5:00:00 AM 7.46 45.428 8.914 7.52 4.89 10.5
4/18/2021 5:15:00 AM 7.41 45.338 0.174 7.52 4.6 10.5
4/18/2021 5:30:00 AM 7.37 45.266 8.829 7.52 4.38 10.51
4/18/2021 5:45:00 AM 7.32 45.176 8.891 7.52 4 10.51
4/18/2021 6:00:00 AM 7.28 45.104 0.305 7.53 4.13 10.86
4/18/2021 6:15:00 AM 7.23 45.014 0.305 7.53 4.09 10.86
4/18/2021 6:30:00 AM 7.19 44.942 9.1 7.52 3.95 10.53
4/18/2021 6:45:00 AM 7.15 44.87 9.282 7.53 3.94 10.55
4/18/2021 7:00:00 AM 7.11 44.798 0.305 7.53 3.62 10.93
4/18/2021 7:15:00 AM 7.07 44.726 10.208 7.54 3.78 10.58
4/18/2021 7:30:00 AM 7.03 44.654 8.976 7.53 3.82 10.67
4/18/2021 7:45:00 AM 6.99 44.582 0.306 7.56 3.68 11.06
4/18/2021 8:00:00 AM 6.95 44.51 10.876 7.56 4.6 10.68
4/18/2021 8:15:00 AM 6.92 44.456 0.307 7.57 3.54 11.18
4/18/2021 8:30:00 AM 6.89 44.402 0.306 7.58 3.43 11.26
4/18/2021 8:45:00 AM 6.87 44.366 9.29 7.58 3.3 10.96
4/18/2021 9:00:00 AM 6.86 44.348 9.22 7.59 3.35 11.05
4/18/2021 9:15:00 AM 6.86 44.348 9.189 7.6 3.19 11.14
4/18/2021 9:30:00 AM 6.88 44.384 8.576 7.62 3.15 11.26
4/18/2021 9:45:00 AM 6.91 44.438 10.251 7.65 3.13 11.28
4/18/2021 10:00:00 AM 6.96 44.528 9.512 7.66 3.26 11.43
4/18/2021 10:15:00 AM 7.06 44.708 0.308 7.7 3.19 11.97
4/18/2021 10:30:00 AM 7.21 44.978 0.308 7.73 3.09 12.13
4/18/2021 10:45:00 AM 7.39 45.302 0.306 7.76 3.08 12.29
4/18/2021 11:00:00 AM 7.57 45.626 9.3 7.79 2.88 12.03
4/18/2021 11:15:00 AM 7.76 45.968 0.284 7.83 2.92 12.58
4/18/2021 11:30:00 AM 7.99 46.382 0.307 7.88 2.88 12.7
4/18/2021 11:45:00 AM 8.24 46.832 9.992 7.91 2.93 12.37
4/18/2021 12:00:00 PM 8.46 47.228 9.175 7.95 3.06 12.48
4/18/2021 12:15:00 PM 8.73 47.714 9.329 8 3.49 12.57
4/18/2021 12:30:00 PM 8.82 47.876 0.308 8.04 3.73 13.02
4/18/2021 12:45:00 PM 8.98 48.164 0.308 8.08 3.61 13.08
4/18/2021 1:00:00 PM 9.13 48.434 0.307 8.12 3.56 13.1
4/18/2021 1:15:00 PM 9.18 48.524 0.307 8.15 4.13 13.08
4/18/2021 1:30:00 PM 9.26 48.668 0.307 8.17 3.69 13.07
4/18/2021 1:45:00 PM 9.37 48.866 0.307 8.19 3.44 13.07
4/18/2021 2:00:00 PM 9.51 49.118 0.308 8.22 3.33 13.1
4/18/2021 2:15:00 PM 9.64 49.352 0.309 8.25 3.22 13.11
4/18/2021 2:30:00 PM 9.74 49.532 0.309 8.28 3.08 13.1
4/18/2021 2:45:00 PM 9.79 49.622 9.592 8.29 3.15 12.65
4/18/2021 3:00:00 PM 9.87 49.766 0.308 8.33 2.96 13.09
4/18/2021 3:15:00 PM 9.95 49.91 0.308 8.36 3 13.09
4/18/2021 3:30:00 PM 10.02 50.036 0.309 8.38 2.87 13.09
4/18/2021 3:45:00 PM 10.12 50.216 9.939 8.39 3.15 12.67
4/18/2021 4:00:00 PM 10.16 50.288 0.309 8.43 2.76 13.1
4/18/2021 4:15:00 PM 10.13 50.234 0.31 8.42 3.01 13.01
4/18/2021 4:30:00 PM 10.1 50.18 0.31 8.42 3.49 12.95
4/18/2021 4:45:00 PM 10.11 50.198 0.31 8.43 2.83 12.95
4/18/2021 5:00:00 PM 10.15 50.27 9.82 8.43 2.89 12.5
4/18/2021 5:15:00 PM 10.16 50.288 9.747 8.43 2.88 12.47
4/18/2021 5:30:00 PM 10.16 50.288 9.501 8.42 2.87 12.44
4/18/2021 5:45:00 PM 10.16 50.288 9.626 8.41 3 12.35
4/18/2021 6:00:00 PM 10.14 50.252 9.491 8.39 4.52 12.24
4/18/2021 6:15:00 PM 10.14 50.252 9.441 8.36 4.45 12.15
4/18/2021 6:30:00 PM 10.15 50.27 9.338 8.34 3.76 12.05
4/18/2021 6:45:00 PM 10.15 50.27 9.486 8.31 4.84 11.92
4/18/2021 7:00:00 PM 10.15 50.27 9.57 8.27 5.61 11.79
4/18/2021 7:15:00 PM 10.14 50.252 0.313 8.24 6.67 12.02
4/18/2021 7:30:00 PM 10.13 50.234 0.313 8.17 9.28 11.83
4/18/2021 7:45:00 PM 10.12 50.216 0.314 8.11 8.45 11.65
4/18/2021 8:00:00 PM 10.11 50.198 0.314 8.06 8.77 11.51
4/18/2021 8:15:00 PM 10.09 50.162 0.314 8.03 8.12 11.41
4/18/2021 8:30:00 PM 10.08 50.144 0.314 7.99 7.25 11.33
4/18/2021 8:45:00 PM 10.07 50.126 9.693 7.95 5.78 10.87
4/18/2021 9:00:00 PM 10.04 50.072 0.314 7.94 4.95 11.16
4/18/2021 9:15:00 PM 10.02 50.036 9.96 7.89 4.11 10.68
4/18/2021 9:30:00 PM 9.98 49.964 9.819 7.86 3.74 10.59
4/18/2021 9:45:00 PM 9.95 49.91 9.744 7.83 3.85 10.51
4/18/2021 10:00:00 PM 9.92 49.856 9.682 7.8 3.44 10.44
4/18/2021 10:15:00 PM 9.88 49.784 9.695 7.77 3.45 10.36
4/18/2021 10:30:00 PM 9.84 49.712 9.645 7.75 3.36 10.31
4/18/2021 10:45:00 PM 9.8 49.64 10.796 7.73 3.26 10.21
4/18/2021 11:00:00 PM 9.75 49.55 9.801 7.71 3.22 10.19
4/18/2021 11:15:00 PM 9.7 49.46 9.741 7.69 3.26 10.14
4/18/2021 11:30:00 PM 9.65 49.37 9.679 7.67 3.23 10.1
4/18/2021 11:45:00 PM 9.61 49.298 9.751 7.66 3.16 10.06
4/19/2021 12:00:00 AM 9.57 49.226 9.628 7.64 3.23 10.02
4/19/2021 12:15:00 AM 9.52 49.136 0.286 7.63 3.28 9.98
4/19/2021 12:30:00 AM 9.48 49.064 9.631 7.62 3.37 9.96
4/19/2021 12:45:00 AM 9.43 48.974 7.149 7.62 3.3 9.91
4/19/2021 1:00:00 AM 9.38 48.884 9.592 7.6 3.12 9.92
4/19/2021 1:15:00 AM 9.34 48.812 9.677 7.59 3.44 9.91
4/19/2021 1:30:00 AM 9.3 48.74 9.722 7.59 3.2 9.89
4/19/2021 1:45:00 AM 9.26 48.668 9.63 7.58 3.26 9.88
4/19/2021 2:00:00 AM 9.21 48.578 0.321 7.59 3.22 10.22
4/19/2021 2:15:00 AM 9.17 48.506 0.32 7.59 3.31 10.22
4/19/2021 2:30:00 AM 9.13 48.434 9.65 7.57 3.24 9.87
4/19/2021 2:45:00 AM 9.09 48.362 9.623 7.57 3.26 9.87
4/19/2021 3:00:00 AM 9.04 48.272 9.825 7.56 3.24 9.88
4/19/2021 3:15:00 AM 9 48.2 9.611 7.56 3.27 9.9
4/19/2021 3:30:00 AM 8.94 48.092 9.713 7.56 3.32 9.9
4/19/2021 3:45:00 AM 8.89 48.002 9.669 7.55 3.01 9.92
4/19/2021 4:00:00 AM 8.83 47.894 9.631 7.55 3.23 9.93
4/19/2021 4:15:00 AM 8.77 47.786 9.601 7.55 3.28 9.95
4/19/2021 4:30:00 AM 8.71 47.678 9.498 7.55 3.51 9.97
4/19/2021 4:45:00 AM 8.65 47.57 9.512 7.54 3.42 9.98
4/19/2021 5:00:00 AM 8.6 47.48 9.582 7.54 3.34 9.99
4/19/2021 5:15:00 AM 8.54 47.372 9.542 7.54 3.41 10.01
4/19/2021 5:30:00 AM 8.48 47.264 9.503 7.54 3.1 10.03
4/19/2021 5:45:00 AM 8.43 47.174 9.604 7.54 3.45 10.04
4/19/2021 6:00:00 AM 8.37 47.066 0.323 7.55 3.19 10.42
4/19/2021 6:15:00 AM 8.31 46.958 10.586 7.54 3.34 10.04
4/19/2021 6:30:00 AM 8.25 46.85 9.688 7.54 3.85 10.1
4/19/2021 6:45:00 AM 8.19 46.742 9.691 7.54 3.44 10.13
4/19/2021 7:00:00 AM 8.14 46.652 9.69 7.54 3.61 10.17
4/19/2021 7:15:00 AM 8.11 46.598 9.607 7.55 3.66 10.24
4/19/2021 7:30:00 AM 8.09 46.562 9.554 7.56 3.28 10.32
4/19/2021 7:45:00 AM 8.06 46.508 9.573 7.56 3.19 10.38
4/19/2021 8:00:00 AM 8.03 46.454 9.565 7.58 3.6 10.48
4/19/2021 8:15:00 AM 8.01 46.418 9.554 7.59 2.99 10.6
4/19/2021 8:30:00 AM 7.99 46.382 10.258 7.61 3.23 10.7
4/19/2021 8:45:00 AM 7.99 46.382 9.636 7.63 3.18 10.87
4/19/2021 9:00:00 AM 8 46.4 9.741 7.65 3 11.02
4/19/2021 9:15:00 AM 8.02 46.436 9.805 7.68 3.09 11.16
4/19/2021 9:30:00 AM 8.04 46.472 9.677 7.7 2.87 11.31
4/19/2021 9:45:00 AM 8.04 46.472 0.32 7.73 2.77 11.84
4/19/2021 10:00:00 AM 8.11 46.598 10.093 7.76 2.75 11.59
4/19/2021 10:15:00 AM 8.23 46.814 9.805 7.79 2.73 11.77
4/19/2021 10:30:00 AM 8.34 47.012 9.737 7.83 2.74 11.93
4/19/2021 10:45:00 AM 8.44 47.192 9.757 7.87 2.55 12.07
4/19/2021 11:00:00 AM 8.56 47.408 9.673 7.92 2.7 12.21
4/19/2021 11:15:00 AM 8.7 47.66 9.686 7.96 2.7 12.35
4/19/2021 11:30:00 AM 8.68 47.624 9.721 8 2.54 12.43
4/19/2021 11:45:00 AM 8.73 47.714 9.707 8.04 2.48 12.53
4/19/2021 12:00:00 PM 8.83 47.894 9.674 8.09 2.63 12.65
4/19/2021 12:15:00 PM 8.95 48.11 9.611 8.14 2.66 12.75
4/19/2021 12:30:00 PM 9.08 48.344 0.322 8.2 2.41 13.27
4/19/2021 12:45:00 PM 9.22 48.596 11.287 8.25 2.44 12.83
4/19/2021 1:00:00 PM 9.37 48.866 9.757 8.28 2.43 12.98
4/19/2021 1:15:00 PM 9.5 49.1 9.738 8.33 2.58 13.05
4/19/2021 1:30:00 PM 9.56 49.208 9.746 8.36 2.38 13.06
4/19/2021 1:45:00 PM 9.66 49.388 0.322 8.42 2.56 13.56
4/19/2021 2:00:00 PM 9.91 49.838 0.322 8.46 2.75 13.62
4/19/2021 2:15:00 PM 10.13 50.234 0.321 8.49 2.45 13.67
4/19/2021 2:30:00 PM 10.33 50.594 0.32 8.52 2.48 13.69
4/19/2021 2:45:00 PM 10.49 50.882 0.321 8.55 2.47 13.7
4/19/2021 3:00:00 PM 10.65 51.17 11.078 8.56 2.54 13.18
4/19/2021 3:15:00 PM 10.74 51.332 10.575 8.58 2.5 13.2
4/19/2021 3:30:00 PM 10.82 51.476 10.586 8.6 2.52 13.19
4/19/2021 3:45:00 PM 10.83 51.494 10.097 8.61 4.33 13.14
4/19/2021 4:00:00 PM 10.84 51.512 9.969 8.61 2.71 13.05
4/19/2021 4:15:00 PM 10.93 51.674 10.033 8.62 3.8 13.04
4/19/2021 4:30:00 PM 10.94 51.692 9.868 8.63 2.52 12.99
4/19/2021 4:45:00 PM 11.01 51.818 9.901 8.64 2.5 12.96
4/19/2021 5:00:00 PM 11.02 51.836 0.321 8.65 2.49 13.34
4/19/2021 5:15:00 PM 11.04 51.872 0.323 8.64 2.43 13.26
4/19/2021 5:30:00 PM 11.08 51.944 9.846 8.63 2.37 12.73
4/19/2021 5:45:00 PM 11.13 52.034 0.333 8.63 4.06 13.05
4/19/2021 6:00:00 PM 11.21 52.178 0.322 8.63 2.44 13
4/19/2021 6:15:00 PM 11.27 52.286 0.322 8.63 2.51 12.94
4/19/2021 6:30:00 PM 11.27 52.286 0.322 8.62 2.43 12.8
4/19/2021 6:45:00 PM 11.26 52.268 9.937 8.57 2.35 12.22
4/19/2021 7:00:00 PM 11.25 52.25 0.323 8.56 2.71 12.53
4/19/2021 7:15:00 PM 11.22 52.196 10.199 8.51 2.48 11.94
4/19/2021 7:30:00 PM 11.18 52.124 9.967 8.47 2.49 11.79
4/19/2021 7:45:00 PM 11.15 52.07 0.323 8.44 2.46 12.05
4/19/2021 8:00:00 PM 11.12 52.016 0.323 8.39 2.58 11.88
4/19/2021 8:15:00 PM 11.09 51.962 10.109 8.32 2.53 11.29
4/19/2021 8:30:00 PM 11.06 51.908 0.346 8.26 2.79 11.52
4/19/2021 8:45:00 PM 11.04 51.872 9.929 8.2 2.94 10.97
4/19/2021 9:00:00 PM 11 51.8 9.937 8.14 3.27 10.8
4/19/2021 9:15:00 PM 10.97 51.746 9.89 8.08 3.31 10.65
4/19/2021 9:30:00 PM 10.94 51.692 0.325 8.03 3.23 10.88
4/19/2021 9:45:00 PM 10.9 51.62 0.328 7.99 3.3 10.75
4/19/2021 10:00:00 PM 10.86 51.548 0.336 7.94 3.42 10.64
4/19/2021 10:15:00 PM 10.81 51.458 0.346 7.9 3.31 10.53
4/19/2021 10:30:00 PM 10.76 51.368 0.339 7.86 3.51 10.43
4/19/2021 10:45:00 PM 10.7 51.26 0.334 7.83 3.83 10.34
4/19/2021 11:00:00 PM 10.65 51.17 0.328 7.8 3.62 10.25
4/19/2021 11:15:00 PM 10.6 51.08 0.331 7.77 3.73 10.17
4/19/2021 11:30:00 PM 10.56 51.008 0.329 7.74 3.76 10.1
4/19/2021 11:45:00 PM 10.51 50.918 0.329 7.72 3.53 10.03
4/20/2021 12:00:00 AM 10.47 50.846 0.329 7.7 3.5 9.97
4/20/2021 12:15:00 AM 10.43 50.774 0.33 7.68 3.31 9.93
4/20/2021 12:30:00 AM 10.37 50.666 0.33 7.66 3.32 9.89
4/20/2021 12:45:00 AM 10.31 50.558 0.331 7.65 3.38 9.87
4/20/2021 1:00:00 AM 10.25 50.45 0.33 7.64 3.51 9.85
4/20/2021 1:15:00 AM 10.2 50.36 0.331 7.63 3.38 9.84
4/20/2021 1:30:00 AM 10.14 50.252 0.332 7.62 3.63 9.83
4/20/2021 1:45:00 AM 10.1 50.18 0.332 7.61 3.29 9.82
4/20/2021 2:00:00 AM 10.04 50.072 0.332 7.61 3.25 9.8
4/20/2021 2:15:00 AM 9.98 49.964 0.331 7.6 3.35 9.8
4/20/2021 2:30:00 AM 9.92 49.856 0.332 7.6 3.11 9.8
4/20/2021 2:45:00 AM 9.86 49.748 0.333 7.59 3.36 9.8
4/20/2021 3:00:00 AM 9.8 49.64 0.332 7.59 3.24 9.81
4/20/2021 3:15:00 AM 9.74 49.532 0.332 7.59 3.26 9.81
4/20/2021 3:30:00 AM 9.68 49.424 0.332 7.58 3.43 9.82
4/20/2021 3:45:00 AM 9.62 49.316 0.332 7.58 3.64 9.83
4/20/2021 4:00:00 AM 9.55 49.19 0.334 7.58 3.5 9.84
4/20/2021 4:15:00 AM 9.48 49.064 0.333 7.57 3.69 9.86
4/20/2021 4:30:00 AM 9.42 48.956 0.333 7.57 3.49 9.87
4/20/2021 4:45:00 AM 9.37 48.866 0.335 7.57 3.35 9.88
4/20/2021 5:00:00 AM 9.32 48.776 0.336 7.57 3.3 9.9
4/20/2021 5:15:00 AM 9.26 48.668 0.334 7.57 3.39 9.91
4/20/2021 5:30:00 AM 9.2 48.56 0.334 7.56 3.03 9.93
4/20/2021 5:45:00 AM 9.15 48.47 0.335 7.56 2.97 9.94
4/20/2021 6:00:00 AM 9.09 48.362 0.335 7.56 3.13 9.96
4/20/2021 6:15:00 AM 9.03 48.254 0.335 7.56 3.11 9.98
4/20/2021 6:30:00 AM 8.97 48.146 0.335 7.56 3.1 10
4/20/2021 6:45:00 AM 8.91 48.038 0.336 7.56 3.22 10.04
4/20/2021 7:00:00 AM 8.86 47.948 0.336 7.56 3.68 10.07
4/20/2021 7:15:00 AM 8.82 47.876 0.336 7.57 4.04 10.13
4/20/2021 7:30:00 AM 8.77 47.786 0.337 7.57 3.79 10.17
4/20/2021 7:45:00 AM 8.73 47.714 0.337 7.58 3.56 10.21
4/20/2021 8:00:00 AM 8.69 47.642 0.337 7.58 3.01 10.28
4/20/2021 8:15:00 AM 8.66 47.588 0.337 7.59 3.01 10.38
4/20/2021 8:30:00 AM 8.63 47.534 0.337 7.6 3 10.47
4/20/2021 8:45:00 AM 8.59 47.462 0.337 7.6 4.02 10.5
4/20/2021 9:00:00 AM 8.56 47.408 0.337 7.61 2.85 10.58
4/20/2021 9:15:00 AM 8.54 47.372 0.337 7.63 3.01 10.71
4/20/2021 9:30:00 AM 8.51 47.318 0.338 7.64 3.05 10.82
4/20/2021 9:45:00 AM 8.48 47.264 0.338 7.66 2.67 10.93
4/20/2021 10:00:00 AM 8.45 47.21 0.338 7.67 2.63 11
4/20/2021 10:15:00 AM 8.44 47.192 0.338 7.69 2.56 11.15
4/20/2021 10:30:00 AM 8.45 47.21 0.338 7.71 2.7 11.33
4/20/2021 10:45:00 AM 8.46 47.228 0.338 7.74 2.45 11.51
4/20/2021 11:00:00 AM 8.45 47.21 0.339 7.77 2.6 11.64
4/20/2021 11:15:00 AM 8.44 47.192 0.339 7.79 2.49 11.78
4/20/2021 11:30:00 AM 8.42 47.156 0.34 7.81 2.47 11.88
4/20/2021 11:45:00 AM 8.41 47.138 0.339 7.84 2.59 12.02
4/20/2021 12:00:00 PM 8.42 47.156 0.339 7.88 2.49 12.19
4/20/2021 12:15:00 PM 8.43 47.174 0.339 7.92 2.36 12.34
4/20/2021 12:30:00 PM 8.43 47.174 0.339 7.95 2.47 12.45
4/20/2021 12:45:00 PM 8.43 47.174 0.314 7.97 2.34 12.54
4/20/2021 1:00:00 PM 8.44 47.192 11.637 7.99 2.52 12.12
4/20/2021 1:15:00 PM 8.45 47.21 0.341 8.04 2.34 12.75
4/20/2021 1:30:00 PM 8.46 47.228 0.339 8.08 2.3 12.87
4/20/2021 1:45:00 PM 8.48 47.264 0.339 8.12 2.27 12.99
4/20/2021 2:00:00 PM 8.53 47.354 0.34 8.17 2.26 13.13
4/20/2021 2:15:00 PM 8.56 47.408 0.34 8.21 2.23 13.24
4/20/2021 2:30:00 PM 8.61 47.498 0.34 8.26 2.29 13.35
4/20/2021 2:45:00 PM 8.64 47.552 0.35 8.3 2.39 13.44
4/20/2021 3:00:00 PM 8.67 47.606 10.891 8.32 2.22 13
4/20/2021 3:15:00 PM 8.71 47.678 10.748 8.36 2.15 13.07
4/20/2021 3:30:00 PM 8.74 47.732 0.341 8.4 2.14 13.65
4/20/2021 3:45:00 PM 8.75 47.75 0.339 8.44 2.28 13.68
4/20/2021 4:00:00 PM 8.77 47.786 0.34 8.47 2.22 13.71
4/20/2021 4:15:00 PM 8.79 47.822 0.342 8.49 2.32 13.72
4/20/2021 4:30:00 PM 8.84 47.912 10.749 8.49 2.16 13.26
4/20/2021 4:45:00 PM 8.89 48.002 10.602 8.52 2.16 13.31
4/20/2021 5:00:00 PM 8.92 48.056 10.635 8.54 2.25 13.33
4/20/2021 5:15:00 PM 8.94 48.092 10.561 8.55 2.12 13.34
4/20/2021 5:30:00 PM 8.96 48.128 10.541 8.56 2.21 13.33
4/20/2021 5:45:00 PM 8.98 48.164 10.523 8.57 2.25 13.32
4/20/2021 6:00:00 PM 8.99 48.182 0.343 8.6 2.25 13.82
4/20/2021 6:15:00 PM 9 48.2 0.342 8.61 2.71 13.79
4/20/2021 6:30:00 PM 9.01 48.218 0.341 8.61 2.4 13.73
4/20/2021 6:45:00 PM 9 48.2 0.342 8.61 2.22 13.66
4/20/2021 7:00:00 PM 8.99 48.182 0.342 8.59 6.38 13.56
4/20/2021 7:15:00 PM 8.96 48.128 0.343 8.58 2.85 13.42
4/20/2021 7:30:00 PM 8.93 48.074 0.343 8.53 3.07 13.27
4/20/2021 7:45:00 PM 8.9 48.02 10.308 8.49 4.51 12.64
4/20/2021 8:00:00 PM 8.86 47.948 10.346 8.45 2.22 12.48
4/20/2021 8:15:00 PM 8.82 47.876 10.357 8.41 2.27 12.31
4/20/2021 8:30:00 PM 8.78 47.804 10.382 8.36 2.32 12.13
4/20/2021 8:45:00 PM 8.74 47.732 10.319 8.31 2.21 11.98
4/20/2021 9:00:00 PM 8.71 47.678 10.365 8.26 2.29 11.82
4/20/2021 9:15:00 PM 8.67 47.606 0.344 8.23 2.51 12.11
4/20/2021 9:30:00 PM 8.64 47.552 0.344 8.18 2.48 11.95
4/20/2021 9:45:00 PM 8.61 47.498 10.984 8.11 2.48 11.35
4/20/2021 10:00:00 PM 8.57 47.426 0.346 8.08 2.59 11.67
4/20/2021 10:15:00 PM 8.55 47.39 10.195 8.02 2.59 11.14
4/20/2021 10:30:00 PM 8.52 47.336 10.087 7.98 2.6 11.01
4/20/2021 10:45:00 PM 8.41 47.138 10.114 7.94 2.52 10.91
4/20/2021 11:00:00 PM 8.37 47.066 10.226 7.9 2.67 10.8
4/20/2021 11:15:00 PM 8.34 47.012 10.161 7.86 2.67 10.71
4/20/2021 11:30:00 PM 8.31 46.958 10.062 7.83 2.7 10.62
4/20/2021 11:45:00 PM 8.27 46.886 10.327 7.8 2.79 10.52
4/21/2021 12:00:00 AM 8.23 46.814 0.349 7.78 2.85 10.84
4/21/2021 12:15:00 AM 8.19 46.742 10.238 7.75 2.87 10.38
4/21/2021 12:30:00 AM 8.16 46.688 10.255 7.73 2.95 10.31
4/21/2021 12:45:00 AM 8.14 46.652 11.209 7.72 3 10.23
4/21/2021 1:00:00 AM 8.12 46.616 10.168 7.69 2.87 10.23
4/21/2021 1:15:00 AM 8.1 46.58 10.036 7.68 2.89 10.2
4/21/2021 1:30:00 AM 8.06 46.508 10.122 7.67 2.8 10.17
4/21/2021 1:45:00 AM 8.03 46.454 10.084 7.66 2.8 10.15
4/21/2021 2:00:00 AM 7.99 46.382 10.032 7.65 2.71 10.13
4/21/2021 2:15:00 AM 7.95 46.31 10.144 7.64 2.86 10.11
4/21/2021 2:30:00 AM 7.92 46.256 10.119 7.63 2.82 10.1
4/21/2021 2:45:00 AM 7.89 46.202 10.195 7.63 3.16 10.08
4/21/2021 3:00:00 AM 7.86 46.148 10.204 7.62 2.77 10.08
4/21/2021 3:15:00 AM 7.81 46.058 10.135 7.61 2.87 10.07
4/21/2021 3:30:00 AM 7.77 45.986 10.376 7.61 3.06 10.06
4/21/2021 3:45:00 AM 7.74 45.932 10.309 7.6 3.15 10.06
4/21/2021 4:00:00 AM 7.71 45.878 0.375 7.62 2.79 10.44
4/21/2021 4:15:00 AM 7.68 45.824 10.2 7.6 3.02 10.06
4/21/2021 4:30:00 AM 7.64 45.752 10.468 7.6 2.75 10.05
4/21/2021 4:45:00 AM 7.61 45.698 10.312 7.59 2.71 10.06
4/21/2021 5:00:00 AM 7.58 45.644 10.293 7.59 2.7 10.06
4/21/2021 5:15:00 AM 7.54 45.572 10.249 7.59 2.72 10.06
4/21/2021 5:30:00 AM 7.5 45.5 0.352 7.61 2.73 10.45
4/21/2021 5:45:00 AM 7.46 45.428 10.625 7.59 2.68 10.06
4/21/2021 6:00:00 AM 7.42 45.356 10.342 7.59 2.63 10.08
4/21/2021 6:15:00 AM 7.38 45.284 0.352 7.61 2.68 10.47
4/21/2021 6:30:00 AM 6.94 44.492 0.352 7.61 3.16 10.48
4/21/2021 6:45:00 AM 6.91 44.438 0.353 7.61 2.79 10.49
4/21/2021 7:00:00 AM 6.91 44.438 10.064 7.58 2.84 10.15
4/21/2021 7:15:00 AM 6.88 44.384 10.525 7.6 59.85 10.19
4/21/2021 7:30:00 AM 6.83 44.294 10.226 7.6 2.99 10.24
4/21/2021 7:45:00 AM 6.81 44.258 10.104 7.6 2.92 10.29
4/21/2021 8:00:00 AM 6.8 44.24 10.373 7.61 3.34 10.31
4/21/2021 8:15:00 AM 6.74 44.132 0.36 7.63 2.92 10.76
4/21/2021 8:30:00 AM 6.73 44.114 0.36 7.63 2.82 10.8
4/21/2021 8:45:00 AM 6.73 44.114 0.057 7.63 3.28 10.86
4/21/2021 9:00:00 AM 6.73 44.114 0.357 7.63 3.12 10.92
4/21/2021 9:15:00 AM 6.69 44.042 0.355 7.64 2.98 10.97
4/21/2021 9:30:00 AM 6.64 43.952 12.114 7.64 2.86 10.59
4/21/2021 9:45:00 AM 6.56 43.808 10.379 7.65 2.65 10.73
4/21/2021 10:00:00 AM 6.47 43.646 10.386 7.66 2.8 10.84
4/21/2021 10:15:00 AM 6.46 43.628 10.287 7.68 2.47 10.96
4/21/2021 10:30:00 AM 6.45 43.61 0.447 7.71 2.46 11.51
4/21/2021 10:45:00 AM 6.42 43.556 10.244 7.72 2.34 11.21
4/21/2021 11:00:00 AM 6.38 43.484 10.569 7.74 2.56 11.31
4/21/2021 11:15:00 AM 6.31 43.358 10.54 7.76 2.68 11.47
4/21/2021 11:30:00 AM 6.3 43.34 10.491 7.78 2.47 11.63
4/21/2021 11:45:00 AM 6.29 43.322 10.537 7.81 2.6 11.77
4/21/2021 12:00:00 PM 6.29 43.322 10.636 7.84 2.82 11.92
4/21/2021 12:15:00 PM 6.29 43.322 10.644 7.87 2.68 12.05
4/21/2021 12:30:00 PM 6.29 43.322 0.368 7.92 2.8 12.67
4/21/2021 12:45:00 PM 6.31 43.358 10.895 7.93 5.43 12.31
4/21/2021 1:00:00 PM 6.34 43.412 10.849 7.97 3.01 12.48
4/21/2021 1:15:00 PM 6.37 43.466 10.74 8.01 2.63 12.65
4/21/2021 1:30:00 PM 6.38 43.484 10.662 8.05 2.7 12.79
4/21/2021 1:45:00 PM 6.37 43.466 0.364 8.1 2.81 13.4
4/21/2021 2:00:00 PM 6.39 43.502 0.363 8.14 2.52 13.55
4/21/2021 2:15:00 PM 6.47 43.646 0.361 8.19 2.67 13.72
4/21/2021 2:30:00 PM 6.59 43.862 0.362 8.24 2.71 13.85
4/21/2021 2:45:00 PM 6.65 43.97 0.362 8.29 2.48 13.97
4/21/2021 3:00:00 PM 6.72 44.096 0.361 8.33 2.56 14.07
4/21/2021 3:15:00 PM 6.78 44.204 0.359 8.37 2.4 14.15
4/21/2021 3:30:00 PM 6.82 44.276 0.362 8.41 2.59 14.23
4/21/2021 3:45:00 PM 6.89 44.402 10.72 8.42 2.48 13.74
4/21/2021 4:00:00 PM 7.03 44.654 10.624 8.46 2.42 13.82
4/21/2021 4:15:00 PM 7.06 44.708 0.35 8.51 2.43 14.4
4/21/2021 4:30:00 PM 7.08 44.744 11.59 8.52 2.43 13.8
4/21/2021 4:45:00 PM 7.05 44.69 0.347 8.52 2.32 14.29
4/21/2021 5:00:00 PM 7.06 44.708 0.345 8.54 3.21 14.27
4/21/2021 5:15:00 PM 7.01 44.618 0.346 8.54 2.4 14.19
4/21/2021 5:30:00 PM 6.98 44.564 14.268 8.54 2.36 14.15
4/21/2021 5:45:00 PM 6.94 44.492 0.348 8.53 2.36 14.06
4/21/2021 6:00:00 PM 6.9 44.42 0.358 8.52 2.37 14.01
4/21/2021 6:15:00 PM 6.89 44.402 10.989 8.5 2.39 13.43
4/21/2021 6:30:00 PM 6.86 44.348 10.732 8.49 2.27 13.4
4/21/2021 6:45:00 PM 6.81 44.258 10.768 8.48 2.33 13.33
4/21/2021 7:00:00 PM 6.77 44.186 10.955 8.46 3.09 13.25
4/21/2021 7:15:00 PM 6.73 44.114 11.204 8.44 2.5 13.15
4/21/2021 7:30:00 PM 6.7 44.06 0.402 8.42 2.84 13.58
4/21/2021 7:45:00 PM 6.69 44.042 11.698 8.37 3.31 12.87
4/21/2021 8:00:00 PM 6.64 43.952 0.408 8.35 2.69 13.29
4/21/2021 8:15:00 PM 6.58 43.844 0.417 8.31 2.53 13.13
4/21/2021 8:30:00 PM 6.54 43.772 0.412 8.27 2.5 12.98
4/21/2021 8:45:00 PM 6.51 43.718 0.395 8.22 2.51 12.83
4/21/2021 9:00:00 PM 6.47 43.646 0.383 8.18 2.55 12.7
4/21/2021 9:15:00 PM 6.43 43.574 0.373 8.13 2.76 12.56
4/21/2021 9:30:00 PM 6.39 43.502 0.367 8.08 2.77 12.42
4/21/2021 9:45:00 PM 6.36 43.448 0.363 8.04 2.73 12.31
4/21/2021 10:00:00 PM 6.32 43.376 0.362 8 2.59 12.21
4/21/2021 10:15:00 PM 6.29 43.322 0.362 7.97 2.54 12.1
4/21/2021 10:30:00 PM 6.25 43.25 0.362 7.94 2.66 12.01
4/21/2021 10:45:00 PM 6.21 43.178 0.363 7.91 2.63 11.9
4/21/2021 11:00:00 PM 6.17 43.106 0.364 7.88 2.74 11.81
4/21/2021 11:15:00 PM 6.13 43.034 0.365 7.85 2.78 11.7
4/21/2021 11:30:00 PM 6.09 42.962 0.365 7.82 2.84 11.62
4/21/2021 11:45:00 PM 6.05 42.89 0.365 7.8 2.85 11.54
4/22/2021 12:00:00 AM 6 42.8 0.365 7.78 3 11.47
4/22/2021 12:15:00 AM 5.95 42.71 0.363 7.76 3.06 11.41
4/22/2021 12:30:00 AM 5.9 42.62 0.361 7.74 5.85 11.36
4/22/2021 12:45:00 AM 5.85 42.53 0.359 7.73 2.75 11.32
4/22/2021 1:00:00 AM 5.81 42.458 0.357 7.71 2.84 11.3
4/22/2021 1:15:00 AM 5.77 42.386 0.355 7.7 3.21 11.28
4/22/2021 1:30:00 AM 5.72 42.296 0.353 7.69 2.86 11.26
4/22/2021 1:45:00 AM 5.67 42.206 0.351 7.69 2.83 11.25
4/22/2021 2:00:00 AM 5.62 42.116 0.349 7.67 2.75 11.24
4/22/2021 2:15:00 AM 5.55 41.99 0.348 7.67 2.91 11.25
4/22/2021 2:30:00 AM 5.49 41.882 0.346 7.66 2.76 11.25
4/22/2021 2:45:00 AM 5.44 41.792 0.344 7.66 2.58 11.24
4/22/2021 3:00:00 AM 5.38 41.684 0.343 7.65 2.55 11.25
4/22/2021 3:15:00 AM 5.33 41.594 0.341 7.64 2.55 11.25
4/22/2021 3:30:00 AM 5.28 41.504 0.34 7.63 2.64 11.26
4/22/2021 3:45:00 AM 5.22 41.396 0.339 7.63 2.51 11.27
4/22/2021 4:00:00 AM 5.16 41.288 0.338 7.63 2.57 11.29
4/22/2021 4:15:00 AM 5.1 41.18 0.337 7.62 2.57 11.3
4/22/2021 4:30:00 AM 5.05 41.09 0.336 7.62 2.54 11.31
4/22/2021 4:45:00 AM 5 41 0.336 7.62 2.62 11.32
4/22/2021 5:00:00 AM 4.94 40.892 0.336 7.61 2.61 11.33
4/22/2021 5:15:00 AM 4.89 40.802 0.336 7.61 2.53 11.34
4/22/2021 5:30:00 AM 4.83 40.694 0.336 7.61 2.68 11.36
4/22/2021 5:45:00 AM 4.77 40.586 0.336 7.61 2.71 11.37
4/22/2021 6:00:00 AM 4.72 40.496 0.336 7.61 2.69 11.38
4/22/2021 6:15:00 AM 4.67 40.406 0.335 7.61 2.76 11.4
4/22/2021 6:30:00 AM 4.61 40.298 0.335 7.61 2.95 11.43
4/22/2021 6:45:00 AM 4.57 40.226 0.335 7.61 2.95 11.48
4/22/2021 7:00:00 AM 4.53 40.154 0.335 7.61 2.67 11.53
4/22/2021 7:15:00 AM 4.49 40.082 0.335 7.62 2.49 11.61
4/22/2021 7:30:00 AM 4.45 40.01 0.335 7.63 2.61 11.7
4/22/2021 7:45:00 AM 4.44 39.992 0.334 7.64 2.78 11.8
4/22/2021 8:00:00 AM 4.43 39.974 0.334 7.65 2.82 11.91
4/22/2021 8:15:00 AM 4.42 39.956 0.334 7.67 2.73 12.03
4/22/2021 8:30:00 AM 4.41 39.938 0.334 7.68 2.58 12.15
4/22/2021 8:45:00 AM 4.42 39.956 0.333 7.7 2.52 12.3
4/22/2021 9:00:00 AM 4.42 39.956 0.333 7.72 2.5 12.45
4/22/2021 9:15:00 AM 4.43 39.974 0.333 7.75 2.65 12.61
4/22/2021 9:30:00 AM 4.45 40.01 0.333 7.77 2.73 12.76
4/22/2021 9:45:00 AM 4.48 40.064 0.333 7.8 2.5 12.9
4/22/2021 10:00:00 AM 4.52 40.136 0.334 7.82 2.41 13.04
4/22/2021 10:15:00 AM 4.52 40.136 0.334 7.85 2.48 13.17
4/22/2021 10:30:00 AM 4.52 40.136 0.334 7.88 2.54 13.29
4/22/2021 10:45:00 AM 4.53 40.154 0.334 7.91 2.55 13.41
4/22/2021 11:00:00 AM 4.56 40.208 0.334 7.94 2.36 13.53
4/22/2021 11:15:00 AM 4.68 40.424 0.335 7.98 2.52 13.69
4/22/2021 11:30:00 AM 4.81 40.658 0.335 8.02 2.21 13.83
4/22/2021 11:45:00 AM 4.93 40.874 0.335 8.07 2.41 13.96
4/22/2021 12:00:00 PM 5 41 0.335 8.11 2.35 14.09
4/22/2021 12:15:00 PM 5.02 41.036 0.335 8.14 2.21 14.17
4/22/2021 12:30:00 PM 5.06 41.108 0.336 8.18 2.32 14.26
4/22/2021 12:45:00 PM 5.14 41.252 0.336 8.22 2.22 14.36
4/22/2021 1:00:00 PM 5.27 41.486 0.336 8.26 2.29 14.45
4/22/2021 1:15:00 PM 5.33 41.594 0.336 8.3 2.24 14.51
4/22/2021 1:30:00 PM 5.46 41.828 0.337 8.34 2.23 14.57
4/22/2021 1:45:00 PM 5.68 42.224 0.337 8.37 2.39 14.64
4/22/2021 2:00:00 PM 5.77 42.386 0.337 8.4 2.25 14.66
4/22/2021 2:15:00 PM 5.92 42.656 0.337 8.43 2.44 14.69
4/22/2021 2:30:00 PM 5.99 42.782 0.338 8.45 2.18 14.68
4/22/2021 2:45:00 PM 6.05 42.89 0.338 8.47 2.18 14.7
4/22/2021 3:00:00 PM 6.18 43.124 0.338 8.5 2.24 14.73
4/22/2021 3:15:00 PM 6.3 43.34 0.338 8.52 2.03 14.73
4/22/2021 3:30:00 PM 6.47 43.646 0.339 8.54 2.24 14.75
4/22/2021 3:45:00 PM 6.52 43.736 0.339 8.56 2.1 14.74
4/22/2021 4:00:00 PM 6.58 43.844 0.339 8.57 1.96 14.69
4/22/2021 4:15:00 PM 6.61 43.898 0.339 8.58 2.12 14.67
4/22/2021 4:30:00 PM 6.66 43.988 0.34 8.59 2.03 14.66
4/22/2021 4:45:00 PM 6.65 43.97 0.34 8.59 2.04 14.59
4/22/2021 5:00:00 PM 6.72 44.096 0.34 8.6 2.06 14.55
4/22/2021 5:15:00 PM 6.76 44.168 0.341 8.61 2.07 14.55
4/22/2021 5:30:00 PM 6.8 44.24 0.341 8.62 2.07 14.51
4/22/2021 5:45:00 PM 6.81 44.258 0.341 8.61 2.63 14.4
4/22/2021 6:00:00 PM 6.82 44.276 0.342 8.61 1.98 14.34
4/22/2021 6:15:00 PM 6.83 44.294 14.969 8.58 1.99 13.5
4/22/2021 6:30:00 PM 6.81 44.258 11.498 8.58 2.2 13.6
4/22/2021 6:45:00 PM 6.8 44.24 11.048 8.56 1.95 13.51
4/22/2021 7:00:00 PM 6.81 44.258 10.747 8.55 1.92 13.47
4/22/2021 7:15:00 PM 6.79 44.222 10.548 8.53 2.01 13.38
4/22/2021 7:30:00 PM 6.76 44.168 10.484 8.5 2.01 13.23
4/22/2021 7:45:00 PM 6.71 44.078 10.532 8.46 2.31 13.07
4/22/2021 8:00:00 PM 6.66 43.988 10.503 8.42 2.04 12.91
4/22/2021 8:15:00 PM 6.61 43.898 10.431 8.38 2.14 12.76
4/22/2021 8:30:00 PM 6.57 43.826 10.448 8.33 2.13 12.6
4/22/2021 8:45:00 PM 6.53 43.754 10.487 8.28 2.14 12.45
4/22/2021 9:00:00 PM 6.48 43.664 10.477 8.24 2.24 12.32
4/22/2021 9:15:00 PM 6.43 43.574 10.486 8.19 2.31 12.19
4/22/2021 9:30:00 PM 6.4 43.52 10.603 8.14 2.42 12.03
4/22/2021 9:45:00 PM 6.35 43.43 10.512 8.09 2.33 11.91
4/22/2021 10:00:00 PM 6.32 43.376 10.621 8.05 2.93 11.79
4/22/2021 10:15:00 PM 6.27 43.286 0.353 8.02 2.3 12.14
4/22/2021 10:30:00 PM 6.23 43.214 10.776 7.98 2.28 11.57
4/22/2021 10:45:00 PM 6.2 43.16 10.578 7.94 2.16 11.48
4/22/2021 11:00:00 PM 6.17 43.106 10.591 7.91 2.24 11.39
4/22/2021 11:15:00 PM 6.13 43.034 10.493 7.88 2.32 11.31
4/22/2021 11:30:00 PM 6.09 42.962 10.593 7.85 2.51 11.22
4/22/2021 11:45:00 PM 6.07 42.926 10.383 7.83 2.4 11.15
4/23/2021 12:00:00 AM 6.04 42.872 10.406 7.8 2.42 11.08
4/23/2021 12:15:00 AM 6.01 42.818 10.492 7.78 2.29 11.02
4/23/2021 12:30:00 AM 5.99 42.782 10.656 7.77 2.31 10.94
4/23/2021 12:45:00 AM 5.97 42.746 10.143 7.74 2.36 10.92
4/23/2021 1:00:00 AM 5.93 42.674 10.206 7.73 2.25 10.88
4/23/2021 1:15:00 AM 5.9 42.62 10.232 7.72 2.32 10.85
4/23/2021 1:30:00 AM 5.86 42.548 10.302 7.7 2.35 10.81
4/23/2021 1:45:00 AM 5.82 42.476 10.207 7.7 2.43 10.8
4/23/2021 2:00:00 AM 5.78 42.404 10.443 7.69 2.26 10.78
4/23/2021 2:15:00 AM 5.74 42.332 10.404 7.68 2.28 10.76
4/23/2021 2:30:00 AM 5.71 42.278 0.33 7.67 2.27 11.17
4/23/2021 2:45:00 AM 5.67 42.206 10.597 7.67 2.19 10.73
4/23/2021 3:00:00 AM 5.64 42.152 10.61 7.66 2.24 10.72
4/23/2021 3:15:00 AM 5.61 42.098 10.591 7.65 2.31 10.71
4/23/2021 3:30:00 AM 5.58 42.044 10.535 7.65 2.15 10.7
4/23/2021 3:45:00 AM 5.55 41.99 10.475 7.64 2.27 10.7
4/23/2021 4:00:00 AM 5.52 41.936 10.642 7.64 2.26 10.69
4/23/2021 4:15:00 AM 5.49 41.882 10.554 7.64 2.37 10.69
4/23/2021 4:30:00 AM 5.45 41.81 10.485 7.63 2.32 10.7
4/23/2021 4:45:00 AM 5.41 41.738 10.493 7.63 2.27 10.69
4/23/2021 5:00:00 AM 5.37 41.666 11.193 7.63 2.37 10.67
4/23/2021 5:15:00 AM 5.33 41.594 11.297 7.63 2.26 10.67
4/23/2021 5:30:00 AM 5.29 41.522 10.55 7.62 2.29 10.71
4/23/2021 5:45:00 AM 5.25 41.45 0.36 7.64 2.37 11.14
4/23/2021 6:00:00 AM 5.21 41.378 0.362 7.63 2.25 11.15
4/23/2021 6:15:00 AM 5.17 41.306 11.118 7.62 2.39 10.72
4/23/2021 6:30:00 AM 5.13 41.234 10.589 7.62 2.43 10.77
4/23/2021 6:45:00 AM 5.08 41.144 10.602 7.62 2.2 10.81
4/23/2021 7:00:00 AM 5.04 41.072 0.362 7.64 2.37 11.29
4/23/2021 7:15:00 AM 5 41 10.895 7.63 2.28 10.9
4/23/2021 7:30:00 AM 4.97 40.946 10.579 7.64 2.38 10.99
4/23/2021 7:45:00 AM 4.93 40.874 10.608 7.65 2.35 11.07
4/23/2021 8:00:00 AM 4.9 40.82 10.59 7.65 2.36 11.15
4/23/2021 8:15:00 AM 4.88 40.784 10.43 7.67 2.33 11.25
4/23/2021 8:30:00 AM 4.86 40.748 10.499 7.68 2.39 11.35
4/23/2021 8:45:00 AM 4.85 40.73 10.536 7.69 2.4 11.47
4/23/2021 9:00:00 AM 4.84 40.712 10.503 7.71 2.4 11.59
4/23/2021 9:15:00 AM 4.85 40.73 10.488 7.73 2.51 11.73
4/23/2021 9:30:00 AM 4.89 40.802 10.51 7.75 2.65 11.87
4/23/2021 9:45:00 AM 4.93 40.874 10.522 7.77 2.51 12.01
4/23/2021 10:00:00 AM 4.98 40.964 10.452 7.79 2.2 12.16
4/23/2021 10:15:00 AM 5.05 41.09 11.887 7.82 2.18 12.24
4/23/2021 10:30:00 AM 5.21 41.378 10.378 7.85 2.04 12.52
4/23/2021 10:45:00 AM 5.38 41.684 10.444 7.89 2 12.69
4/23/2021 11:00:00 AM 5.57 42.026 10.437 7.92 2.03 12.87
4/23/2021 11:15:00 AM 5.78 42.404 10.45 7.97 2.12 13.06
4/23/2021 11:30:00 AM 6 42.8 0.33 8.02 2.07 13.72
4/23/2021 11:45:00 AM 6.24 43.232 0.362 8.07 1.97 13.89
4/23/2021 12:00:00 PM 6.48 43.664 0.36 8.12 2.03 14.05
4/23/2021 12:15:00 PM 6.75 44.15 10.477 8.16 1.94 13.65
4/23/2021 12:30:00 PM 7.04 44.672 10.502 8.2 1.95 13.78
4/23/2021 12:45:00 PM 7.34 45.212 10.38 8.25 1.96 13.87
4/23/2021 1:00:00 PM 7.65 45.77 10.263 8.3 2.02 13.99
4/23/2021 1:15:00 PM 7.97 46.346 10.795 8.35 2.42 14.05
4/23/2021 1:30:00 PM 8.29 46.922 10.401 8.4 2.01 14.15
4/23/2021 1:45:00 PM 8.62 47.516 10.255 8.44 2.1 14.23
4/23/2021 2:00:00 PM 8.93 48.074 10.231 8.49 2.06 14.29
4/23/2021 2:15:00 PM 9.22 48.596 10.334 8.52 3.25 14.3
4/23/2021 2:30:00 PM 9.5 49.1 10.371 8.56 1.98 14.33
4/23/2021 2:45:00 PM 9.75 49.55 10.349 8.59 3.16 14.34
4/23/2021 3:00:00 PM 9.99 49.982 10.428 8.62 1.87 14.33
4/23/2021 3:15:00 PM 10.2 50.36 10.473 8.65 3.01 14.32
4/23/2021 3:30:00 PM 10.4 50.72 0.36 8.69 2.16 14.82
4/23/2021 3:45:00 PM 10.59 51.062 11.097 8.69 1.97 14.23
4/23/2021 4:00:00 PM 10.74 51.332 0.359 8.73 1.85 14.75
4/23/2021 4:15:00 PM 10.87 51.566 10.846 8.73 1.99 14.16
4/23/2021 4:30:00 PM 10.99 51.782 11.232 8.74 2.32 14.07
4/23/2021 4:45:00 PM 11.08 51.944 10.777 8.75 2.29 14.04
4/23/2021 5:00:00 PM 11.15 52.07 0.364 8.78 2 14.5
4/23/2021 5:15:00 PM 11.2 52.16 10.916 8.77 4.27 13.87
4/23/2021 5:30:00 PM 11.24 52.232 11.017 8.77 1.99 13.76
4/23/2021 5:45:00 PM 11.23 52.214 12.695 8.78 1.97 13.52
4/23/2021 6:00:00 PM 11.25 52.25 0.365 8.77 1.95 14.04
4/23/2021 6:15:00 PM 11.26 52.268 10.74 8.76 2.16 13.41
4/23/2021 6:30:00 PM 11.26 52.268 12.559 8.77 2.09 13.19
4/23/2021 6:45:00 PM 11.27 52.286 11.281 8.75 1.96 13.14
4/23/2021 7:00:00 PM 11.23 52.214 10.925 8.73 2 12.95
4/23/2021 7:15:00 PM 11.19 52.142 11 8.7 1.86 12.75
4/23/2021 7:30:00 PM 11.16 52.088 11.074 8.68 1.82 12.57
4/23/2021 7:45:00 PM 11.13 52.034 0.36 8.66 1.92 12.86
4/23/2021 8:00:00 PM 11.09 51.962 10.597 8.61 1.86 12.19
4/23/2021 8:15:00 PM 11.04 51.872 10.703 8.56 1.87 11.97
4/23/2021 8:30:00 PM 10.99 51.782 10.705 8.52 1.98 11.76
4/23/2021 8:45:00 PM 10.94 51.692 10.672 8.47 1.92 11.55
4/23/2021 9:00:00 PM 10.88 51.584 0.365 8.44 2.02 11.8
4/23/2021 9:15:00 PM 10.82 51.476 11.139 8.36 2.08 11.15
4/23/2021 9:30:00 PM 10.76 51.368 11.052 8.31 2.27 10.96
4/23/2021 9:45:00 PM 10.7 51.26 11.068 8.24 2.41 10.79
4/23/2021 10:00:00 PM 10.64 51.152 0.37 8.21 2.37 11.06
4/23/2021 10:15:00 PM 10.58 51.044 10.961 8.13 2.4 10.49
4/23/2021 10:30:00 PM 10.52 50.936 11.084 8.07 2.4 10.34
4/23/2021 10:45:00 PM 10.45 50.81 0.371 8.05 2.32 10.62
4/23/2021 11:00:00 PM 10.39 50.702 0.371 8.01 2.41 10.51
4/23/2021 11:15:00 PM 10.33 50.594 13.929 7.96 2.42 9.87
4/23/2021 11:30:00 PM 10.27 50.486 10.866 7.89 2.46 9.9
4/23/2021 11:45:00 PM 10.2 50.36 10.94 7.85 2.37 9.8
4/24/2021 12:00:00 AM 10.13 50.234 0.386 7.85 2.22 10.1
4/24/2021 12:15:00 AM 10.07 50.126 0.378 7.83 2.35 10.02
4/24/2021 12:30:00 AM 10.01 50.018 0.247 7.8 2.49 9.95
4/24/2021 12:45:00 AM 9.95 49.91 10.893 7.73 2.32 9.51
4/24/2021 1:00:00 AM 9.88 49.784 10.956 7.72 2.31 9.46
4/24/2021 1:15:00 AM 9.82 49.676 10.845 7.7 2.35 9.42
4/24/2021 1:30:00 AM 9.75 49.55 10.841 7.69 2.3 9.39
4/24/2021 1:45:00 AM 9.68 49.424 10.863 7.67 2.34 9.37
4/24/2021 2:00:00 AM 9.61 49.298 10.812 7.66 2.37 9.36
4/24/2021 2:15:00 AM 9.54 49.172 10.848 7.65 2.44 9.35
4/24/2021 2:30:00 AM 9.46 49.028 10.773 7.64 2.32 9.35
4/24/2021 2:45:00 AM 9.39 48.902 10.71 7.64 2.49 9.35
4/24/2021 3:00:00 AM 9.31 48.758 10.822 7.63 2.79 9.35
4/24/2021 3:15:00 AM 9.23 48.614 10.752 7.62 2.52 9.34
4/24/2021 3:30:00 AM 9.15 48.47 10.862 7.62 2.6 9.35
4/24/2021 3:45:00 AM 9.08 48.344 10.947 7.62 2.31 9.35
4/24/2021 4:00:00 AM 9.01 48.218 10.76 7.62 2.47 9.37
4/24/2021 4:15:00 AM 8.94 48.092 10.812 7.61 2.39 9.38
4/24/2021 4:30:00 AM 8.86 47.948 10.748 7.61 2.4 9.4
4/24/2021 4:45:00 AM 8.79 47.822 0.318 7.63 2.32 9.78
4/24/2021 5:00:00 AM 8.72 47.696 11.272 7.61 2.4 9.4
4/24/2021 5:15:00 AM 8.65 47.57 11.261 7.6 2.32 9.41
4/24/2021 5:30:00 AM 8.59 47.462 11.411 7.6 2.36 9.42
4/24/2021 5:45:00 AM 8.52 47.336 10.906 7.59 2.35 9.45
4/24/2021 6:00:00 AM 8.45 47.21 10.846 7.59 2.3 9.47
4/24/2021 6:15:00 AM 8.38 47.084 10.835 7.59 2.42 9.5
4/24/2021 6:30:00 AM 8.32 46.976 10.924 7.6 3.52 9.53
4/24/2021 6:45:00 AM 8.25 46.85 10.85 7.59 3.84 9.58
4/24/2021 7:00:00 AM 8.19 46.742 10.812 7.6 5.77 9.65
4/24/2021 7:15:00 AM 8.13 46.634 10.983 7.6 2.36 9.71
4/24/2021 7:30:00 AM 8.08 46.544 10.827 7.61 2.5 9.81
4/24/2021 7:45:00 AM 8.03 46.454 10.873 7.62 2.57 9.91
4/24/2021 8:00:00 AM 7.99 46.382 11.456 7.64 2.5 10
4/24/2021 8:15:00 AM 7.95 46.31 10.939 7.64 2.57 10.14
4/24/2021 8:30:00 AM 7.93 46.274 0.221 7.67 2.72 10.7
4/24/2021 8:45:00 AM 7.91 46.238 10.973 7.67 2.79 10.42
4/24/2021 9:00:00 AM 7.9 46.22 11.231 7.7 2.73 10.58
4/24/2021 9:15:00 AM 7.91 46.238 0.385 7.75 2.61 11.21
4/24/2021 9:30:00 AM 7.95 46.31 0.299 7.78 2.45 11.42
4/24/2021 9:45:00 AM 8 46.4 10.978 7.78 2.42 11.16
4/24/2021 10:00:00 AM 8.05 46.49 0.392 7.84 2.37 11.79
4/24/2021 10:15:00 AM 8.12 46.616 11.307 7.84 2.41 11.53
4/24/2021 10:30:00 AM 8.24 46.832 11.094 7.88 2.38 11.76
4/24/2021 10:45:00 AM 8.41 47.138 11.103 7.93 2.58 12
4/24/2021 11:00:00 AM 8.59 47.462 11.092 7.97 2.08 12.22
4/24/2021 11:15:00 AM 8.78 47.804 11.12 8.03 2.09 12.44
4/24/2021 11:30:00 AM 8.99 48.182 11.047 8.08 2.11 12.67
4/24/2021 11:45:00 AM 9.22 48.596 11.077 8.14 2.15 12.86
4/24/2021 12:00:00 PM 9.46 49.028 11.067 8.2 1.97 13.08
4/24/2021 12:15:00 PM 9.67 49.406 11.04 8.26 1.95 13.25
4/24/2021 12:30:00 PM 9.93 49.874 11.107 8.32 2.05 13.43
4/24/2021 12:45:00 PM 10.21 50.378 10.957 8.37 2.26 13.6
4/24/2021 1:00:00 PM 10.48 50.864 10.973 8.43 1.92 13.75
4/24/2021 1:15:00 PM 10.77 51.386 10.66 8.49 2.03 13.91
4/24/2021 1:30:00 PM 11.05 51.89 10.864 8.54 1.98 14.02
4/24/2021 1:45:00 PM 11.34 52.412 11.086 8.58 1.94 14.13
4/24/2021 2:00:00 PM 11.6 52.88 10.72 8.63 1.99 14.25
4/24/2021 2:15:00 PM 11.84 53.312 10.751 8.67 2.1 14.31
4/24/2021 2:30:00 PM 12.04 53.672 10.827 8.71 2.04 14.36
4/24/2021 2:45:00 PM 12.23 54.014 10.835 8.74 2.02 14.4
4/24/2021 3:00:00 PM 12.39 54.302 0.374 8.77 2 14.97
4/24/2021 3:15:00 PM 12.52 54.536 11.326 8.79 1.95 14.41
4/24/2021 3:30:00 PM 12.65 54.77 11.171 8.82 1.98 14.45
4/24/2021 3:45:00 PM 12.75 54.95 11.996 8.84 1.99 14.38
4/24/2021 4:00:00 PM 12.83 55.094 11.493 8.86 2.09 14.4
4/24/2021 4:15:00 PM 12.88 55.184 10.997 8.87 2.21 14.38
4/24/2021 4:30:00 PM 12.93 55.274 10.778 8.89 2.08 14.36
4/24/2021 4:45:00 PM 12.96 55.328 11.191 8.9 2.06 14.26
4/24/2021 5:00:00 PM 12.97 55.346 11.201 8.9 2.25 14.16
4/24/2021 5:15:00 PM 12.97 55.346 0.012 8.9 2.01 14.59
4/24/2021 5:30:00 PM 12.97 55.346 11.254 8.91 2.14 13.91
4/24/2021 5:45:00 PM 12.96 55.328 11.024 8.9 2.09 13.78
4/24/2021 6:00:00 PM 12.93 55.274 0.382 8.92 2.07 14.15
4/24/2021 6:15:00 PM 12.9 55.22 0.382 8.91 2.2 13.99
4/24/2021 6:30:00 PM 12.87 55.166 12.246 8.88 2.16 13.21
4/24/2021 6:45:00 PM 12.83 55.094 11.283 8.85 2.17 13.08
4/24/2021 7:00:00 PM 12.78 55.004 11.277 8.84 2.04 12.89
4/24/2021 7:15:00 PM 12.73 54.914 0.363 8.81 2.04 12.66
4/24/2021 7:30:00 PM 12.67 54.806 11.281 8.78 2.18 12.41
4/24/2021 7:45:00 PM 12.61 54.698 11.297 8.75 2.18 12.17
4/24/2021 8:00:00 PM 12.54 54.572 0.384 8.74 2.16 12.41
4/24/2021 8:15:00 PM 12.48 54.464 0.384 8.7 1.97 12.16
4/24/2021 8:30:00 PM 12.43 54.374 11.468 8.64 2.07 11.46
4/24/2021 8:45:00 PM 12.37 54.266 11.287 8.59 2.15 11.25
4/24/2021 9:00:00 PM 12.32 54.176 11.465 8.55 2.2 11.02
4/24/2021 9:15:00 PM 12.27 54.086 11.459 8.5 2.19 10.81
4/24/2021 9:30:00 PM 12.22 53.996 11.458 8.44 2.38 10.61
4/24/2021 9:45:00 PM 12.18 53.924 11.203 8.38 2.33 10.44
4/24/2021 10:00:00 PM 12.13 53.834 11.085 8.32 2.36 10.26
4/24/2021 10:15:00 PM 12.09 53.762 11.195 8.27 2.36 10.09
4/24/2021 10:30:00 PM 12.05 53.69 0.391 8.22 2.35 10.33
4/24/2021 10:45:00 PM 12.01 53.618 12.01 8.14 2.48 9.76
4/24/2021 11:00:00 PM 11.97 53.546 11.42 8.08 2.4 9.65
4/24/2021 11:15:00 PM 11.92 53.456 0.391 8.05 2.44 9.92
4/24/2021 11:30:00 PM 11.89 53.402 11.096 7.98 2.35 9.42
4/24/2021 11:45:00 PM 11.85 53.33 11.101 7.94 2.5 9.32
4/25/2021 12:00:00 AM 11.81 53.258 11.155 7.9 2.38 9.22
4/25/2021 12:15:00 AM 11.77 53.186 0.398 7.88 2.49 9.49
4/25/2021 12:30:00 AM 11.73 53.114 11.325 7.83 2.44 9.04
4/25/2021 12:45:00 AM 11.69 53.042 11.268 7.79 2.34 8.97
4/25/2021 1:00:00 AM 11.65 52.97 0.413 7.79 2.51 9.26
4/25/2021 1:15:00 AM 11.61 52.898 11.42 7.75 2.35 8.85
4/25/2021 1:30:00 AM 11.58 52.844 11.463 7.73 2.37 8.8
4/25/2021 1:45:00 AM 11.55 52.79 11.546 7.71 2.54 8.75
4/25/2021 2:00:00 AM 11.52 52.736 11.489 7.69 2.65 8.72
4/25/2021 2:15:00 AM 11.49 52.682 11.376 7.68 2.6 8.7
4/25/2021 2:30:00 AM 11.45 52.61 11.238 7.66 2.45 8.68
4/25/2021 2:45:00 AM 11.41 52.538 0.395 7.67 2.49 9.01
4/25/2021 3:00:00 AM 11.38 52.484 0.398 7.66 2.49 8.99
4/25/2021 3:15:00 AM 11.35 52.43 11.249 7.63 2.44 8.63
4/25/2021 3:30:00 AM 11.31 52.358 11.495 7.63 2.4 8.62
4/25/2021 3:45:00 AM 11.27 52.286 11.335 7.62 2.39 8.61
4/25/2021 4:00:00 AM 11.23 52.214 11.339 7.62 2.33 8.61
4/25/2021 4:15:00 AM 11.19 52.142 11.366 7.61 2.39 8.61
4/25/2021 4:30:00 AM 11.15 52.07 11.358 7.61 2.31 8.6
4/25/2021 4:45:00 AM 11.1 51.98 0.417 7.62 2.35 8.95
4/25/2021 5:00:00 AM 11.07 51.926 11.333 7.6 2.42 8.6
4/25/2021 5:15:00 AM 11.03 51.854 11.197 7.6 2.45 8.61
4/25/2021 5:30:00 AM 10.99 51.782 11.324 7.59 2.38 8.61
4/25/2021 5:45:00 AM 10.94 51.692 13.324 7.6 2.95 8.55
4/25/2021 6:00:00 AM 10.91 51.638 11.641 7.59 2.41 8.61
4/25/2021 6:15:00 AM 10.87 51.566 11.618 7.59 2.53 8.62
4/25/2021 6:30:00 AM 10.83 51.494 11.606 7.59 2.43 8.64
4/25/2021 6:45:00 AM 10.8 51.44 11.557 7.58 2.52 8.66
4/25/2021 7:00:00 AM 10.76 51.368 0.402 7.61 2.51 9.07
4/25/2021 7:15:00 AM 10.73 51.314 11.652 7.59 2.83 8.76
4/25/2021 7:30:00 AM 10.7 51.26 0.413 7.62 7.71 9.21
4/25/2021 7:45:00 AM 10.68 51.224 11.506 7.61 4.28 8.94
4/25/2021 8:00:00 AM 10.65 51.17 11.226 7.61 6.8 9.02
4/25/2021 8:15:00 AM 10.62 51.116 11.274 7.62 2.61 9.09
4/25/2021 8:30:00 AM 10.6 51.08 11.689 7.64 6.3 9.16
4/25/2021 8:45:00 AM 10.58 51.044 11.498 7.65 2.47 9.3
4/25/2021 9:00:00 AM 10.57 51.026 0.408 7.68 2.38 9.87
4/25/2021 9:15:00 AM 10.57 51.026 11.651 7.7 2.12 9.7
4/25/2021 9:30:00 AM 10.59 51.062 11.518 7.72 2.16 9.95
4/25/2021 9:45:00 AM 10.64 51.152 11.952 7.77 2.23 10.2
4/25/2021 10:00:00 AM 10.7 51.26 11.497 7.8 4.5 10.46
4/25/2021 10:15:00 AM 10.81 51.458 11.522 7.84 2.1 10.72
4/25/2021 10:30:00 AM 10.95 51.71 11.485 7.88 2.19 10.98
4/25/2021 10:45:00 AM 11 51.8 11.205 7.93 2.12 11.21
4/25/2021 11:00:00 AM 11.03 51.854 11.498 7.98 3.95 11.43
4/25/2021 11:15:00 AM 11.02 51.836 11.16 8.02 4.91 11.6
4/25/2021 11:30:00 AM 11.05 51.89 11.203 8.08 4.26 11.86
4/25/2021 11:45:00 AM 11.11 51.998 11.223 8.14 4.09 12.11
4/25/2021 12:00:00 PM 11.13 52.034 11.194 8.19 2.16 12.27
4/25/2021 12:15:00 PM 11.19 52.142 11.225 8.24 4.05 12.45
4/25/2021 12:30:00 PM 11.22 52.196 11.846 8.3 5.37 12.57
4/25/2021 12:45:00 PM 11.23 52.214 11.635 8.32 1.99 13.16
4/25/2021 1:00:00 PM 11.24 52.232 11.361 8.36 1.95 12.76
4/25/2021 1:15:00 PM 11.24 52.232 12.347 8.4 2.07 12.84
4/25/2021 1:30:00 PM 11.22 52.196 13.728 8.44 1.95 12.83
4/25/2021 1:45:00 PM 11.2 52.16 11.857 8.45 2.04 12.96
4/25/2021 2:00:00 PM 11.2 52.16 0.409 8.52 2.01 13.63
4/25/2021 2:15:00 PM 11.3 52.34 0.409 8.55 2.33 13.72
4/25/2021 2:30:00 PM 11.52 52.736 12.286 8.57 2.05 13.28
4/25/2021 2:45:00 PM 11.48 52.664 11.919 8.59 2.16 13.28
4/25/2021 3:00:00 PM 11.49 52.682 11.745 8.61 4.67 13.3
4/25/2021 3:15:00 PM 11.51 52.718 11.68 8.64 2.18 13.35
4/25/2021 3:30:00 PM 11.53 52.754 0.399 8.68 4.89 13.94
4/25/2021 3:45:00 PM 11.63 52.934 11.501 8.69 4.91 13.48
4/25/2021 4:00:00 PM 11.69 53.042 11.541 8.71 4.1 13.48
4/25/2021 4:15:00 PM 11.71 53.078 11.364 8.72 3.87 13.48
4/25/2021 4:30:00 PM 11.8 53.24 0.411 8.78 4.59 14.08
4/25/2021 4:45:00 PM 11.86 53.348 11.392 8.76 4.85 13.5
4/25/2021 5:00:00 PM 11.86 53.348 11.362 8.77 13.1 13.49
4/25/2021 5:15:00 PM 11.89 53.402 11.294 8.78 8.81 13.47
4/25/2021 5:30:00 PM 11.86 53.348 11.223 8.78 11.44 13.44
4/25/2021 5:45:00 PM 11.85 53.33 11.107 8.79 2.17 13.44
4/25/2021 6:00:00 PM 11.83 53.294 13.742 8.81 2.24 13.26
4/25/2021 6:15:00 PM 11.81 53.258 13.378 8.81 2.26 13.23
4/25/2021 6:30:00 PM 11.79 53.222 11.478 8.78 2.33 13.26
4/25/2021 6:45:00 PM 11.76 53.168 11.456 8.77 2.43 13.16
4/25/2021 7:00:00 PM 11.73 53.114 11.564 8.77 2.25 13.05
4/25/2021 7:15:00 PM 11.68 53.024 11.755 8.75 2.17 12.91
4/25/2021 7:30:00 PM 11.63 52.934 11.653 8.73 7.26 12.76
4/25/2021 7:45:00 PM 11.58 52.844 11.616 8.71 2.45 12.6
4/25/2021 8:00:00 PM 11.52 52.736 0.404 8.69 2.28 12.93
4/25/2021 8:15:00 PM 11.46 52.628 0.414 8.67 2.33 12.72
4/25/2021 8:30:00 PM 11.38 52.484 11.412 8.62 2.35 12
4/25/2021 8:45:00 PM 11.3 52.34 11.413 8.58 2.4 11.78
4/25/2021 9:00:00 PM 11.24 52.232 11.365 8.54 2.35 11.58
4/25/2021 9:15:00 PM 11.17 52.106 0.376 8.5 2.28 11.83
4/25/2021 9:30:00 PM 11.11 51.998 11.561 8.44 2.34 11.16
4/25/2021 9:45:00 PM 11.04 51.872 11.422 8.39 2.38 10.96
4/25/2021 10:00:00 PM 10.93 51.674 11.839 8.33 2.45 10.76
4/25/2021 10:15:00 PM 10.81 51.458 12.642 8.28 2.45 10.55
4/25/2021 10:30:00 PM 10.69 51.242 10.797 8.21 2.32 10.48
4/25/2021 10:45:00 PM 10.58 51.044 10.774 8.15 2.43 10.33
4/25/2021 11:00:00 PM 10.48 50.864 0.395 8.12 2.31 10.59
4/25/2021 11:15:00 PM 10.37 50.666 11.899 8.05 2.34 10.03
4/25/2021 11:30:00 PM 10.26 50.468 11.388 8 2.55 9.94
4/25/2021 11:45:00 PM 10.13 50.234 11.377 7.95 2.43 9.84
4/26/2021 12:00:00 AM 10.01 50.018 10.975 7.92 2.4 9.76
4/26/2021 12:15:00 AM 9.9 49.82 11.209 7.88 2.44 9.67
4/26/2021 12:30:00 AM 9.79 49.622 11.36 7.84 2.4 9.59
4/26/2021 12:45:00 AM 9.7 49.46 11.359 7.82 2.56 9.53
4/26/2021 1:00:00 AM 9.61 49.298 12.811 7.8 2.57 9.43
4/26/2021 1:15:00 AM 9.54 49.172 0.393 7.79 2.38 9.82
4/26/2021 1:30:00 AM 9.47 49.046 11.365 7.75 2.51 9.39
4/26/2021 1:45:00 AM 9.4 48.92 11.374 7.73 2.47 9.36
4/26/2021 2:00:00 AM 9.31 48.758 0.385 7.73 2.38 9.72
4/26/2021 2:15:00 AM 9.21 48.578 13.192 7.71 2.49 9.26
4/26/2021 2:30:00 AM 9.14 48.452 0.397 7.71 2.38 9.71
4/26/2021 2:45:00 AM 9.07 48.326 12.983 7.69 2.43 9.26
4/26/2021 3:00:00 AM 9 48.2 11.36 7.68 2.31 9.32
4/26/2021 3:15:00 AM 8.92 48.056 11.568 7.67 2.41 9.32
4/26/2021 3:30:00 AM 8.85 47.93 11.439 7.66 2.58 9.33
4/26/2021 3:45:00 AM 8.78 47.804 11.439 7.65 2.56 9.33
4/26/2021 4:00:00 AM 8.7 47.66 11.475 7.65 2.56 9.35
4/26/2021 4:15:00 AM 8.62 47.516 11.515 7.64 2.46 9.37
4/26/2021 4:30:00 AM 8.55 47.39 11.385 7.64 2.56 9.38
4/26/2021 4:45:00 AM 8.48 47.264 11.453 7.64 2.45 9.39
4/26/2021 5:00:00 AM 8.41 47.138 11.63 7.63 2.38 9.4
4/26/2021 5:15:00 AM 8.34 47.012 11.491 7.63 2.44 9.43
4/26/2021 5:30:00 AM 8.26 46.868 12.961 7.64 2.34 9.37
4/26/2021 5:45:00 AM 8.21 46.778 11.229 7.63 2.36 9.46
4/26/2021 6:00:00 AM 8.14 46.652 11.4 7.63 2.31 9.46
4/26/2021 6:15:00 AM 8.08 46.544 11.329 7.62 2.35 9.48
4/26/2021 6:30:00 AM 8.02 46.436 11.51 7.62 2.31 9.52
4/26/2021 6:45:00 AM 7.97 46.346 11.443 7.63 2.22 9.56
4/26/2021 7:00:00 AM 7.93 46.274 11.458 7.63 2.32 9.62
4/26/2021 7:15:00 AM 7.88 46.184 12.674 7.64 8.38 9.7
4/26/2021 7:30:00 AM 7.84 46.112 12.314 7.65 2.4 9.77
4/26/2021 7:45:00 AM 7.8 46.04 11.451 7.66 2.49 9.94
4/26/2021 8:00:00 AM 7.78 46.004 11.433 7.67 2.31 10.08
4/26/2021 8:15:00 AM 7.76 45.968 11.341 7.69 2.32 10.25
4/26/2021 8:30:00 AM 7.75 45.95 11.375 7.71 2.38 10.43
4/26/2021 8:45:00 AM 7.74 45.932 11.45 7.73 3.52 10.63
4/26/2021 9:00:00 AM 7.76 45.968 11.487 7.76 2.59 10.85
4/26/2021 9:15:00 AM 7.78 46.004 11.455 7.79 2.6 11.07
4/26/2021 9:30:00 AM 7.83 46.094 11.486 7.82 2.48 11.29
4/26/2021 9:45:00 AM 7.88 46.184 11.534 7.86 2.54 11.52
4/26/2021 10:00:00 AM 7.9 46.22 11.416 7.9 2.08 11.72
4/26/2021 10:15:00 AM 7.94 46.292 0.318 7.95 2.19 12.43
4/26/2021 10:30:00 AM 8.04 46.472 0.399 7.99 2.06 12.66
4/26/2021 10:45:00 AM 8.13 46.634 0.393 8.01 2.12 12.86
4/26/2021 11:00:00 AM 8.27 46.886 0.414 8.07 2.04 13.07
4/26/2021 11:15:00 AM 8.43 47.174 0.397 8.1 2.01 13.25
4/26/2021 11:30:00 AM 8.59 47.462 11.539 8.14 1.92 12.88
4/26/2021 11:45:00 AM 8.77 47.786 11.56 8.19 1.98 13.06
4/26/2021 12:00:00 PM 8.98 48.164 11.441 8.24 1.99 13.26
4/26/2021 12:15:00 PM 9.21 48.578 11.501 8.29 1.96 13.42
4/26/2021 12:30:00 PM 9.44 48.992 11.568 8.33 1.96 13.57
4/26/2021 12:45:00 PM 9.69 49.442 11.312 8.38 2.01 13.73
4/26/2021 1:00:00 PM 9.94 49.892 11.493 8.43 1.96 13.87
4/26/2021 1:15:00 PM 10.21 50.378 11.474 8.48 2 14.02
4/26/2021 1:30:00 PM 10.49 50.882 11.612 8.51 1.9 14.13
4/26/2021 1:45:00 PM 10.75 51.35 11.726 8.56 1.98 14.23
4/26/2021 2:00:00 PM 11.03 51.854 11.529 8.6 1.96 14.35
4/26/2021 2:15:00 PM 11.29 52.322 11.579 8.63 2.09 14.42
4/26/2021 2:30:00 PM 11.55 52.79 11.587 8.67 2.16 14.47
4/26/2021 2:45:00 PM 11.78 53.204 11.608 8.7 1.94 14.5
4/26/2021 3:00:00 PM 12.01 53.618 11.766 8.73 2.03 14.52
4/26/2021 3:15:00 PM 12.23 54.014 11.443 8.75 1.99 14.53
4/26/2021 3:30:00 PM 12.42 54.356 12.764 8.78 2 14.47
4/26/2021 3:45:00 PM 12.6 54.68 11.592 8.79 1.97 14.53
4/26/2021 4:00:00 PM 12.75 54.95 0.393 8.81 4.58 15.09
4/26/2021 4:15:00 PM 12.86 55.148 11.931 8.82 6.09 14.42
4/26/2021 4:30:00 PM 12.94 55.292 11.469 8.83 1.98 14.37
4/26/2021 4:45:00 PM 13 55.4 11.515 8.84 2.03 14.3
4/26/2021 5:00:00 PM 13.04 55.472 11.326 8.85 1.92 14.25
4/26/2021 5:15:00 PM 13.06 55.508 11.514 8.85 1.89 14.15
4/26/2021 5:30:00 PM 13.08 55.544 11.579 8.85 1.96 14.04
4/26/2021 5:45:00 PM 13.07 55.526 11.599 8.85 1.87 13.93
4/26/2021 6:00:00 PM 13.05 55.49 11.517 8.85 1.87 13.8
4/26/2021 6:15:00 PM 13.01 55.418 10.902 8.85 1.97 13.68
4/26/2021 6:30:00 PM 12.96 55.328 11.51 8.84 2.55 13.47
4/26/2021 6:45:00 PM 12.9 55.22 0.405 8.85 2.05 13.85
4/26/2021 7:00:00 PM 12.83 55.094 11.617 8.82 1.96 13.13
4/26/2021 7:15:00 PM 12.75 54.95 12.124 8.8 2.11 12.91
4/26/2021 7:30:00 PM 12.68 54.824 11.505 8.78 2.05 12.73
4/26/2021 7:45:00 PM 12.6 54.68 11.706 8.75 2.03 12.5
4/26/2021 8:00:00 PM 12.52 54.536 11.746 8.72 1.99 12.26
4/26/2021 8:15:00 PM 12.43 54.374 11.682 8.69 2.07 12.03
4/26/2021 8:30:00 PM 12.34 54.212 11.637 8.66 1.98 11.81
4/26/2021 8:45:00 PM 12.25 54.05 11.794 8.61 2.05 11.55
4/26/2021 9:00:00 PM 12.15 53.87 11.765 8.57 2 11.35
4/26/2021 9:15:00 PM 12.06 53.708 11.843 8.53 2.19 11.13
4/26/2021 9:30:00 PM 11.96 53.528 11.767 8.48 2.21 10.94
4/26/2021 9:45:00 PM 11.86 53.348 11.697 8.43 2.21 10.75
4/26/2021 10:00:00 PM 11.75 53.15 11.51 8.38 2.15 10.58
4/26/2021 10:15:00 PM 11.65 52.97 0.418 8.35 2.21 10.83
4/26/2021 10:30:00 PM 11.56 52.808 12.144 8.27 2.34 10.2
4/26/2021 10:45:00 PM 11.46 52.628 12.489 8.22 2.45 10.04
4/26/2021 11:00:00 PM 11.36 52.448 12.002 8.16 2.51 9.92
4/26/2021 11:15:00 PM 11.27 52.286 0.416 8.13 2.52 10.21
4/26/2021 11:30:00 PM 11.17 52.106 11.948 8.07 2.58 9.67
4/26/2021 11:45:00 PM 11.08 51.944 11.764 8.02 2.51 9.57
4/27/2021 12:00:00 AM 10.98 51.764 11.955 7.98 2.41 9.47
4/27/2021 12:15:00 AM 10.89 51.602 0.411 7.97 2.49 9.79
4/27/2021 12:30:00 AM 10.81 51.458 0.411 7.93 2.51 9.7
4/27/2021 12:45:00 AM 10.74 51.332 0.411 7.9 2.37 9.62
4/27/2021 1:00:00 AM 10.67 51.206 0.411 7.87 2.4 9.54
4/27/2021 1:15:00 AM 10.61 51.098 0.411 7.84 2.34 9.47
4/27/2021 1:30:00 AM 10.54 50.972 0.411 7.82 2.44 9.43
4/27/2021 1:45:00 AM 10.48 50.864 0.412 7.79 2.48 9.38
4/27/2021 2:00:00 AM 10.42 50.756 0.411 7.78 2.43 9.35
4/27/2021 2:15:00 AM 10.36 50.648 0.411 7.76 2.46 9.31
4/27/2021 2:30:00 AM 10.3 50.54 0.412 7.74 2.34 9.29
4/27/2021 2:45:00 AM 10.24 50.432 0.412 7.73 2.38 9.27
4/27/2021 3:00:00 AM 10.18 50.324 0.412 7.72 2.43 9.26
4/27/2021 3:15:00 AM 10.12 50.216 0.412 7.71 2.35 9.24
4/27/2021 3:30:00 AM 10.06 50.108 0.413 7.7 2.39 9.24
4/27/2021 3:45:00 AM 9.99 49.982 0.419 7.69 2.39 9.23
4/27/2021 4:00:00 AM 9.93 49.874 13.08 7.66 2.51 8.81
4/27/2021 4:15:00 AM 9.87 49.766 13.545 7.66 2.49 8.8
4/27/2021 4:30:00 AM 9.81 49.658 13.265 7.65 2.61 8.82
4/27/2021 4:45:00 AM 9.75 49.55 12.661 7.65 2.57 8.85
4/27/2021 5:00:00 AM 9.69 49.442 0.42 7.65 2.42 9.26
4/27/2021 5:15:00 AM 9.62 49.316 0.421 7.66 2.62 9.27
4/27/2021 5:30:00 AM 9.56 49.208 0.422 7.65 2.7 9.29
4/27/2021 5:45:00 AM 9.5 49.1 12.406 7.63 2.65 8.9
4/27/2021 6:00:00 AM 9.44 48.992 14.932 7.64 2.5 9.32
4/27/2021 6:15:00 AM 9.39 48.902 0.408 7.63 2.5 8.93
4/27/2021 6:30:00 AM 9.35 48.83 12.279 7.63 2.45 8.95
4/27/2021 6:45:00 AM 9.31 48.758 12.289 7.63 2.34 8.98
4/27/2021 7:00:00 AM 9.28 48.704 13.601 7.64 10.98 8.98
4/27/2021 7:15:00 AM 9.25 48.65 12.161 7.63 5.34 9.1
4/27/2021 7:30:00 AM 9.22 48.596 0.433 7.66 2.68 9.6
4/27/2021 7:45:00 AM 9.19 48.542 12.422 7.65 2.57 9.29
4/27/2021 8:00:00 AM 9.17 48.506 12.204 7.66 2.41 9.43
4/27/2021 8:15:00 AM 9.15 48.47 12.25 7.68 2.3 9.56
4/27/2021 8:30:00 AM 9.13 48.434 12.194 7.69 2.27 9.77
4/27/2021 8:45:00 AM 9.09 48.362 12.141 7.71 2.27 9.92
4/27/2021 9:00:00 AM 9.06 48.308 12.102 7.73 2.35 10.07
4/27/2021 9:15:00 AM 9.05 48.29 15.684 7.77 2.5 10.1
4/27/2021 9:30:00 AM 9.1 48.38 12.229 7.78 2.44 10.45
4/27/2021 9:45:00 AM 9.15 48.47 12.273 7.8 2.52 10.67
4/27/2021 10:00:00 AM 9.2 48.56 0.432 7.84 2.54 11.34
4/27/2021 10:15:00 AM 9.27 48.686 12.443 7.86 2.56 11.07
4/27/2021 10:30:00 AM 9.39 48.902 0.264 7.9 2.78 11.85
4/27/2021 10:45:00 AM 9.52 49.136 12.309 7.94 2.29 11.56
4/27/2021 11:00:00 AM 9.68 49.424 12.191 7.98 2.12 11.81
4/27/2021 11:15:00 AM 9.89 49.802 12.164 8.03 2.17 12.06
4/27/2021 11:30:00 AM -99999.99 -179968 -99999.99 -99999.99 -99999.99 -99999.99
4/27/2021 11:45:00 AM 10.32 50.576 11.943 8.11 4.42 12.51
4/27/2021 12:00:00 PM 10.86 51.548 0.433 7.95 3.35 13
4/27/2021 12:15:00 PM 10.78 51.404 0.433 8.08 2.15 13.48
4/27/2021 12:30:00 PM 11.05 51.89 0.433 8.14 2.05 13.71
4/27/2021 12:45:00 PM 11.33 52.394 0.433 8.2 2.1 13.91
4/27/2021 1:00:00 PM 11.61 52.898 0.433 8.26 2.06 14.13
4/27/2021 1:15:00 PM 11.9 53.42 0.433 8.31 2.01 14.32
4/27/2021 1:30:00 PM 12.2 53.96 0.433 8.36 2.07 14.5
4/27/2021 1:45:00 PM 12.51 54.518 0.433 8.4 2 14.66
4/27/2021 2:00:00 PM 12.81 55.058 0.433 8.45 2.1 14.79
4/27/2021 2:15:00 PM 13.1 55.58 0.433 8.5 2.07 14.94
4/27/2021 2:30:00 PM 13.39 56.102 0.434 8.53 2.03 15.03
4/27/2021 2:45:00 PM 13.64 56.552 0.434 8.57 2.12 15.13
4/27/2021 3:00:00 PM 13.9 57.02 0.433 8.61 2.08 15.18
4/27/2021 3:15:00 PM 14.14 57.452 0.433 8.63 2.19 15.23
4/27/2021 3:30:00 PM 14.36 57.848 0.432 8.66 2.16 15.26
4/27/2021 3:45:00 PM 14.56 58.208 0.432 8.69 2.01 15.25
4/27/2021 4:00:00 PM 14.75 58.55 0.431 8.71 2.07 15.24
4/27/2021 4:15:00 PM 14.91 58.838 0.43 8.73 2.02 15.23
4/27/2021 4:30:00 PM 15.03 59.054 0.429 8.74 2.02 15.16
4/27/2021 4:45:00 PM 15.12 59.216 0.429 8.75 2.07 15.05
4/27/2021 5:00:00 PM 15.22 59.396 0.428 8.76 2.08 14.97
4/27/2021 5:15:00 PM 15.3 59.54 0.427 8.76 2.25 14.86
4/27/2021 5:30:00 PM 15.37 59.666 0.427 8.77 2.12 14.74
4/27/2021 5:45:00 PM 15.41 59.738 0.426 8.77 2.17 14.61
4/27/2021 6:00:00 PM 15.43 59.774 0.426 8.77 2.17 14.47
4/27/2021 6:15:00 PM 15.44 59.792 0.426 8.76 2.08 14.26
4/27/2021 6:30:00 PM 15.43 59.774 0.426 8.76 2.08 14.09
4/27/2021 6:45:00 PM 15.42 59.756 0.425 8.75 2.09 13.86
4/27/2021 7:00:00 PM 15.4 59.72 0.425 8.73 2.08 13.63
4/27/2021 7:15:00 PM 15.38 59.684 0.425 8.72 2.08 13.36
4/27/2021 7:30:00 PM 15.34 59.612 0.426 8.69 2.15 13.09
4/27/2021 7:45:00 PM 15.3 59.54 0.426 8.67 2.22 12.79
4/27/2021 8:00:00 PM 15.26 59.468 0.426 8.64 2.24 12.49
4/27/2021 8:15:00 PM 15.21 59.378 0.427 8.6 2.25 12.17
4/27/2021 8:30:00 PM 15.15 59.27 0.427 8.57 2.23 11.89
4/27/2021 8:45:00 PM 15.08 59.144 0.427 8.53 2.12 11.59
4/27/2021 9:00:00 PM 15.01 59.018 0.427 8.49 2.23 11.32
4/27/2021 9:15:00 PM 14.94 58.892 0.428 8.45 2.23 11.05
4/27/2021 9:30:00 PM 14.86 58.748 0.428 8.4 2.26 10.79
4/27/2021 9:45:00 PM 14.79 58.622 0.428 8.35 2.28 10.55
4/27/2021 10:00:00 PM 14.71 58.478 0.429 8.3 2.26 10.32
4/27/2021 10:15:00 PM 14.63 58.334 0.429 8.25 2.33 10.1
4/27/2021 10:30:00 PM 14.56 58.208 0.43 8.2 2.33 9.91
4/27/2021 10:45:00 PM 14.47 58.046 0.431 8.14 2.37 9.73
4/27/2021 11:00:00 PM 14.4 57.92 0.431 8.09 2.19 9.55
4/27/2021 11:15:00 PM 14.34 57.812 0.432 8.03 2.26 9.39
4/27/2021 11:30:00 PM 14.28 57.704 0.432 7.99 2.34 9.25
4/27/2021 11:45:00 PM 14.22 57.596 0.433 7.94 2.24 9.11
4/28/2021 12:00:00 AM 14.15 57.47 0.433 7.89 2.27 8.97
4/28/2021 12:15:00 AM 14.07 57.326 0.433 7.85 2.33 8.84
4/28/2021 12:30:00 AM 14.01 57.218 0.434 7.81 2.29 8.71
4/28/2021 12:45:00 AM 13.93 57.074 0.434 7.77 2.32 8.61
4/28/2021 1:00:00 AM 13.86 56.948 0.435 7.74 2.32 8.52
4/28/2021 1:15:00 AM 13.79 56.822 0.435 7.71 2.35 8.44
4/28/2021 1:30:00 AM 13.72 56.696 0.435 7.68 2.39 8.38
4/28/2021 1:45:00 AM 13.65 56.57 0.436 7.65 2.46 8.31
4/28/2021 2:00:00 AM 13.58 56.444 0.436 7.63 2.38 8.26
4/28/2021 2:15:00 AM 13.52 56.336 0.436 7.61 2.36 8.21
4/28/2021 2:30:00 AM 13.45 56.21 0.437 7.59 2.46 8.18
4/28/2021 2:45:00 AM 13.39 56.102 0.437 7.57 2.41 8.15
4/28/2021 3:00:00 AM 13.32 55.976 0.437 7.56 2.44 8.13
4/28/2021 3:15:00 AM 13.25 55.85 0.438 7.55 2.42 8.12
4/28/2021 3:30:00 AM 13.17 55.706 0.438 7.54 2.39 8.11
4/28/2021 3:45:00 AM 13.09 55.562 0.438 7.53 2.53 8.1
4/28/2021 4:00:00 AM 13.01 55.418 0.438 7.52 2.69 8.1
4/28/2021 4:15:00 AM 12.94 55.292 0.438 7.51 2.51 8.1
4/28/2021 4:30:00 AM 12.87 55.166 0.439 7.51 2.57 8.11
4/28/2021 4:45:00 AM 12.8 55.04 0.439 7.5 2.47 8.13
4/28/2021 5:00:00 AM 12.72 54.896 0.439 7.5 2.53 8.12
4/28/2021 5:15:00 AM 12.65 54.77 0.439 7.49 2.52 8.13
4/28/2021 5:30:00 AM 12.58 54.644 0.44 7.49 2.66 8.14
4/28/2021 5:45:00 AM 12.51 54.518 0.441 7.49 2.58 8.15
4/28/2021 6:00:00 AM 12.44 54.392 0.441 7.48 2.59 8.16
4/28/2021 6:15:00 AM 12.38 54.284 0.442 7.48 2.56 8.17
4/28/2021 6:30:00 AM 12.32 54.176 0.443 7.48 2.69 8.21
4/28/2021 6:45:00 AM 12.27 54.086 0.444 7.48 2.64 8.26
4/28/2021 7:00:00 AM 12.22 53.996 0.444 7.49 2.51 8.34
4/28/2021 7:15:00 AM 12.18 53.924 0.445 7.5 2.57 8.43
4/28/2021 7:30:00 AM 12.14 53.852 0.445 7.5 2.56 8.54
4/28/2021 7:45:00 AM 12.1 53.78 0.446 7.51 2.5 8.69
4/28/2021 8:00:00 AM 12.07 53.726 0.446 7.53 2.67 8.84
4/28/2021 8:15:00 AM 12.05 53.69 0.446 7.54 2.43 9.02
4/28/2021 8:30:00 AM 12.03 53.654 0.446 7.56 2.4 9.22
4/28/2021 8:45:00 AM 12.04 53.672 0.446 7.58 2.49 9.47
4/28/2021 9:00:00 AM 12.06 53.708 0.446 7.61 2.47 9.72
4/28/2021 9:15:00 AM 12.07 53.726 0.446 7.63 2.53 9.97
4/28/2021 9:30:00 AM 12.1 53.78 0.446 7.66 2.57 10.24
4/28/2021 9:45:00 AM 12.14 53.852 0.446 7.69 2.89 10.48
4/28/2021 10:00:00 AM 12.19 53.942 0.446 7.72 2.97 10.73
4/28/2021 10:15:00 AM 12.31 54.158 0.446 7.76 3.03 11.02
4/28/2021 10:30:00 AM 12.45 54.41 0.445 7.81 3.03 11.34
4/28/2021 10:45:00 AM 12.58 54.644 0.445 7.86 2.76 11.65
4/28/2021 11:00:00 AM 12.76 54.968 0.445 7.91 2.6 11.96
4/28/2021 11:15:00 AM 12.91 55.238 0.445 7.96 2.46 12.26
4/28/2021 11:30:00 AM 13.1 55.58 0.445 8.02 2.57 12.53
4/28/2021 11:45:00 AM 13.26 55.868 0.444 8.07 2.38 12.79
4/28/2021 12:00:00 PM 13.35 56.03 0.444 8.12 2.43 12.99
4/28/2021 12:15:00 PM 13.63 56.534 0.444 8.16 2.44 13.24
4/28/2021 12:30:00 PM 13.93 57.074 0.444 8.22 2.45 13.47
4/28/2021 12:45:00 PM 14.16 57.488 0.444 8.26 2.45 13.68
4/28/2021 1:00:00 PM 14.17 57.506 0.444 8.29 2.51 13.73
4/28/2021 1:15:00 PM 14.29 57.722 0.444 8.34 4.18 13.93
4/28/2021 1:30:00 PM 14.38 57.884 0.444 8.38 2.37 14.06
4/28/2021 1:45:00 PM 14.47 58.046 0.444 8.41 2.35 14.14
4/28/2021 2:00:00 PM 14.55 58.19 0.444 8.45 2.3 14.16
4/28/2021 2:15:00 PM 14.62 58.316 0.445 8.47 2.39 14.14
4/28/2021 2:30:00 PM 14.71 58.478 0.445 8.48 2.48 14.13
4/28/2021 2:45:00 PM 14.83 58.694 0.445 8.52 2.58 14.2
4/28/2021 3:00:00 PM 14.92 58.856 0.446 8.54 2.45 14.18
4/28/2021 3:15:00 PM 14.98 58.964 0.446 8.55 2.59 14.11
4/28/2021 3:30:00 PM 15.05 59.09 0.446 8.56 2.63 14.09
4/28/2021 3:45:00 PM 15.18 59.324 0.446 8.58 2.5 14.13
4/28/2021 4:00:00 PM 15.26 59.468 0.446 8.6 2.5 14.14
4/28/2021 4:15:00 PM 15.3 59.54 0.446 8.61 2.46 14.09
4/28/2021 4:30:00 PM 15.32 59.576 0.446 8.61 2.63 13.93
4/28/2021 4:45:00 PM 15.35 59.63 0.445 8.61 2.55 13.77
4/28/2021 5:00:00 PM 15.39 59.702 0.445 8.6 2.6 13.58
4/28/2021 5:15:00 PM 15.42 59.756 0.445 8.58 2.59 13.28
4/28/2021 5:30:00 PM 15.43 59.774 0.444 8.56 2.58 12.96
4/28/2021 5:45:00 PM 15.42 59.756 0.443 8.54 2.65 12.7
4/28/2021 6:00:00 PM 15.45 59.81 0.442 8.54 2.72 12.55
4/28/2021 6:15:00 PM 15.47 59.846 0.441 8.54 2.74 12.48
4/28/2021 6:30:00 PM 15.46 59.828 0.441 8.53 2.76 12.33
4/28/2021 6:45:00 PM 15.43 59.774 0.441 8.51 2.72 12.14
4/28/2021 7:00:00 PM 15.41 59.738 0.441 8.48 2.73 11.93
4/28/2021 7:15:00 PM 15.36 59.648 0.441 8.45 2.66 11.68
4/28/2021 7:30:00 PM 15.3 59.54 0.442 8.41 2.77 11.43
4/28/2021 7:45:00 PM 15.23 59.414 0.442 8.36 2.85 11.21
4/28/2021 8:00:00 PM 15.15 59.27 0.442 8.32 2.9 10.96
4/28/2021 8:15:00 PM 15.09 59.162 0.442 8.28 2.79 10.78
4/28/2021 8:30:00 PM 15.03 59.054 0.442 8.24 3.21 10.61
4/28/2021 8:45:00 PM 14.98 58.964 0.442 8.2 3.39 10.44
4/28/2021 9:00:00 PM 14.93 58.874 0.443 8.16 3.34 10.25
4/28/2021 9:15:00 PM 14.88 58.784 0.443 8.12 3.24 10.09
4/28/2021 9:30:00 PM 14.83 58.694 0.443 8.08 3.06 9.89
4/28/2021 9:45:00 PM 14.78 58.604 0.443 8.03 3.33 9.71
4/28/2021 10:00:00 PM 14.72 58.496 0.443 7.99 3.03 9.52
4/28/2021 10:15:00 PM 14.67 58.406 0.443 7.94 3.14 9.35
4/28/2021 10:30:00 PM 14.61 58.298 0.442 7.9 3.19 9.17
4/28/2021 10:45:00 PM 14.56 58.208 0.442 7.86 3.16 9.05
4/28/2021 11:00:00 PM 14.51 58.118 0.442 7.82 3.33 8.91
4/28/2021 11:15:00 PM 14.47 58.046 0.442 7.79 3.34 8.8
4/28/2021 11:30:00 PM 14.43 57.974 0.442 7.76 4.04 8.68
4/28/2021 11:45:00 PM 14.39 57.902 0.442 7.73 3.5 8.6
4/29/2021 12:00:00 AM 14.34 57.812 0.442 7.71 3.34 8.53
4/29/2021 12:15:00 AM 14.29 57.722 0.442 7.69 3.19 8.45
4/29/2021 12:30:00 AM 14.24 57.632 0.442 7.67 3.19 8.37
4/29/2021 12:45:00 AM 14.18 57.524 0.442 7.65 3.15 8.32
4/29/2021 1:00:00 AM 14.12 57.416 0.442 7.63 3.07 8.27
4/29/2021 1:15:00 AM 14.07 57.326 0.443 7.61 2.98 8.22
4/29/2021 1:30:00 AM 14.01 57.218 0.443 7.6 2.92 8.19
4/29/2021 1:45:00 AM 13.96 57.128 0.443 7.58 2.97 8.14
4/29/2021 2:00:00 AM 13.9 57.02 0.443 7.57 3.05 8.11
4/29/2021 2:15:00 AM 13.84 56.912 0.443 7.56 3.12 8.1
4/29/2021 2:30:00 AM 13.8 56.84 0.444 7.55 2.98 8.08
4/29/2021 2:45:00 AM 13.75 56.75 0.444 7.54 2.93 8.06
4/29/2021 3:00:00 AM 13.7 56.66 0.445 7.54 3.05 8.05
4/29/2021 3:15:00 AM 13.66 56.588 0.445 7.53 3.03 8.03
4/29/2021 3:30:00 AM 13.63 56.534 0.446 7.52 2.94 8.01
4/29/2021 3:45:00 AM 13.59 56.462 0.448 7.51 2.75 8
4/29/2021 4:00:00 AM 13.55 56.39 0.451 7.51 2.76 8
4/29/2021 4:15:00 AM 13.52 56.336 0.455 7.5 2.88 7.98
4/29/2021 4:30:00 AM 13.48 56.264 0.46 7.49 2.94 7.96
4/29/2021 4:45:00 AM 13.45 56.21 0.464 7.49 2.98 7.94
4/29/2021 5:00:00 AM 13.41 56.138 0.467 7.48 3.07 7.93
4/29/2021 5:15:00 AM 13.38 56.084 0.468 7.48 3.1 7.91
4/29/2021 5:30:00 AM 13.35 56.03 0.466 7.47 3.06 7.93
4/29/2021 5:45:00 AM 13.32 55.976 0.462 7.47 3 7.93
4/29/2021 6:00:00 AM 13.3 55.94 0.458 7.47 2.85 7.94
4/29/2021 6:15:00 AM 13.27 55.886 0.453 7.46 2.95 7.97
4/29/2021 6:30:00 AM 13.25 55.85 0.447 7.46 3.08 7.99
4/29/2021 6:45:00 AM 13.22 55.796 0.443 7.47 3.31 8.02
4/29/2021 7:00:00 AM 13.19 55.742 0.439 7.47 3.41 8.04
4/29/2021 7:15:00 AM 13.16 55.688 0.437 7.47 3.23 8.1
4/29/2021 7:30:00 AM 13.13 55.634 0.432 7.48 4.55 8.16
4/29/2021 7:45:00 AM 13.1 55.58 0.446 7.48 6.13 8.24
4/29/2021 8:00:00 AM 13.07 55.526 0.439 7.48 5.18 8.26
4/29/2021 8:15:00 AM 13.04 55.472 0.436 7.49 5.47 8.33
4/29/2021 8:30:00 AM 13.01 55.418 0.441 7.49 7.3 8.45
4/29/2021 8:45:00 AM 12.99 55.382 0.435 7.5 8.09 8.54
4/29/2021 9:00:00 AM 12.96 55.328 0.432 7.51 9.05 8.66
4/29/2021 9:15:00 AM 12.93 55.274 0.432 7.52 9.76 8.74
4/29/2021 9:30:00 AM 12.9 55.22 0.433 7.52 10.19 8.78
4/29/2021 9:45:00 AM 12.87 55.166 0.437 7.52 11.37 8.85
4/29/2021 10:00:00 AM 12.84 55.112 0.438 7.52 11.22 8.89
4/29/2021 10:15:00 AM 12.8 55.04 0.436 7.52 11.67 8.95
4/29/2021 10:30:00 AM 12.77 54.986 0.43 7.53 12.04 9.04
4/29/2021 10:45:00 AM 12.72 54.896 0.424 7.53 11.49 9.12
4/29/2021 11:00:00 AM 12.69 54.842 0.417 7.54 11.07 9.2
4/29/2021 11:15:00 AM 12.65 54.77 0.408 7.55 10.87 9.33
4/29/2021 11:30:00 AM 12.61 54.698 0.395 7.56 11.66 9.44
4/29/2021 11:45:00 AM 12.58 54.644 0.387 7.57 10.47 9.57
4/29/2021 12:00:00 PM 12.55 54.59 0.379 7.59 10.84 9.69
4/29/2021 12:15:00 PM 12.52 54.536 0.375 7.6 11.4 9.77
4/29/2021 12:30:00 PM 12.5 54.5 0.373 7.61 11.78 9.84
4/29/2021 12:45:00 PM 12.43 54.374 0.372 7.6 13.03 9.81
4/29/2021 1:00:00 PM 12.36 54.248 0.365 7.56 18.42 9.7
4/29/2021 1:15:00 PM 12.27 54.086 0.339 7.51 19.75 9.62
4/29/2021 1:30:00 PM 12.12 53.816 0.314 7.47 24.55 9.64
4/29/2021 1:45:00 PM 12.03 53.654 0.295 7.43 23.07 9.64
4/29/2021 2:00:00 PM 11.99 53.582 0.278 7.4 32.14 9.65
4/29/2021 2:15:00 PM 11.95 53.51 0.262 7.37 35.72 9.69
4/29/2021 2:30:00 PM 11.84 53.312 0.246 7.35 31.13 9.82
4/29/2021 2:45:00 PM 11.66 52.988 0.233 7.32 39.98 9.91
4/29/2021 3:00:00 PM 11.55 52.79 0.222 7.29 41.48 9.94
4/29/2021 3:15:00 PM 11.5 52.7 0.215 7.27 41.96 9.96
4/29/2021 3:30:00 PM 11.47 52.646 0.206 7.26 62.48 9.96
4/29/2021 3:45:00 PM 11.45 52.61 0.199 7.25 54.69 9.98
4/29/2021 4:00:00 PM 11.43 52.574 0.192 7.23 85.98 9.98
4/29/2021 4:15:00 PM 11.42 52.556 0.186 7.21 67.94 9.97
4/29/2021 4:30:00 PM 11.42 52.556 0.181 7.18 113.95 9.96
4/29/2021 4:45:00 PM 11.41 52.538 0.178 7.17 91.99 9.96
4/29/2021 5:00:00 PM 11.41 52.538 0.177 7.16 96.47 9.95
4/29/2021 5:15:00 PM 11.44 52.592 0.177 7.16 112.03 9.93
4/29/2021 5:30:00 PM 11.47 52.646 0.175 7.16 189.27 9.93
4/29/2021 5:45:00 PM 11.51 52.718 0.17 7.11 211.15 9.91
4/29/2021 6:00:00 PM 11.53 52.754 0.165 7.11 177.29 9.89
4/29/2021 6:15:00 PM 11.54 52.772 0.16 7.1 294.72 9.87
4/29/2021 6:30:00 PM 11.55 52.79 0.156 7.1 272.41 9.84
4/29/2021 6:45:00 PM 11.56 52.808 0.152 7.07 312.24 9.81
4/29/2021 7:00:00 PM 11.56 52.808 0.148 7.08 447.98 9.8
4/29/2021 7:15:00 PM 11.55 52.79 0.145 7.06 398.37 9.77
4/29/2021 7:30:00 PM 11.54 52.772 0.141 7.05 657.16 9.75
4/29/2021 7:45:00 PM 11.52 52.736 0.138 7.04 440.13 9.72
4/29/2021 8:00:00 PM 11.5 52.7 0.134 7.01 591.09 9.7
4/29/2021 8:15:00 PM 11.47 52.646 0.131 7 536.22 9.68
4/29/2021 8:30:00 PM 11.43 52.574 0.128 6.99 867.62 9.66
4/29/2021 8:45:00 PM 11.4 52.52 0.125 6.97 599.04 9.64
4/29/2021 9:00:00 PM 11.33 52.394 0.122 6.92 534.29 9.62
4/29/2021 9:15:00 PM 11.31 52.358 0.12 6.9 528.02 9.57
4/29/2021 9:30:00 PM 11.32 52.376 0.121 6.9 583 9.52
4/29/2021 9:45:00 PM 11.29 52.322 0.122 6.9 531.37 9.52
4/29/2021 10:00:00 PM 11.26 52.268 0.122 6.89 657.49 9.52
4/29/2021 10:15:00 PM 11.24 52.232 0.122 6.9 728.52 9.52
4/29/2021 10:30:00 PM 11.2 52.16 0.121 6.9 477.3 9.55
4/29/2021 10:45:00 PM 11.17 52.106 0.119 6.9 561.18 9.57
4/29/2021 11:00:00 PM 11.13 52.034 0.119 6.89 519.39 9.58
4/29/2021 11:15:00 PM 11.1 51.98 0.118 6.89 402.23 9.58
4/29/2021 11:30:00 PM 11.07 51.926 0.118 6.89 434.4 9.59
4/29/2021 11:45:00 PM 11.05 51.89 0.119 6.88 460.22 9.6
4/30/2021 12:00:00 AM 11.02 51.836 0.12 6.85 497.29 9.61
4/30/2021 12:15:00 AM 10.99 51.782 0.121 6.86 390.14 9.61
4/30/2021 12:30:00 AM 10.96 51.728 0.123 6.82 332.78 9.62
4/30/2021 12:45:00 AM 10.93 51.674 0.124 6.83 308.69 9.62
4/30/2021 1:00:00 AM 10.9 51.62 0.126 6.81 365.91 9.61
4/30/2021 1:15:00 AM 10.87 51.566 0.128 6.83 284.6 9.62
4/30/2021 1:30:00 AM 10.84 51.512 0.13 6.84 212.52 9.61
4/30/2021 1:45:00 AM 10.8 51.44 0.132 6.85 230.94 9.61
4/30/2021 2:00:00 AM 10.76 51.368 0.134 6.86 178.45 9.62
4/30/2021 2:15:00 AM 10.72 51.296 0.136 6.86 181.32 9.64
4/30/2021 2:30:00 AM 10.67 51.206 0.137 6.88 185.35 9.66
4/30/2021 2:45:00 AM 10.62 51.116 0.138 6.88 193.6 9.69
4/30/2021 3:00:00 AM 10.58 51.044 0.138 6.9 129.01 9.72
4/30/2021 3:15:00 AM 10.53 50.954 0.139 6.9 174.9 9.75
4/30/2021 3:30:00 AM 10.49 50.882 0.139 6.91 119.56 9.78
4/30/2021 3:45:00 AM 10.45 50.81 0.139 6.91 144.66 9.8
4/30/2021 4:00:00 AM 10.41 50.738 0.14 6.92 139.61 9.82
4/30/2021 4:15:00 AM 10.37 50.666 0.14 6.91 111.37 9.83
4/30/2021 4:30:00 AM 10.33 50.594 0.14 6.91 102.6 9.86
4/30/2021 4:45:00 AM 10.28 50.504 0.141 6.91 128.94 9.88
4/30/2021 5:00:00 AM 10.23 50.414 0.141 6.92 131.85 9.92
4/30/2021 5:15:00 AM 10.19 50.342 0.141 6.92 103.63 9.94
4/30/2021 5:30:00 AM 10.14 50.252 0.142 6.93 126.56 9.98
4/30/2021 5:45:00 AM 10.1 50.18 0.142 6.94 156.4 10.02
4/30/2021 6:00:00 AM 10.06 50.108 0.143 6.95 87.36 10.05
4/30/2021 6:15:00 AM 10.02 50.036 0.143 6.96 93.24 10.08
4/30/2021 6:30:00 AM 9.98 49.964 0.144 6.96 114.18 10.09
4/30/2021 6:45:00 AM 9.94 49.892 0.144 6.97 106.44 10.12
4/30/2021 7:00:00 AM 9.9 49.82 0.145 6.97 73.14 10.14
4/30/2021 7:15:00 AM 9.86 49.748 0.145 6.98 88.21 10.16
4/30/2021 7:30:00 AM 9.82 49.676 0.146 6.99 68.22 10.17
4/30/2021 7:45:00 AM 9.79 49.622 0.147 7 94.4 10.19
4/30/2021 8:00:00 AM 9.76 49.568 0.148 6.99 105.7 10.2
4/30/2021 8:15:00 AM 9.73 49.514 0.148 7 71.03 10.22
4/30/2021 8:30:00 AM 9.71 49.478 0.149 7.01 78.39 10.24
4/30/2021 8:45:00 AM 9.68 49.424 0.15 7.01 97.87 10.25
4/30/2021 9:00:00 AM 9.67 49.406 0.151 7.02 69.21 10.27
4/30/2021 9:15:00 AM 9.66 49.388 0.152 7.02 78.86 10.29
4/30/2021 9:30:00 AM 9.66 49.388 0.153 7.04 42.36 10.31
4/30/2021 9:45:00 AM 9.67 49.406 0.154 7.05 50.76 10.32
4/30/2021 10:00:00 AM 9.69 49.442 0.155 7.05 43.22 10.34
4/30/2021 10:15:00 AM 9.7 49.46 0.156 7.06 47.99 10.35
4/30/2021 10:30:00 AM 9.71 49.478 0.157 7.07 61.17 10.36
4/30/2021 10:45:00 AM 9.71 49.478 0.158 7.08 40.74 10.37
4/30/2021 11:00:00 AM 9.73 49.514 0.159 7.08 49.05 10.38
4/30/2021 11:15:00 AM 9.76 49.568 0.16 7.09 55.25 10.39
4/30/2021 11:30:00 AM 9.84 49.712 0.161 7.1 36.65 10.4
4/30/2021 11:45:00 AM 9.89 49.802 0.162 7.11 32.88 10.4
4/30/2021 12:00:00 PM 9.98 49.964 0.163 7.11 45.35 10.4
4/30/2021 12:15:00 PM 10.06 50.108 0.164 7.11 41.67 10.4
4/30/2021 12:30:00 PM 10.16 50.288 0.165 7.12 45.83 10.41
4/30/2021 12:45:00 PM 10.29 50.522 0.166 7.13 30.38 10.4
4/30/2021 1:00:00 PM 10.41 50.738 0.167 7.13 39.73 10.39
4/30/2021 1:15:00 PM 10.52 50.936 0.167 7.14 44.72 10.39
4/30/2021 1:30:00 PM 10.64 51.152 0.168 7.14 53.83 10.39
4/30/2021 1:45:00 PM 10.74 51.332 0.169 7.15 81.26 10.38
4/30/2021 2:00:00 PM 10.88 51.584 0.17 7.15 37.08 10.37
4/30/2021 2:15:00 PM 11.04 51.872 0.171 7.16 35.79 10.37
4/30/2021 2:30:00 PM 11.22 52.196 0.172 7.17 44.93 10.35
4/30/2021 2:45:00 PM 11.39 52.502 0.172 7.18 35.83 10.34
4/30/2021 3:00:00 PM 11.5 52.7 0.173 7.18 51.63 10.33
4/30/2021 3:15:00 PM 11.59 52.862 0.174 7.19 25.47 10.31
4/30/2021 3:30:00 PM 11.7 53.06 0.175 7.19 41.47 10.28
4/30/2021 3:45:00 PM 11.83 53.294 0.176 7.2 31.08 10.25
4/30/2021 4:00:00 PM 11.93 53.474 0.177 7.2 35.57 10.22
4/30/2021 4:15:00 PM 12.04 53.672 0.178 7.2 27.77 10.18
4/30/2021 4:30:00 PM 12.14 53.852 0.178 7.2 41.52 10.15
4/30/2021 4:45:00 PM 12.23 54.014 0.179 7.21 38.92 10.11
4/30/2021 5:00:00 PM 12.25 54.05 0.179 7.22 31.07 10.09
4/30/2021 5:15:00 PM 12.24 54.032 0.18 7.22 33.92 10.08
4/30/2021 5:30:00 PM 12.21 53.978 0.181 7.21 31.4 10.06
4/30/2021 5:45:00 PM 12.18 53.924 0.181 7.23 33.66 10.04
4/30/2021 6:00:00 PM 12.12 53.816 0.182 7.22 33.18 10.03
4/30/2021 6:15:00 PM 12.08 53.744 0.183 7.23 33.08 10.02
4/30/2021 6:30:00 PM 12.02 53.636 0.184 7.23 34.2 9.99
4/30/2021 6:45:00 PM 11.96 53.528 0.185 7.23 33.22 9.98
4/30/2021 7:00:00 PM 11.88 53.384 0.185 7.23 32.87 9.96
4/30/2021 7:15:00 PM 11.81 53.258 0.186 7.23 36.57 9.96
4/30/2021 7:30:00 PM 11.7 53.06 0.187 7.23 27.34 9.97
4/30/2021 7:45:00 PM 11.58 52.844 0.188 7.23 31.39 9.98
4/30/2021 8:00:00 PM 11.44 52.592 0.189 7.22 35.14 9.99
4/30/2021 8:15:00 PM 11.35 52.43 0.189 7.23 25.16 9.99
4/30/2021 8:30:00 PM 11.25 52.25 0.19 7.23 22.59 10
4/30/2021 8:45:00 PM 11.16 52.088 0.19 7.22 29.4 10
4/30/2021 9:00:00 PM 11.05 51.89 0.191 7.22 32.53 10.02
4/30/2021 9:15:00 PM 10.94 51.692 0.192 7.22 34.23 10.04
4/30/2021 9:30:00 PM 10.83 51.494 0.193 7.21 34.17 10.05
4/30/2021 9:45:00 PM 10.71 51.278 0.193 7.21 26.9 10.07
4/30/2021 10:00:00 PM 10.59 51.062 0.194 7.21 35.76 10.09
4/30/2021 10:15:00 PM 10.48 50.864 0.194 7.21 31.37 10.12
4/30/2021 10:30:00 PM 10.35 50.63 0.195 7.21 35.34 10.15
4/30/2021 10:45:00 PM 10.21 50.378 0.196 7.21 29.5 10.17
4/30/2021 11:00:00 PM 10.09 50.162 0.197 7.21 25.53 10.2
4/30/2021 11:15:00 PM 9.97 49.946 0.198 7.2 23.24 10.24
4/30/2021 11:30:00 PM 9.84 49.712 0.198 7.21 26.78 10.27
4/30/2021 11:45:00 PM 9.71 49.478 0.199 7.2 28.02 10.3
5/1/2021 12:00:00 AM 9.58 49.244 0.199 7.21 25.6 10.34
5/1/2021 12:15:00 AM 9.45 49.01 0.199 7.2 25.06 10.37
5/1/2021 12:30:00 AM 9.33 48.794 0.199 7.2 23.07 10.41
5/1/2021 12:45:00 AM 9.21 48.578 0.2 7.19 32.25 10.44
5/1/2021 1:00:00 AM 9.09 48.362 0.2 7.18 24.47 10.47
5/1/2021 1:15:00 AM 8.98 48.164 0.2 7.17 23.52 10.51
5/1/2021 1:30:00 AM 8.87 47.966 0.201 7.16 21.3 10.54
5/1/2021 1:45:00 AM 8.76 47.768 0.201 7.16 30.92 10.56
5/1/2021 2:00:00 AM 8.67 47.606 0.202 7.16 23.27 10.59
5/1/2021 2:15:00 AM 8.58 47.444 0.203 7.16 26.41 10.61
5/1/2021 2:30:00 AM 8.49 47.282 0.203 7.16 23.92 10.64
5/1/2021 2:45:00 AM 8.41 47.138 0.203 7.16 29.61 10.67
5/1/2021 3:00:00 AM 8.33 46.994 0.204 7.16 23.46 10.69
5/1/2021 3:15:00 AM 8.26 46.868 0.204 7.16 18.95 10.72
5/1/2021 3:30:00 AM 8.19 46.742 0.205 7.16 25.58 10.74
5/1/2021 3:45:00 AM 8.12 46.616 0.206 7.16 29.09 10.76
5/1/2021 4:00:00 AM 8.06 46.508 0.206 7.17 33.06 10.78
5/1/2021 4:15:00 AM 8 46.4 0.207 7.17 37.87 10.8
5/1/2021 4:30:00 AM 7.94 46.292 0.207 7.18 24.25 10.82
5/1/2021 4:45:00 AM 7.89 46.202 0.208 7.18 21.69 10.83
5/1/2021 5:00:00 AM 7.84 46.112 0.208 7.18 21.81 10.85
5/1/2021 5:15:00 AM 7.79 46.022 0.209 7.18 23.34 10.87
5/1/2021 5:30:00 AM 7.73 45.914 0.21 7.18 24.46 10.89
5/1/2021 5:45:00 AM 7.68 45.824 0.211 7.18 21.98 10.91
5/1/2021 6:00:00 AM 7.62 45.716 0.211 7.18 22.12 10.91
5/1/2021 6:15:00 AM 7.57 45.626 0.211 7.19 38.05 10.94
5/1/2021 6:30:00 AM 7.51 45.518 0.212 7.18 22.18 10.95
5/1/2021 6:45:00 AM 7.47 45.446 0.212 7.19 23.18 10.97
5/1/2021 7:00:00 AM 7.41 45.338 0.213 7.19 19.18 10.98
5/1/2021 7:15:00 AM 7.36 45.248 0.213 7.2 21.01 11
5/1/2021 7:30:00 AM 7.32 45.176 0.214 7.2 17.95 11.01
5/1/2021 7:45:00 AM 7.28 45.104 0.214 7.2 21.47 11.03
5/1/2021 8:00:00 AM 7.24 45.032 0.214 7.2 659.81 11.04
5/1/2021 8:15:00 AM 7.2 44.96 0.215 7.2 20.85 11.06
5/1/2021 8:30:00 AM 7.15 44.87 0.215 7.21 17.6 11.09
5/1/2021 8:45:00 AM 7.12 44.816 0.216 7.22 18.02 11.11
5/1/2021 9:00:00 AM 7.11 44.798 0.216 7.22 18.32 11.14
5/1/2021 9:15:00 AM 7.12 44.816 0.217 7.23 15.41 11.17
5/1/2021 9:30:00 AM 7.15 44.87 0.217 7.24 16.94 11.21
5/1/2021 9:45:00 AM 7.21 44.978